SMRA70 UAOL 031200
AAXX 03121
71001 15966 02701 11227 21256 39040 40035 52008 60001 333 11122 21236 70000=
71001 15966 02701 11227 21256 39040 40035 52008 60001 333 11122 21236 70000=
71002 17536 81114 11180 21208 39333 49891 57045 69901 771// 333 11225 21319 70000=
71002 17536 81114 11180 21208 39333 49891 57045 69901 771// 333 11225 21319 70000=
71003 17666 82710 11352 21393 39684 40092 52008 69901 771// 333 11229 21352 79999=
71003 17666 82710 11352 21393 39684 40092 52008 69901 771// 333 11229 21352 79999=
71005 16/// ///// 11184 21202 60001 333 11172 21198 70000=
71005 16/// ///// 11184 21202 60001 333 11172 21198 70000=
71006 16/// /2903 11086 21145 60001 333 11157 21176 70000=
71006 16/// /2903 11086 21145 60001 333 11157 21176 70000=
71007 16/// /2118 10018 21069 60001 333 10049 21015 7////=
71007 16/// /2118 10018 21069 60001 333 10049 21015 7////=
71008 16/// /2316 11008 21065 60001 333 11123 21182 70000=
71008 16/// /2316 11008 21065 60001 333 11123 21182 70000=
71009 16/// /2412 11004 21062 60001 333 11119 21141 70000=
71009 16/// /2412 11004 21062 60001 333 11119 21141 70000=
71010 16/// /1907 11139 21164 60001 333 11168 21184 70000=
71010 16/// /1907 11139 21164 60001 333 11168 21184 70000=
71011 16/// ///// 11127 21154 60001 333 11144 21151 70000=
71011 16/// ///// 11127 21154 60001 333 11144 21151 70000=
71012 16/// /2106 11154 21176 60001 333 11169 21195 70000=
71012 16/// /2106 11154 21176 60001 333 11169 21195 70000=
71013 16/// /2414 11086 21136 60001 333 11152 21161 70000=
71013 16/// /2414 11086 21136 60001 333 11152 21161 70000=
71014 16/// /1804 11037 21115 60001 333 11127 21151 70000=
71014 16/// /1804 11037 21115 60001 333 11127 21151 70000=
71015 46/// ///// 11025 6///1 333 7////=
71015 46/// ///// 11025 6///1 333 7////=
71016 46/// ///// 10027 6///1 333 7////=
71016 46/// ///// 10027 6///1 333 7////=
71017 16/// /2808 11339 21374 30113 40125 57004 60001 333 21341 4/005 70000=
71017 16/// /2808 11339 21374 30113 40125 57004 60001 333 21341 4/005 70000=
71018 16/// /3108 11391 21428 30028 40092 58006 60001 333 11360 21396 4/997 70000=
71018 16/// /3108 11391 21428 30028 40092 58006 60001 333 11360 21396 4/997 70000=
71020 46/// /0402 11280 21318 39815 40084 53005 6///1 333 21281 7////=
71020 46/// /0402 11280 21318 39815 40084 53005 6///1 333 21281 7////=
71021 46/// ///// 11209 21251 39693 40060 51001 6///1 333 21290 4/036 7////=
71021 46/// ///// 11209 21251 39693 40060 51001 6///1 333 21290 4/036 7////=
71022 17566 81003 10049 20046 39982 40025 57007 60021 7004/ 333 10066 20048 70131=
71022 17566 81003 10049 20046 39982 40025 57007 60021 7004/ 333 10066 20048 70131=
71024 16/// /0000 11172 21198 39694 40067 57005 60001 333 11194 21202 4/031 70000=
71024 16/// /0000 11172 21198 39694 40067 57005 60001 333 11194 21202 4/031 70000=
71026 16/// /2310 11013 21064 39267 40129 56013 60001 333 11032 21067 4/997 70000=
71026 16/// /2310 11013 21064 39267 40129 56013 60001 333 11032 21067 4/997 70000=
71027 17/// /0000 11046 21053 39938 49948 56058 60011 7//4/ 333 11039 21093 4/006 70016=
71027 17/// /0000 11046 21053 39938 49948 56058 60011 7//4/ 333 11039 21093 4/006 70016=
71028 46/// ///// 10036 21016 39059 40083 56012 6///1 333 10078 20029 4/019 7////=
71028 46/// ///// 10036 21016 39059 40083 56012 6///1 333 10078 20029 4/019 7////=
71029 16/// /0404 11342 21377 30114 40159 56009 60001 333 11324 21360 4/012 70000=
71029 16/// /0404 11342 21377 30114 40159 56009 60001 333 11324 21360 4/012 70000=
71030 16/// /2911 11027 21099 39868 49959 55005 60001 333 10023 21027 4/004 70000=
71030 16/// /2911 11027 21099 39868 49959 55005 60001 333 10023 21027 4/004 70000=
71033 17/// /1709 11208 21238 39479 40147 56052 69951 7//4/ 333 11236 21350 4/038 70005=
71033 17/// /1709 11208 21238 39479 40147 56052 69951 7//4/ 333 11236 21350 4/038 70005=
71035 16/// /2504 11086 21110 60001 333 11126 21150 70000=
71035 16/// /2504 11086 21110 60001 333 11126 21150 70000=
71036 15866 80402 11222 21269 39901 40306 57032 60001 333 11234 21256 70000=
71036 15866 80402 11222 21269 39901 40306 57032 60001 333 11234 21256 70000=
71037 05/// /3301 10068 20016 30100 40118 57027 60001 333 20054 60005=
71038 16/// /2814 11070 21156 39881 49933 53003 60001 333 11026 21072 4/057 70010=
71038 16/// /2814 11070 21156 39881 49933 53003 60001 333 11026 21072 4/057 70010=
71041 15766 81909 10012 21010 39813 49953 57050 60001 333 11037 21099 70000=
71041 15766 81909 10012 21010 39813 49953 57050 60001 333 11037 21099 70000=
71042 16/// /0401 10022 20008 30121 40127 58027 60001 333 10074 20009 70000=
71042 16/// /0401 10022 20008 30121 40127 58027 60001 333 10074 20009 70000=
71047 16/// ///// 11187 21214 60001 333 11178 21201 70000=
71047 16/// ///// 11187 21214 60001 333 11178 21201 70000=
71057 16/// /1811 11003 21063 60001 333 10023 21118 70000=
71057 16/// /1811 11003 21063 60001 333 10023 21118 70000=
71061 16/// /2101 11149 21174 39303 40117 57017 60001 333 11118 21178 4/010 70000=
71061 16/// /2101 11149 21174 39303 40117 57017 60001 333 11118 21178 4/010 70000=
71063 16/// /3210 11253 21322 30112 40215 51034 60001 333 11005 21253 4/037 70000=
71063 16/// /3210 11253 21322 30112 40215 51034 60001 333 11005 21253 4/037 70000=
71067 16/// ///// 11119 21148 60001 333 11152 21164 70000=
71067 16/// ///// 11119 21148 60001 333 11152 21164 70000=
71070 16/// /2430 10038 21049 60001 333 11097 21125 70000=
71070 16/// /2430 10038 21049 60001 333 11097 21125 70000=
71088 459// ///// 11357 21392 6///1 333 7////=
71088 459// ///// 11357 21392 6///1 333 7////=
71089 16/// /1804 11183 21210 60001 333 11183 21201 70000=
71089 16/// /1804 11183 21210 60001 333 11183 21201 70000=
71099 15966 42708 11329 21364 30237 40259 52011 60001 333 11316 21335 70000=
71099 15966 42708 11329 21364 30237 40259 52011 60001 333 11316 21335 70000=
71107 46/// ///// 39891 56019 6///1 333 7////=
71107 46/// ///// 39891 56019 6///1 333 7////=
71110 16/// /1616 11000 21033 39988 40051 58045 69931 333 11029 21056 70010=
71110 16/// /1616 11000 21033 39988 40051 58045 69931 333 11029 21056 70010=
71118 16/// /1804 11183 21208 39275 40135 56024 60001 333 11172 21197 4/038 70000=
71118 16/// /1804 11183 21208 39275 40135 56024 60001 333 11172 21197 4/038 70000=
71144 16/// /1408 11245 21290 39998 40336 58030 60001 333 11227 21307 4/012 70000=
71144 16/// /1408 11245 21290 39998 40336 58030 60001 333 11227 21307 4/012 70000=
71149 16/// /1507 11207 21250 39842 40306 56034 60001 333 11228 21306 4/023 70000=
71149 16/// /1507 11207 21250 39842 40306 56034 60001 333 11228 21306 4/023 70000=
71152 17/// /1825 11001 21002 39989 40000 58057 60021 7//4/ 333 11036 21049 4/008 70039=
71152 17/// /1825 11001 21002 39989 40000 58057 60021 7//4/ 333 11036 21049 4/008 70039=
71156 16/// /2703 11061 21082 38996 40110 58007 60001 333 11128 21163 4/026 70000=
71156 16/// /2703 11061 21082 38996 40110 58007 60001 333 11128 21163 4/026 70000=
71159 16/// /1107 11037 21052 39894 49968 56068 60001 333 11052 21071 4/010 70015=
71159 16/// /1107 11037 21052 39894 49968 56068 60001 333 11052 21071 4/010 70015=
71171 16/// /3117 11128 21224 30132 40238 52033 60001 333 10018 21128 70000=
71171 16/// /3117 11128 21224 30132 40238 52033 60001 333 10018 21128 70000=
71172 17/// ///// 11267 21355 30029 40271 53039 69921 7//4/ 333 11001 21267 4/030 70021=
71172 17/// ///// 11267 21355 30029 40271 53039 69921 7//4/ 333 11001 21267 4/030 70021=
71174 15966 03210 11340 21382 30193 40208 57013 60001 333 11350 21368 70000=
71174 15966 03210 11340 21382 30193 40208 57013 60001 333 11350 21368 70000=
71175 16/// /1821 10022 20009 39924 49952 56053 60001 333 11013 21041 4/004 70000=
71175 16/// /1821 10022 20009 39924 49952 56053 60001 333 11013 21041 4/004 70000=
71178 16/// /1919 11031 21052 30062 40095 56024 60001 333 11068 21097 4/029 70000=
71178 16/// /1919 11031 21052 30062 40095 56024 60001 333 11068 21097 4/029 70000=
71190 46/// /3034 11200 21237 6///1 333 11030 21248 7////=
71190 46/// /3034 11200 21237 6///1 333 11030 21248 7////=
71191 17/// /2701 11017 21029 60041 7//4/ 333 10009 21020 4/021 70050=
71191 17/// /2701 11017 21029 60041 7//4/ 333 10009 21020 4/021 70050=
71192 15966 81505 10021 21024 39451 40111 57013 69931 333 10018 20009 70027=
71192 15966 81505 10021 21024 39451 40111 57013 69931 333 10018 20009 70027=
71195 16/// /2501 11237 21260 39051 40040 52009 60001 333 11118 21242 4/029 70000=
71195 16/// /2501 11237 21260 39051 40040 52009 60001 333 11118 21242 4/029 70000=
71198 46/// /3219 11236 21287 6///1 333 11007 21239 7////=
71198 46/// /3219 11236 21287 6///1 333 11007 21239 7////=
71199 16/// /3001 11188 21212 39220 40075 51005 60011 333 11186 21203 4/049 70034=
71199 16/// /3001 11188 21212 39220 40075 51005 60011 333 11186 21203 4/049 70034=
71202 16/// /2204 11125 21150 60001 333 11155 21173 70000=
71202 16/// /2204 11125 21150 60001 333 11155 21173 70000=
71204 16/// /0000 11197 21220 39164 40203 56022 60001 333 21205 4/001 70000=
71204 16/// /0000 11197 21220 39164 40203 56022 60001 333 21205 4/001 70000=
71209 46/// /0210 10071 20028 6///1 333 10062 20048 7////=
71209 46/// /0210 10071 20028 6///1 333 10062 20048 7////=
71212 17/// /3210 11322 21372 39207 40041 53023 69941 7//4/ 333 11077 21322 4/100 70087=
71212 17/// /3210 11322 21372 39207 40041 53023 69941 7//4/ 333 11077 21322 4/100 70087=
71213 16/// /3007 11329 21375 39935 40262 52012 60001 333 11058 21331 4/022 70010=
71213 16/// /3007 11329 21375 39935 40262 52012 60001 333 11058 21331 4/022 70010=
71214 16/// /1608 11171 21197 60001 333 11182 21192 70000=
71214 16/// /1608 11171 21197 60001 333 11182 21192 70000=
71217 16/// /2118 11002 21073 60001 333 10043 21079 70000=
71217 16/// /2118 11002 21073 60001 333 10043 21079 70000=
71219 17/// /1008 10058 20034 30008 40017 58007 69961 7//4/ 333 10068 20049 70068=
71219 17/// /1008 10058 20034 30008 40017 58007 69961 7//4/ 333 10068 20049 70068=
71220 46/// /1312 10060 20043 6///1 333 10078 20050 7////=
71220 46/// /1312 10060 20043 6///1 333 10078 20050 7////=
71221 16/// /2401 11119 21143 60001 333 11137 21151 70024=
71221 16/// /2401 11119 21143 60001 333 11137 21151 70024=
71223 16/// /2211 11148 21168 60001 333 11182 21199 70000=
71223 16/// /2211 11148 21168 60001 333 11182 21199 70000=
71224 16/// /2212 10005 21088 60001 333 10026 21032 70000=
71224 16/// /2212 10005 21088 60001 333 10026 21032 70000=
71225 46/// /2226 10026 21052 6///1 333 10024 21134 7////=
71225 46/// /2226 10026 21052 6///1 333 10024 21134 7////=
71226 16/// /0504 11105 21127 60001 333 11118 21158 70006=
71226 16/// /0504 11105 21127 60001 333 11118 21158 70006=
71227 16/// /1905 11153 21180 60001 333 11166 21179 70000=
71227 16/// /1905 11153 21180 60001 333 11166 21179 70000=
71228 46/// /1606 11168 21189 6///1 333 11166 21184 7////=
71228 46/// /1606 11168 21189 6///1 333 11166 21184 7////=
71229 46/// /1401 11100 21115 6///1 333 11124 21216 7////=
71229 46/// /1401 11100 21115 6///1 333 11124 21216 7////=
71233 16/// /1001 11023 21086 60001 333 11117 21149 70000=
71233 16/// /1001 11023 21086 60001 333 11117 21149 70000=
71237 16/// /0000 11149 21172 39298 40140 57010 60001 333 11111 21149 70000=
71237 16/// /0000 11149 21172 39298 40140 57010 60001 333 11111 21149 70000=
71257 16/// /1804 11123 21138 60001 333 11140 21151 70000=
71257 16/// /1804 11123 21138 60001 333 11140 21151 70000=
71258 16/// /2507 10016 21091 60001 333 11023 21143 70000=
71258 16/// /2507 10016 21091 60001 333 11023 21143 70000=
71259 16/// /1904 11167 21167 60001 333 11140 21171 70000=
71259 16/// /1904 11167 21167 60001 333 11140 21171 70000=
71264 17/// /2310 10022 21009 39921 49952 57048 60021 7//4/ 333 10019 21022 4/003 70024=
71264 17/// /2310 10022 21009 39921 49952 57048 60021 7//4/ 333 10019 21022 4/003 70024=
71267 15966 02013 11003 21081 39047 40144 57005 60001 333 10061 21007 70000=
71267 15966 02013 11003 21081 39047 40144 57005 60001 333 10061 21007 70000=
71268 17/// /2401 10001 20000 39422 40043 52001 69931 7//4/ 333 10017 21001 4/030 70006=
71268 17/// /2401 10001 20000 39422 40043 52001 69931 7//4/ 333 10017 21001 4/030 70006=
71269 16/// /2318 11021 21079 60001 333 11112 21135 70000=
71269 16/// /2318 11021 21079 60001 333 11112 21135 70000=
71274 16/// /1604 11168 21190 60001 333 11162 21183 70000=
71274 16/// /1604 11168 21190 60001 333 11162 21183 70000=
71275 46/// /1707 11191 21217 6///1 333 11185 21201 7////=
71275 46/// /1707 11191 21217 6///1 333 11185 21201 7////=
71276 16/// /1405 11177 21197 60001 333 11168 21192 70000=
71276 16/// /1405 11177 21197 60001 333 11168 21192 70000=
71277 16/// /1511 11055 21079 39207 40054 56006 60001 333 11097 21122 70005=
71277 16/// /1511 11055 21079 39207 40054 56006 60001 333 11097 21122 70005=
71278 16/// /1505 11187 21200 60001 333 11182 21198 70000=
71278 16/// /1505 11187 21200 60001 333 11182 21198 70000=
71279 17/// /2609 11137 21171 39796 49860 53004 60031 7//4/ 333 11055 21137 4/066 70079=
71279 17/// /2609 11137 21171 39796 49860 53004 60031 7//4/ 333 11055 21137 4/066 70079=
71285 16/// /1606 11167 21193 60001 333 11161 21187 70004=
71285 16/// /1606 11167 21193 60001 333 11161 21187 70004=
71286 16/// /1609 11167 21195 60001 333 11160 21188 70000=
71286 16/// /1609 11167 21195 60001 333 11160 21188 70000=
71287 16/// /1702 11152 21179 60001 333 11152 21182 4/038 70000=
71287 16/// /1702 11152 21179 60001 333 11152 21182 4/038 70000=
71288 16/// /2809 11364 21402 30121 40150 58015 60001 333 11334 21370 4/001 70000=
71288 16/// /2809 11364 21402 30121 40150 58015 60001 333 11334 21370 4/001 70000=
71289 16/// /2208 11087 21135 60001 333 11154 21166 70000=
71289 16/// /2208 11087 21135 60001 333 11154 21166 70000=
71291 16/// /3102 11299 21328 30038 40352 51014 60001 333 11165 21300 4/037 70000=
71291 16/// /3102 11299 21328 30038 40352 51014 60001 333 11165 21300 4/037 70000=
71292 15566 81514 11205 21249 39606 40254 57040 60001 333 11226 21280 70000=
71292 15566 81514 11205 21249 39606 40254 57040 60001 333 11226 21280 70000=
71293 15966 03212 11428 21474 30095 40108 54000 60001 333 11388 21432 70000=
71293 15966 03212 11428 21474 30095 40108 54000 60001 333 11388 21432 70000=
71294 16/// /3506 11261 21304 39790 40212 52031 60001 333 11016 21261 4/050 70027=
71294 16/// /3506 11261 21304 39790 40212 52031 60001 333 11016 21261 4/050 70027=
71295 16/// /1902 11339 21370 39874 40351 58005 60001 333 11182 21339 4/071 70000=
71295 16/// /1902 11339 21370 39874 40351 58005 60001 333 11182 21339 4/071 70000=
71296 17/// /0107 11216 21242 39914 40237 51030 60021 7//4/ 333 11010 21216 4/016 70020=
71296 17/// /0107 11216 21242 39914 40237 51030 60021 7//4/ 333 11010 21216 4/016 70020=
71297 16/// /3005 11157 21243 30112 40246 51030 60001 333 10024 21158 70005=
71297 16/// /3005 11157 21243 30112 40246 51030 60001 333 10024 21158 70005=
71298 16/// /3205 11128 21195 30041 40285 53027 60001 333 10008 21128 4/009 70000=
71298 16/// /3205 11128 21195 30041 40285 53027 60001 333 10008 21128 4/009 70000=
71299 16/// /2809 11339 21373 39969 40274 53004 60001 333 11183 21361 4/044 70000=
71299 16/// /2809 11339 21373 39969 40274 53004 60001 333 11183 21361 4/044 70000=
71300 16/// /3107 11245 21294 30084 40213 51036 60001 333 11003 21246 4/029 70005=
71300 16/// /3107 11245 21294 30084 40213 51036 60001 333 11003 21246 4/029 70005=
71301 16/// /2802 11356 21394 39870 40247 51005 60001 333 11077 21359 4/037 70010=
71301 16/// /2802 11356 21394 39870 40247 51005 60001 333 11077 21359 4/037 70010=
71302 16/// /1909 10019 21024 39277 40092 57004 60001 333 10019 20007 4/039 70000=
71302 16/// /1909 10019 21024 39277 40092 57004 60001 333 10019 20007 4/039 70000=
71303 46/// ///// 11115 21183 30054 40276 53027 6///1 333 10025 21115 7////=
71303 46/// ///// 11115 21183 30054 40276 53027 6///1 333 10025 21115 7////=
71304 16/// /2421 10034 21099 38700 40145 56011 60001 333 10046 20030 4/997 70000=
71304 16/// /2421 10034 21099 38700 40145 56011 60001 333 10046 20030 4/997 70000=
71305 17520 81305 11170 21195 39758 40059 57037 69931 771// 333 11181 21209 70002=
71305 17520 81305 11170 21195 39758 40059 57037 69931 771// 333 11181 21209 70002=
71306 15966 03511 11369 21405 30108 40144 52021 60001 333 11306 21387 70000=
71306 15966 03511 11369 21405 30108 40144 52021 60001 333 11306 21387 70000=
71307 16/// /3008 11143 21201 30016 40271 53025 60001 333 10004 21144 4/013 70000=
71307 16/// /3008 11143 21201 30016 40271 53025 60001 333 10004 21144 4/013 70000=
71308 16/// /1812 10010 21024 39874 49957 58051 60001 333 11028 21065 4/005 70000=
71308 16/// /1812 10010 21024 39874 49957 58051 60001 333 11028 21065 4/005 70000=
71309 16/// /2604 11354 21395 30227 40245 53007 60001 333 11209 21358 4/044 70002=
71309 16/// /2604 11354 21395 30227 40245 53007 60001 333 11209 21358 4/044 70002=
71310 16/// /2211 11004 21005 39888 49927 56045 69931 333 11030 21063 4/004 70003=
71310 16/// /2211 11004 21005 39888 49927 56045 69931 333 11030 21063 4/004 70003=
71311 17/// /1909 11014 21016 39905 49930 57023 69921 7//4/ 333 11009 21035 4/008 70009=
71311 17/// /1909 11014 21016 39905 49930 57023 69921 7//4/ 333 11009 21035 4/008 70009=
71312 16/// /1507 11187 21241 39729 40212 58046 60001 333 11240 21304 4/031 70000=
71312 16/// /1507 11187 21241 39729 40212 58046 60001 333 11240 21304 4/031 70000=
71314 16/// /3511 11237 21293 39859 40233 51028 60001 333 11009 21237 4/029 70000=
71314 16/// /3511 11237 21293 39859 40233 51028 60001 333 11009 21237 4/029 70000=
71315 17/// /2821 11145 21199 39895 49948 53044 69921 7//4/ 333 11071 21145 4/043 70021=
71315 17/// /2821 11145 21199 39895 49948 53044 69921 7//4/ 333 11071 21145 4/043 70021=
71316 16/// /1709 11170 21203 39402 40116 56032 60001 333 11168 21189 4/019 70003=
71316 16/// /1709 11170 21203 39402 40116 56032 60001 333 11168 21189 4/019 70003=
71317 16/// /2111 10009 21025 39891 49937 56047 60001 333 11030 21051 4/005 70000=
71317 16/// /2111 10009 21025 39891 49937 56047 60001 333 11030 21051 4/005 70000=
71318 16/// /2109 11154 21176 39155 40134 56023 60001 333 11170 21183 4/019 70000=
71318 16/// /2109 11154 21176 39155 40134 56023 60001 333 11170 21183 4/019 70000=
71320 46/// /3009 11431 21469 30097 40097 58001 6///1 333 11390 21435 4/034 7////=
71320 46/// /3009 11431 21469 30097 40097 58001 6///1 333 11390 21435 4/034 7////=
71322 16/// /3109 11339 21370 30192 40207 58014 60001 333 11350 21370 4/037 70000=
71322 16/// /3109 11339 21370 30192 40207 58014 60001 333 11350 21370 4/037 70000=
71324 17/// /2321 10027 21009 39909 49946 58046 69981 7//4/ 333 10022 21016 7////=
71324 17/// /2321 10027 21009 39909 49946 58046 69981 7//4/ 333 10022 21016 7////=
71325 46/// /2105 10025 21027 6///1 333 10010 21028 7////=
71325 46/// /2105 10025 21027 6///1 333 10010 21028 7////=
71326 17/// /2313 10017 21007 39871 49949 56048 60051 7//4/ 333 10013 21034 7////=
71326 17/// /2313 10017 21007 39871 49949 56048 60051 7//4/ 333 10013 21034 7////=
71327 46/// /2307 10018 21020 39882 49951 56047 6///1 333 10011 21037 4/007 7////=
71327 46/// /2307 10018 21020 39882 49951 56047 6///1 333 10011 21037 4/007 7////=
71328 46/// /2306 10027 21016 39946 49952 56048 6///1 333 10022 21022 7////=
71328 46/// /2306 10027 21016 39946 49952 56048 6///1 333 10022 21022 7////=
71329 46/// /2111 10029 21014 39946 49952 56047 6///1 333 10020 21023 7////=
71329 46/// /2111 10029 21014 39946 49952 56047 6///1 333 10020 21023 7////=
71330 46/// /2409 10026 21004 39945 49952 57048 6///1 333 10024 21017 7////=
71330 46/// /2409 10026 21004 39945 49952 57048 6///1 333 10024 21017 7////=
71331 16/// /1303 11226 21280 39833 40229 58046 60001 333 11232 21318 4/037 70000=
71331 16/// /1303 11226 21280 39833 40229 58046 60001 333 11232 21318 4/037 70000=
71332 16/// /2308 11396 21435 30130 40165 58009 60001 333 11325 21398 4/024 70000=
71332 16/// /2308 11396 21435 30130 40165 58009 60001 333 11325 21398 4/024 70000=
71334 16/// /1803 11372 21412 39892 40254 58026 60001 333 21376 4/039 70000=
71334 16/// /1803 11372 21412 39892 40254 58026 60001 333 21376 4/039 70000=
71335 459// /3609 6///1 333 7////=
71335 459// /3609 6///1 333 7////=
71337 16/// /1810 11080 21092 39793 40038 58032 60001 333 11086 21116 4/023 70000=
71337 16/// /1810 11080 21092 39793 40038 58032 60001 333 11086 21116 4/023 70000=
71338 17662 82007 11280 21312 30060 40068 57009 69901 771// 333 11257 21281 79999=
71338 17662 82007 11280 21312 30060 40068 57009 69901 771// 333 11257 21281 79999=
71339 17466 82402 11214 21238 30023 40038 57030 69931 7004/ 333 11175 21286 79999=
71339 17466 82402 11214 21238 30023 40038 57030 69931 7004/ 333 11175 21286 79999=
71341 16/// /2416 60001 333 70000=
71341 16/// /2416 60001 333 70000=
71342 16/// /2218 11143 21167 60001 333 11168 21180 4/997 70000=
71342 16/// /2218 11143 21167 60001 333 11168 21180 4/997 70000=
71343 16/// /2219 10034 21066 60001 333 10044 20005 4/997 70000=
71343 16/// /2219 10034 21066 60001 333 10044 20005 4/997 70000=
71344 16/// /2417 11010 21093 60001 333 11076 21155 70000=
71344 16/// /2417 11010 21093 60001 333 11076 21155 70000=
71345 16/// /2317 10032 21052 60001 333 10018 21039 4/997 70000=
71345 16/// /2317 10032 21052 60001 333 10018 21039 4/997 70000=
71346 16/// /2318 10031 21047 60001 333 10044 21091 70000=
71346 16/// /2318 10031 21047 60001 333 10044 21091 70000=
71347 16/// /3604 11071 21079 60001 333 11107 21155 70009=
71347 16/// /3604 11071 21079 60001 333 11107 21155 70009=
71348 16/// /0502 11049 21071 60001 333 11081 21130 70012=
71348 16/// /0502 11049 21071 60001 333 11081 21130 70012=
71349 16/// /1309 11193 21213 60001 333 11179 21207 70000=
71349 16/// /1309 11193 21213 60001 333 11179 21207 70000=
71350 17/// /2610 11022 21028 39866 49932 56033 60021 7//4/ 333 11026 21047 4/013 70026=
71350 17/// /2610 11022 21028 39866 49932 56033 60021 7//4/ 333 11026 21047 4/013 70026=
71351 46/// /1301 11134 21140 6///1 333 11132 21165 7////=
71351 46/// /1301 11134 21140 6///1 333 11132 21165 7////=
71352 16/// /3312 11196 21250 39760 40232 53023 60001 333 11018 21196 4/017 70000=
71352 16/// /3312 11196 21250 39760 40232 53023 60001 333 11018 21196 4/017 70000=
71353 16/// /2411 11009 21105 60001 333 21154 70000=
71355 16/// /1504 11355 21396 30068 40161 58003 60001 333 11316 21366 4/021 70000=
71355 16/// /1504 11355 21396 30068 40161 58003 60001 333 11316 21366 4/021 70000=
71356 16/// /3407 11371 21416 30112 40186 58011 60001 333 11350 21377 4/004 70000=
71356 16/// /3407 11371 21416 30112 40186 58011 60001 333 11350 21377 4/004 70000=
71357 16/// /1806 11283 21314 30057 40065 56009 69901 333 11256 21284 4/062 70004=
71357 16/// /1806 11283 21314 30057 40065 56009 69901 333 11256 21284 4/062 70004=
71358 46/// /2509 11304 21338 30044 40082 58005 6///1 333 11281 21336 4/035 7////=
71358 46/// /2509 11304 21338 30044 40082 58005 6///1 333 11281 21336 4/035 7////=
71359 16/// /1403 11210 21225 60001 333 11196 21221 70000=
71359 16/// /1403 11210 21225 60001 333 11196 21221 70000=
71360 16/// /1502 11187 21210 60001 333 11177 21208 70000=
71360 16/// /1502 11187 21210 60001 333 11177 21208 70000=
71361 16/// /1803 11194 21224 39852 40069 57007 69921 333 11201 21223 4/018 70002=
71361 16/// /1803 11194 21224 39852 40069 57007 69921 333 11201 21223 4/018 70002=
71362 17/// /0802 11201 21227 39803 40073 56026 69951 7//4/ 333 11208 21250 4/033 70006=
71362 17/// /0802 11201 21227 39803 40073 56026 69951 7//4/ 333 11208 21250 4/033 70006=
71363 16/// /3509 11324 21355 30071 40132 56003 60001 333 11301 21331 70000=
71363 16/// /3509 11324 21355 30071 40132 56003 60001 333 11301 21331 70000=
71364 16/// /1001 11338 21373 30012 40157 51006 60001 333 11309 21351 4/042 70000=
71364 16/// /1001 11338 21373 30012 40157 51006 60001 333 11309 21351 4/042 70000=
71365 16/// /2803 11292 21326 39874 40099 50005 60001 333 11227 21293 4/030 70000=
71365 16/// /2803 11292 21326 39874 40099 50005 60001 333 11227 21293 4/030 70000=
71366 15966 02603 11349 21386 30050 40118 57006 60001 333 11287 21368 70000=
71366 15966 02603 11349 21386 30050 40118 57006 60001 333 11287 21368 70000=
71367 17/// /0106 11103 21111 39799 40009 58052 69951 7//4/ 333 11097 21144 4/082 70053=
71367 17/// /0106 11103 21111 39799 40009 58052 69951 7//4/ 333 11097 21144 4/082 70053=
71369 15866 41009 11143 21166 39360 40084 57015 60001 333 11126 21143 70000=
71369 15866 41009 11143 21166 39360 40084 57015 60001 333 11126 21143 70000=
71380 16/// /0002 11028 21107 60001 333 11121 21158 70000=
71380 16/// /0002 11028 21107 60001 333 11121 21158 70000=
71393 16/// /2813 10047 21105 38846 40121 56011 60001 333 10036 21065 4/011 70000=
71393 16/// /2813 10047 21105 38846 40121 56011 60001 333 10036 21065 4/011 70000=
71399 16/// /2105 11156 21172 60001 333 11167 21186 70000=
71399 16/// /2105 11156 21172 60001 333 11167 21186 70000=
71401 16/// /3301 11029 21043 39537 40242 58013 60001 333 11004 21045 4/028 70000=
71401 16/// /3301 11029 21043 39537 40242 58013 60001 333 11004 21045 4/028 70000=
71405 16/// ///// 11146 21175 60001 333 11163 21178 70000=
71405 16/// ///// 11146 21175 60001 333 11163 21178 70000=
71406 46/// /1522 11063 21094 39981 49991 56035 6///1 333 11097 21146 7////=
71406 46/// /1522 11063 21094 39981 49991 56035 6///1 333 11097 21146 7////=
71407 16/// /2502 11377 21413 30101 40126 53004 60001 333 11331 21387 4/001 70000=
71407 16/// /2502 11377 21413 30101 40126 53004 60001 333 11331 21387 4/001 70000=
71413 17/// ///// 11139 21163 69991 7//4/ 333 11162 21180 70009=
71413 17/// ///// 11139 21163 69991 7//4/ 333 11162 21180 70009=
71449 16/// /1502 11312 21344 39934 40380 58010 60001 333 11150 21363 4/036 70000=
71449 16/// /1502 11312 21344 39934 40380 58010 60001 333 11150 21363 4/036 70000=
71467 16/// /0000 11296 21328 30046 40168 57007 60001 333 11296 21322 4/045 70000=
71467 16/// /0000 11296 21328 30046 40168 57007 60001 333 11296 21322 4/045 70000=
71470 16/// /2001 11416 21456 39474 40155 58018 60001 333 21416 4/053 70000=
71470 16/// /2001 11416 21456 39474 40155 58018 60001 333 21416 4/053 70000=
71471 15966 02011 10031 21022 39256 40049 52003 60001 333 11121 21141 70000=
71471 15966 02011 10031 21022 39256 40049 52003 60001 333 11121 21141 70000=
71480 16/// /2801 11354 21389 30013 40145 51006 60001 333 11300 21387 4/055 70000=
71480 16/// /2801 11354 21389 30013 40145 51006 60001 333 11300 21387 4/055 70000=
71489 16/// /1305 11195 21231 39317 40148 58033 60001 333 11203 21216 4/009 70000=
71489 16/// /1305 11195 21231 39317 40148 58033 60001 333 11203 21216 4/009 70000=
71491 16/// /0000 11357 21395 30033 40149 50005 60001 333 11335 21367 4/057 70000=
71491 16/// /0000 11357 21395 30033 40149 50005 60001 333 11335 21367 4/057 70000=
71493 16/// /2707 11014 21017 39900 49938 56026 60021 333 11004 21032 4/008 70015=
71493 16/// /2707 11014 21017 39900 49938 56026 60021 333 11004 21032 4/008 70015=
71494 16/// /2811 11272 21314 39544 40086 53021 69921 333 11056 21272 4/069 7////=
71494 16/// /2811 11272 21314 39544 40086 53021 69921 333 11056 21272 4/069 7////=
71495 16/// /2420 10036 21099 60001 333 10040 20002 70000=
71495 16/// /2420 10036 21099 60001 333 10040 20002 70000=
71497 17/// /0607 11225 21262 39806 40084 51008 69951 7//4/ 333 11193 21226 4/037 70008=
71497 17/// /0607 11225 21262 39806 40084 51008 69951 7//4/ 333 11193 21226 4/037 70008=
71500 46/// /2206 11076 21115 6///1 333 11120 21146 7////=
71500 46/// /2206 11076 21115 6///1 333 11120 21146 7////=
71504 16/// ///// 11100 21122 60001 333 11127 21150 70000=
71504 16/// ///// 11100 21122 60001 333 11127 21150 70000=
71506 46/// /3307 11209 21289 39144 40073 51006 6///1 333 21224 7////=
71506 46/// /3307 11209 21289 39144 40073 51006 6///1 333 21224 7////=
71508 16/// ///// 11167 21222 30085 40230 51034 60001 333 10029 21168 4/007 70000=
71508 16/// ///// 11167 21222 30085 40230 51034 60001 333 10029 21168 4/007 70000=
71509 16/// /2215 10028 21079 60001 333 10068 20003 70000=
71509 16/// /2215 10028 21079 60001 333 10068 20003 70000=
71515 16/// /1511 11198 21230 39484 40231 58037 60001 333 11201 21262 4/007 70000=
71515 16/// /1511 11198 21230 39484 40231 58037 60001 333 11201 21262 4/007 70000=
71517 16/// /2518 10018 21082 60001 333 10062 21030 70000=
71517 16/// /2518 10018 21082 60001 333 10062 21030 70000=
71518 16/// /0000 10023 21061 60001 333 10030 21000 70000=
71518 16/// /0000 10023 21061 60001 333 10030 21000 70000=
71525 16/// /2113 11026 21070 60001 333 11049 21066 70000=
71525 16/// /2113 11026 21070 60001 333 11049 21066 70000=
71526 17/// /2106 11004 21062 69951 7//4/ 333 11056 21132 70005=
71526 17/// /2106 11004 21062 69951 7//4/ 333 11056 21132 70005=
71528 16/// /2420 10022 21050 60001 333 10033 20005 70000=
71528 16/// /2420 10022 21050 60001 333 10033 20005 70000=
71532 15966 03312 11263 21314 39878 40241 52032 60001 333 11015 21263 70000=
71532 15966 03312 11263 21314 39878 40241 52032 60001 333 11015 21263 70000=
71533 16/// /0802 10032 20026 30003 40050 58008 60001 333 10068 20017 4/002 70000=
71533 16/// /0802 10032 20026 30003 40050 58008 60001 333 10068 20017 4/002 70000=
71535 16/// /2422 10038 21047 60001 333 10050 21080 70000=
71535 16/// /2422 10038 21047 60001 333 10050 21080 70000=
71536 16/// /2113 10010 21076 60001 333 10065 20004 70000=
71536 16/// /2113 10010 21076 60001 333 10065 20004 70000=
71537 16/// /1602 11157 21173 60001 333 11105 21181 70000=
71537 16/// /1602 11157 21173 60001 333 11105 21181 70000=
71539 16/// /1312 11179 21209 39466 40199 58034 60001 333 11165 21207 4/001 70002=
71539 16/// /1312 11179 21209 39466 40199 58034 60001 333 11165 21207 4/001 70002=
71540 16/// /2902 11110 21117 60001 333 11125 21144 70000=
71540 16/// /2902 11110 21117 60001 333 11125 21144 70000=
71541 16/// /2113 11039 21061 60001 333 11089 21126 70014=
71541 16/// /2113 11039 21061 60001 333 11089 21126 70014=
71542 16/// /0102 11186 21205 60001 333 11196 21217 70000=
71542 16/// /0102 11186 21205 60001 333 11196 21217 70000=
71543 16/// /2205 11106 21121 60001 333 11109 21137 70000=
71543 16/// /2205 11106 21121 60001 333 11109 21137 70000=
71544 16/// /1303 11154 21180 60001 333 11141 21172 70000=
71544 16/// /1303 11154 21180 60001 333 11141 21172 70000=
71546 16/// /3402 11101 21116 60001 333 11107 21153 70007=
71546 16/// /3402 11101 21116 60001 333 11107 21153 70007=
71547 16/// /2613 11018 21018 60001 333 11133 21163 70006=
71547 16/// /2613 11018 21018 60001 333 11133 21163 70006=
71548 16/// ///// 11178 21205 60001 333 11176 21204 70007=
71548 16/// ///// 11178 21205 60001 333 11176 21204 70007=
71549 16/// ///// 11151 21175 60001 333 11146 21171 70000=
71549 16/// ///// 11151 21175 60001 333 11146 21171 70000=
71553 16/// /1513 11206 21267 39567 40273 56036 60001 333 11256 21338 4/038 70000=
71553 16/// /1513 11206 21267 39567 40273 56036 60001 333 11256 21338 4/038 70000=
71554 17/// /3023 11200 21232 30016 40023 51046 60011 7//4/ 333 11046 21202 70011=
71554 17/// /3023 11200 21232 30016 40023 51046 60011 7//4/ 333 11046 21202 70011=
71555 16/// /2512 11004 21132 38560 40118 58013 60001 333 10044 21005 4/010 70000=
71555 16/// /2512 11004 21132 38560 40118 58013 60001 333 10044 21005 4/010 70000=
71556 16/// /1717 11194 21226 39558 40198 58038 60001 333 11200 21240 4/022 70000=
71556 16/// /1717 11194 21226 39558 40198 58038 60001 333 11200 21240 4/022 70000=
71557 46/// /1603 11048 21085 6///1 333 10025 21061 7////=
71557 46/// /1603 11048 21085 6///1 333 10025 21061 7////=
71558 16/// ///// 11094 21112 39978 40018 58029 60001 333 11162 21205 4/010 70000=
71558 16/// ///// 11094 21112 39978 40018 58029 60001 333 11162 21205 4/010 70000=
71559 16/// /1413 11177 21212 39507 40248 56034 60001 333 11194 21238 4/019 70000=
71559 16/// /1413 11177 21212 39507 40248 56034 60001 333 11194 21238 4/019 70000=
71560 16/// /1409 11250 21290 30027 40385 58027 60001 333 11150 21323 4/048 70000=
71560 16/// /1409 11250 21290 30027 40385 58027 60001 333 11150 21323 4/048 70000=
71565 16/// /1702 11108 21141 60001 333 11131 21145 4/997 70000=
71565 16/// /1702 11108 21141 60001 333 11131 21145 4/997 70000=
71566 16/// /1903 11097 21121 60001 333 11115 21153 70000=
71566 16/// /1903 11097 21121 60001 333 11115 21153 70000=
71567 16/// /1803 11213 21240 60001 333 11205 21219 70000=
71567 16/// /1803 11213 21240 60001 333 11205 21219 70000=
71568 16/// /1309 10075 20022 30101 40113 58014 60001 333 10075 20067 70000=
71568 16/// /1309 10075 20022 30101 40113 58014 60001 333 10075 20067 70000=
71570 16/// /1504 11319 21350 30028 40365 56017 60001 333 11229 21340 4/030 70000=
71570 16/// /1504 11319 21350 30028 40365 56017 60001 333 11229 21340 4/030 70000=
71572 16/// /2203 11377 21413 30029 40290 58023 60001 333 11271 21379 4/039 70000=
71572 16/// /2203 11377 21413 30029 40290 58023 60001 333 11271 21379 4/039 70000=
71574 17564 72716 11108 21159 39857 49931 52008 60001 771// 333 11049 21108 70000=
71574 17564 72716 11108 21159 39857 49931 52008 60001 771// 333 11049 21108 70000=
71575 16/// /2702 11354 21391 30053 40124 58006 60001 333 11288 21368 4/012 70000=
71575 16/// /2702 11354 21391 30053 40124 58006 60001 333 11288 21368 4/012 70000=
71576 16/// /2004 11371 21418 30011 40104 50002 60001 333 11349 21378 4/027 70000=
71576 16/// /2004 11371 21418 30011 40104 50002 60001 333 11349 21378 4/027 70000=
71580 11569 50902 11360 21397 30084 40123 50003 69901 77177 82570 333 11318 21373 47010 79999 90973=
71580 11569 50902 11360 21397 30084 40123 50003 69901 77177 82570 333 11318 21373 47010 79999 90973=
71581 16/// /3502 11296 21336 39711 40225 52030 60001 333 11040 21296 4/066 70040=
71581 16/// /3502 11296 21336 39711 40225 52030 60001 333 11040 21296 4/066 70040=
71582 17766 82201 10058 20055 39989 40042 57012 60051 7614/ 333 10098 20058 70099=
71582 17766 82201 10058 20055 39989 40042 57012 60051 7614/ 333 10098 20058 70099=
71584 17566 72113 11043 21086 39810 49857 57042 69931 7004/ 333 11057 21085 70016=
71584 17566 72113 11043 21086 39810 49857 57042 69931 7004/ 333 11057 21085 70016=
71590 16/// /3110 11225 21282 39823 40022 51044 60001 333 11043 21225 4/078 70000=
71590 16/// /3110 11225 21282 39823 40022 51044 60001 333 11043 21225 4/078 70000=
71592 16/// /3302 11338 21378 30085 40101 50001 60001 333 11315 21392 4/007 70000=
71592 16/// /3302 11338 21378 30085 40101 50001 60001 333 11315 21392 4/007 70000=
71594 16/// /1803 11212 21240 39593 40082 50004 60001 333 11219 21226 4/046 70000=
71594 16/// /1803 11212 21240 39593 40082 50004 60001 333 11219 21226 4/046 70000=
71595 17466 81418 10042 20033 39991 49992 57057 60021 7004/ 333 10030 21009 7////=
71595 17466 81418 10042 20033 39991 49992 57057 60021 7004/ 333 10030 21009 7////=
71596 17/// /1911 10016 20011 39948 49969 56051 60041 7//4/ 333 11012 21102 4/009 70045=
71596 17/// /1911 10016 20011 39948 49969 56051 60041 7//4/ 333 11012 21102 4/009 70045=
71598 16/// /2816 11081 21107 39899 49907 55016 60001 333 11037 21081 4/041 70000=
71598 16/// /2816 11081 21107 39899 49907 55016 60001 333 11037 21081 4/041 70000=
71602 16/// /3308 11166 21220 39930 40242 51032 60001 333 11006 21168 4/008 70000=
71602 16/// /3308 11166 21220 39930 40242 51032 60001 333 11006 21168 4/008 70000=
71606 16/// /2816 11139 21199 39814 49998 53037 60001 333 11025 21139 4/041 70000=
71606 16/// /2816 11139 21199 39814 49998 53037 60001 333 11025 21139 4/041 70000=
71613 16/// /1003 11421 21464 30100 40116 50003 60001 333 11415 21435 4/004 70000=
71613 16/// /1003 11421 21464 30100 40116 50003 60001 333 11415 21435 4/004 70000=
71615 16/// /2907 11319 21352 30104 40148 53016 60001 333 21323 4/005 70002=
71615 16/// /2907 11319 21352 30104 40148 53016 60001 333 21323 4/005 70002=
71622 16/// ///// 11144 21162 39893 40240 53025 60011 333 10002 21145 4/014 70025=
71622 16/// ///// 11144 21162 39893 40240 53025 60011 333 10002 21145 4/014 70025=
71635 16/// /3009 11249 21330 30090 40205 51037 60001 333 11003 21249 4/052 70006=
71635 16/// /3009 11249 21330 30090 40205 51037 60001 333 11003 21249 4/052 70006=
71636 17/// /1804 11147 21169 39297 40097 58020 69931 7//4/ 333 11127 21192 4/018 70003=
71636 17/// /1804 11147 21169 39297 40097 58020 69931 7//4/ 333 11127 21192 4/018 70003=
71637 16/// /1404 11176 21202 39272 40131 56016 60001 333 11168 21187 4/021 79999=
71637 16/// /1404 11176 21202 39272 40131 56016 60001 333 11168 21187 4/021 79999=
71640 16/// /3204 11297 21328 39766 40294 52011 60001 333 11061 21311 4/084 70016=
71640 16/// /3204 11297 21328 39766 40294 52011 60001 333 11061 21311 4/084 70016=
71641 16/// /2202 11320 21354 39806 40119 53004 69921 333 21358 4/997 70002=
71641 16/// /2202 11320 21354 39806 40119 53004 69921 333 21358 4/997 70002=
71643 46/// /3112 11343 21376 30105 40152 53021 6///1 333 21343 7////=
71643 46/// /3112 11343 21376 30105 40152 53021 6///1 333 21343 7////=
71644 16/// ///// 11041 21054 39663 40225 58009 60001 333 10011 21054 4/002 70000=
71644 16/// ///// 11041 21054 39663 40225 58009 60001 333 10011 21054 4/002 70000=
71645 46/// /3102 11044 21070 39628 40193 58013 6///1 333 11020 21048 7////=
71645 46/// /3102 11044 21070 39628 40193 58013 6///1 333 11020 21048 7////=
71646 16/// /1606 11260 21300 30029 40361 57026 60001 333 11174 21331 4/016 70000=
71646 16/// /1606 11260 21300 30029 40361 57026 60001 333 11174 21331 4/016 70000=
71652 17459 42809 11337 21373 30043 40304 52013 60001 705// 333 11219 21344 70000=
71652 17459 42809 11337 21373 30043 40304 52013 60001 705// 333 11219 21344 70000=
71654 16/// /0703 11145 21174 39319 40091 58028 60001 333 11147 21171 4/015 70007=
71654 16/// /0703 11145 21174 39319 40091 58028 60001 333 11147 21171 4/015 70007=
71655 16/// /1711 11198 21236 39480 40197 56039 60001 333 11209 21261 4/027 70000=
71655 16/// /1711 11198 21236 39480 40197 56039 60001 333 11209 21261 4/027 70000=
71656 17/// /2512 11028 21060 39866 49939 55020 60011 7//4/ 333 11010 21030 4/022 70035=
71656 17/// /2512 11028 21060 39866 49939 55020 60011 7//4/ 333 11010 21030 4/022 70035=
71658 16/// /2925 11206 21235 39934 40007 53040 60001 333 11041 21210 4/040 70000=
71658 16/// /2925 11206 21235 39934 40007 53040 60001 333 11041 21210 4/040 70000=
71659 16/// /3012 11127 21191 39930 49935 53026 69961 333 11057 21128 4/033 70008=
71659 16/// /3012 11127 21191 39930 49935 53026 69961 333 11057 21128 4/033 70008=
71660 16/// /2902 11092 21103 39117 40241 58006 60001 333 11009 21108 4/037 70031=
71660 16/// /2902 11092 21103 39117 40241 58006 60001 333 11009 21108 4/037 70031=
71663 16/// /1003 11226 21256 39338 40156 57029 69901 333 11211 21232 4/051 70015=
71663 16/// /1003 11226 21256 39338 40156 57029 69901 333 11211 21232 4/051 70015=
71664 15966 81707 11120 21144 39253 40098 57021 60001 333 11125 21152 70000=
71664 15966 81707 11120 21144 39253 40098 57021 60001 333 11125 21152 70000=
71665 46/// ///// 11293 21330 30032 40042 56010 6///1 333 11254 21314 7////=
71665 46/// ///// 11293 21330 30032 40042 56010 6///1 333 11254 21314 7////=
71667 16/// /2910 11288 21341 30102 40370 51013 60001 333 11123 21290 4/029 70000=
71667 16/// /2910 11288 21341 30102 40370 51013 60001 333 11123 21290 4/029 70000=
71668 16/// /2921 11082 21165 39924 49966 53018 60001 333 11008 21082 4/026 70000=
71668 16/// /2921 11082 21165 39924 49966 53018 60001 333 11008 21082 4/026 70000=
71669 16/// /3101 11062 21111 38507 40127 58008 60001 333 21085 4/050 70000=
71669 16/// /3101 11062 21111 38507 40127 58008 60001 333 21085 4/050 70000=
71670 16/// /2709 11040 21083 39904 49932 55017 60021 333 11031 21070 4/044 70019=
71670 16/// /2709 11040 21083 39904 49932 55017 60021 333 11031 21070 4/044 70019=
71671 16/// /2507 11006 21013 39880 49941 56031 69941 333 11007 21040 4/007 70004=
71671 16/// /2507 11006 21013 39880 49941 56031 69941 333 11007 21040 4/007 70004=
71672 17/// /3105 11227 21291 39942 40220 52028 69921 7//4/ 333 10007 21229 4/025 70007=
71672 17/// /3105 11227 21291 39942 40220 52028 69921 7//4/ 333 10007 21229 4/025 70007=
71673 16/// ///// 11110 21145 60001 333 11151 21169 70000=
71673 16/// ///// 11110 21145 60001 333 11151 21169 70000=
71674 16/// /2205 11118 21147 39223 40113 57020 60001 333 11154 21176 70000=
71674 16/// /2205 11118 21147 39223 40113 57020 60001 333 11154 21176 70000=
71678 15966 02206 11366 21401 39946 40328 57002 60001 333 11285 21373 70000=
71678 15966 02206 11366 21401 39946 40328 57002 60001 333 11285 21373 70000=
71681 46/// /0000 11048 21062 39776 40179 58011 6///1 333 10041 21049 7////=
71681 46/// /0000 11048 21062 39776 40179 58011 6///1 333 10041 21049 7////=
71684 15566 23007 11332 21379 39937 40263 52012 60001 333 11058 21332 70000=
71684 15566 23007 11332 21379 39937 40263 52012 60001 333 11058 21332 70000=
71685 17466 82604 11026 21042 39690 40238 57011 60001 771// 333 11008 21031 70018=
71685 17466 82604 11026 21042 39690 40238 57011 60001 771// 333 11008 21031 70018=
71686 15966 80605 11159 21183 39079 40054 52014 60001 333 11161 21167 70000=
71686 15966 80605 11159 21183 39079 40054 52014 60001 333 11161 21167 70000=
71687 16/// ///// 11019 21023 39373 40163 58019 60001 333 10038 21024 4/038 70000=
71687 16/// ///// 11019 21023 39373 40163 58019 60001 333 10038 21024 4/038 70000=
71688 17/// /0701 11011 21014 39107 40147 57024 69971 7//4/ 333 10064 21020 4/097 70007=
71688 17/// /0701 11011 21014 39107 40147 57024 69971 7//4/ 333 10064 21020 4/097 70007=
71689 17448 81206 11149 21170 39598 40068 57044 60001 771// 333 11174 21193 70010=
71689 17448 81206 11149 21170 39598 40068 57044 60001 771// 333 11174 21193 70010=
71690 16/// /2408 11053 21083 60001 333 11093 21140 70006=
71690 16/// /2408 11053 21083 60001 333 11093 21140 70006=
71691 17958 02920 11243 21312 39965 49993 52050 60001 771// 333 11041 21243 70000=
71691 17958 02920 11243 21312 39965 49993 52050 60001 771// 333 11041 21243 70000=
71692 46/// /1819 11004 21029 30026 40063 58036 6///1 333 11020 21045 7////=
71692 46/// /1819 11004 21029 30026 40063 58036 6///1 333 11020 21045 7////=
71693 16/// /1108 11144 21172 39360 40083 58014 60001 333 11126 21144 4/015 70002=
71693 16/// /1108 11144 21172 39360 40083 58014 60001 333 11126 21144 4/015 70002=
71694 16/// /3206 11267 21327 39875 40243 53031 60001 333 11023 21269 4/062 70029=
71694 16/// /3206 11267 21327 39875 40243 53031 60001 333 11023 21269 4/062 70029=
71695 16/// /1410 11237 21283 39898 40262 58049 60001 333 11241 21286 4/032 70000=
71695 16/// /1410 11237 21283 39898 40262 58049 60001 333 11241 21286 4/032 70000=
71696 16/// ///// 11335 21370 30192 40236 56015 60001 333 11317 21343 4/005 70000=
71696 16/// ///// 11335 21370 30192 40236 56015 60001 333 11317 21343 4/005 70000=
71697 15966 03410 11205 21258 30054 40234 52032 60001 333 10016 21205 70000=
71697 15966 03410 11205 21258 30054 40234 52032 60001 333 10016 21205 70000=
71698 16/// /1805 10004 21014 39859 49956 57050 60001 333 11040 21131 4/008 70000=
71698 16/// /1805 10004 21014 39859 49956 57050 60001 333 11040 21131 4/008 70000=
71699 16/// /3011 11020 21088 39949 49958 55008 60001 333 10029 21020 70000=
71699 16/// /3011 11020 21088 39949 49958 55008 60001 333 10029 21020 70000=
71704 15566 43318 11130 21185 30041 40271 52024 60001 333 10016 21131 70000=
71704 15566 43318 11130 21185 30041 40271 52024 60001 333 10016 21131 70000=
71729 16/// /3108 11257 21329 30075 40157 53030 69921 333 11028 21257 4/029 70011=
71729 16/// /3108 11257 21329 30075 40157 53030 69921 333 11028 21257 4/029 70011=
71732 16/// /2906 11294 21338 60001 333 11022 21294 4/046 70030=
71732 16/// /2906 11294 21338 60001 333 11022 21294 4/046 70030=
71737 16/// /2908 11309 21355 39586 40130 51025 60001 333 21309 4/060 70056=
71737 16/// /2908 11309 21355 39586 40130 51025 60001 333 21309 4/060 70056=
71741 16/// /1015 11006 21036 39763 40192 58016 60001 333 10009 21007 4/002 70000=
71741 16/// /1015 11006 21036 39763 40192 58016 60001 333 10009 21007 4/002 70000=
71742 16/// /1305 11098 21106 39882 40075 58024 60001 333 11075 21119 4/003 70000=
71742 16/// /1305 11098 21106 39882 40075 58024 60001 333 11075 21119 4/003 70000=
71743 46/// /0000 11452 21492 39862 40101 53015 6///1 333 21454 4/005 7////=
71743 46/// /0000 11452 21492 39862 40101 53015 6///1 333 21454 4/005 7////=
71744 16/// /2510 11052 21110 39877 49916 55010 60001 333 11035 21074 4/036 70000=
71744 16/// /2510 11052 21110 39877 49916 55010 60001 333 11035 21074 4/036 70000=
71746 16/// /3315 11127 21183 30037 40267 53024 60001 333 10018 21129 4/005 70000=
71746 16/// /3315 11127 21183 30037 40267 53024 60001 333 10018 21129 4/005 70000=
71752 16/// /3011 11144 21214 30010 40237 53032 60001 333 10012 21145 70000=
71752 16/// /3011 11144 21214 30010 40237 53032 60001 333 10012 21145 70000=
71753 16/// /2108 10008 21008 39905 49936 56048 60001 333 11023 21072 70002=
71753 16/// /2108 10008 21008 39905 49936 56048 60001 333 11023 21072 70002=
71754 16/// /1212 11212 21248 39468 40162 58035 60001 333 11216 21229 4/025 70000=
71754 16/// /1212 11212 21248 39468 40162 58035 60001 333 11216 21229 4/025 70000=
71758 17/// /1811 10009 20009 39893 49972 56052 69971 7//4/ 333 11050 21097 4/008 70008=
71758 17/// /1811 10009 20009 39893 49972 56052 69971 7//4/ 333 11050 21097 4/008 70008=
71761 46/// ///// 11167 21189 6///1 333 11173 21193 7////=
71761 46/// ///// 11167 21189 6///1 333 11173 21193 7////=
71765 16/// /0101 11004 21049 39886 40165 56004 60001 333 10057 21006 70000=
71765 16/// /0101 11004 21049 39886 40165 56004 60001 333 10057 21006 70000=
71766 16/// /1507 10078 21002 30053 40127 58019 60001 333 10081 20062 70000=
71766 16/// /1507 10078 21002 30053 40127 58019 60001 333 10081 20062 70000=
71767 16/// /3510 11238 21284 30001 40276 53032 60001 333 11009 21238 4/011 70005=
71767 16/// /3510 11238 21284 30001 40276 53032 60001 333 11009 21238 4/011 70005=
71771 46/// /0000 10056 20048 39997 40019 58008 6///1 333 20051 7////=
71771 46/// /0000 10056 20048 39997 40019 58008 6///1 333 20051 7////=
71773 16/// /1703 11148 21171 39168 40047 51009 69921 333 11110 21154 4/038 70002=
71773 16/// /1703 11148 21171 39168 40047 51009 69921 333 11110 21154 4/038 70002=
71779 16/// /1205 10020 21023 39455 40117 58013 60001 333 10016 20007 4/061 70000=
71779 16/// /1205 10020 21023 39455 40117 58013 60001 333 10016 20007 4/061 70000=
71787 17/// /2716 11051 21074 39446 49933 56027 60041 7//4/ 333 11029 21052 4/044 70099=
71787 17/// /2716 11051 21074 39446 49933 56027 60041 7//4/ 333 11029 21052 4/044 70099=
71788 16/// /2319 10032 21038 60001 333 11068 21104 70000=
71788 16/// /2319 10032 21038 60001 333 11068 21104 70000=
71789 16/// /2219 10033 21073 60001 333 10062 20002 70000=
71789 16/// /2219 10033 21073 60001 333 10062 20002 70000=
71791 16/// /1206 11193 21212 60001 333 11182 21200 70000=
71791 16/// /1206 11193 21212 60001 333 11182 21200 70000=
71792 16/// ///// 11087 21131 60001 333 11166 21175 70000=
71792 16/// ///// 11087 21131 60001 333 11166 21175 70000=
71793 16/// /1809 11150 21159 60001 333 11166 21180 70000=
71793 16/// /1809 11150 21159 60001 333 11166 21180 70000=
71794 16/// ///// 11177 21192 60001 333 11172 21196 70000=
71794 16/// ///// 11177 21192 60001 333 11172 21196 70000=
71795 16/// /2415 10024 21050 60001 333 10002 21107 70000=
71795 16/// /2415 10024 21050 60001 333 10002 21107 70000=
71796 46/// ///// 11100 21138 6///1 333 11170 21187 7////=
71796 46/// ///// 11100 21138 6///1 333 11170 21187 7////=
71797 16/// ///// 11189 21215 60001 333 11187 21208 70000=
71797 16/// ///// 11189 21215 60001 333 11187 21208 70000=
71812 15966 01201 10003 21049 39884 40160 57004 60001 333 10050 21005 70000=
71812 15966 01201 10003 21049 39884 40160 57004 60001 333 10050 21005 70000=
71824 46/// /2805 11364 21408 6///1 333 11106 21364 7////=
71824 46/// /2805 11364 21408 6///1 333 11106 21364 7////=
71835 16/// /2808 11340 21372 39811 40339 52008 60001 333 11199 21340 4/025 70000=
71835 16/// /2808 11340 21372 39811 40339 52008 60001 333 11199 21340 4/025 70000=
71837 46/// ///// 10000 6///1 333 7////=
71837 46/// ///// 10000 6///1 333 7////=
71839 46/// ///// 10028 6///1 333 7////=
71839 46/// ///// 10028 6///1 333 7////=
71849 16/// /1608 11256 21298 30032 40357 58026 60001 333 11165 21321 4/015 70000=
71849 16/// /1608 11256 21298 30032 40357 58026 60001 333 11165 21321 4/015 70000=
71885 46/// ///// 10012 6///1 333 7////=
71885 46/// ///// 10012 6///1 333 7////=
71895 16/// /1803 11101 21123 60001 333 11136 21157 70000=
71895 16/// /1803 11101 21123 60001 333 11136 21157 70000=
71903 46/// /1208 10032 20028 39958 40020 58006 6///1 333 10073 20031 7////=
71903 46/// /1208 10032 20028 39958 40020 58006 6///1 333 10073 20031 7////=
71914 16/// /0202 10055 21014 39893 40111 58024 60001 333 10056 20034 70000=
71914 16/// /0202 10055 21014 39893 40111 58024 60001 333 10056 20034 70000=
71916 16/// /0000 11344 21380 30090 40151 58008 60001 333 21425 4/021 70000=
71916 16/// /0000 11344 21380 30090 40151 58008 60001 333 21425 4/021 70000=
71921 17420 83308 11269 21295 39268 49936 57030 69961 7714/ 333 11252 21336 70004=
71921 17420 83308 11269 21295 39268 49936 57030 69961 7714/ 333 11252 21336 70004=
71927 16/// /0202 10011 20008 30070 40128 58027 69931 333 10080 20002 70063=
71927 16/// /0202 10011 20008 30070 40128 58027 69931 333 10080 20002 70063=
71941 15966 02906 11348 21391 39778 40227 52014 60001 333 11065 21348 70000=
71941 15966 02906 11348 21391 39778 40227 52014 60001 333 11065 21348 70000=
71942 16/// /2812 11263 21314 39978 40054 53047 60001 333 11032 21263 4/037 70000=
71942 16/// /2812 11263 21314 39978 40054 53047 60001 333 11032 21263 4/037 70000=
71947 15466 72808 11368 21409 39840 40218 52005 60001 333 11161 21368 70002=
71947 15466 72808 11368 21409 39840 40218 52005 60001 333 11161 21368 70002=
71962 16/// /2701 11381 21415 39927 40401 58001 60001 333 11145 21391 4/041 79999=
71962 16/// /2701 11381 21415 39927 40401 58001 60001 333 11145 21391 4/041 79999=
71970 16/// /0902 11190 21223 39541 40153 57034 60001 333 11185 21196 4/029 70000=
71970 16/// /0902 11190 21223 39541 40153 57034 60001 333 11185 21196 4/029 70000=
71971 16/// /0000 11309 21339 30033 40082 53001 60001 333 11285 21363 4/005 70000=
71971 16/// /0000 11309 21339 30033 40082 53001 60001 333 11285 21363 4/005 70000=
71973 46/// /1302 11050 21080 39775 49964 58062 6///1 333 11064 21093 7////=
71973 46/// /1302 11050 21080 39775 49964 58062 6///1 333 11064 21093 7////=
71977 46/// /0000 11238 21263 39370 40118 51008 6///1 333 21334 4/042 7////=
71977 46/// /0000 11238 21263 39370 40118 51008 6///1 333 21334 4/042 7////=
71987 17/// /2220 11016 21046 39902 49907 56039 69991 7//4/ 333 11036 21053 70014=
71987 17/// /2220 11016 21046 39902 49907 56039 69991 7//4/ 333 11036 21053 70014=
71989 16/// /3502 11352 21387 30148 40152 50000 60001 333 21367 4/061 70000=
71989 16/// /3502 11352 21387 30148 40152 50000 60001 333 21367 4/061 70000=
71990 16/// /0502 11183 21203 38394 40041 50005 60001 333 21241 4/061 70003=
71990 16/// /0502 11183 21203 38394 40041 50005 60001 333 21241 4/061 70003=
71999 46/// ///// 11041 21048 39857 40154 58009 6///1 333 10046 21046 7////=
71999 46/// ///// 11041 21048 39857 40154 58009 6///1 333 10046 21046 7////=
72254 35962 00000 10017 20006 30100 40338 53012 91151 333 10044 20011 70010 555 90312=
72254 35962 00000 10017 20006 30100 40338 53012 91151 333 10044 20011 70010 555 90312=
72302 11361 82810 10078 20067 3//// 40177 53020 60021 761// 91153 333 10072 20056 70097 555 90312=
72302 11361 82810 10078 20067 3//// 40177 53020 60021 761// 91153 333 10072 20056 70097 555 90312=
72375 35966 00000 11094 21128 37955 40309 56005 91157 333 10061 21100 555 90312=
72375 35966 00000 11094 21128 37955 40309 56005 91157 333 10061 21100 555 90312=
72475 35966 02007 11128 21144 3//// 40341 56014 91152 333 11011 21156 555 90312=
72475 35966 02007 11128 21144 3//// 40341 56014 91152 333 11011 21156 555 90312=
73001 16/// /1416 11191 21219 39485 40222 58033 60001 333 11188 21221 4/032 70000=
73001 16/// /1416 11191 21219 39485 40222 58033 60001 333 11188 21221 4/032 70000=
73002 16/// /1711 11177 21227 39637 40187 58038 60001 333 11217 21258 4/027 70000=
73002 16/// /1711 11177 21227 39637 40187 58038 60001 333 11217 21258 4/027 70000=
73005 17/// /3211 11194 21250 39817 49979 51052 69931 7//4/ 333 11067 21194 4/062 70014=
73005 17/// /3211 11194 21250 39817 49979 51052 69931 7//4/ 333 11067 21194 4/062 70014=
73007 17/// /0000 10000 21001 39925 40056 58006 60151 7//4/ 333 10010 21000 4/014 70584=
73007 17/// /0000 10000 21001 39925 40056 58006 60151 7//4/ 333 10010 21000 4/014 70584=
73011 16/// /2807 11356 21398 39640 40153 51013 60001 333 11106 21357 4/039 70021=
73011 16/// /2807 11356 21398 39640 40153 51013 60001 333 11106 21357 4/039 70021=
73013 46/// /0000 11197 21213 39504 40067 51009 6///1 333 21200 4/056 7////=
73015 17/// /2306 10018 21012 39919 49977 56038 69941 7//4/ 333 10024 21015 4/997 70004=
73015 17/// /2306 10018 21012 39919 49977 56038 69941 7//4/ 333 10024 21015 4/997 70004=
73016 16/// /3406 11310 21355 39766 40244 51025 60001 333 11039 21310 4/034 70028=
73016 16/// /3406 11310 21355 39766 40244 51025 60001 333 11039 21310 4/034 70028=
73017 16/// /2704 11343 21377 39843 40368 50003 60001 333 11176 21343 4/042 70000=
73017 16/// /2704 11343 21377 39843 40368 50003 60001 333 11176 21343 4/042 70000=
73018 16/// /2902 11333 21371 39942 40332 52011 60001 333 11142 21333 4/047 70000=
73018 16/// /2902 11333 21371 39942 40332 52011 60001 333 11142 21333 4/047 70000=
73023 17/// /1705 10003 21021 39939 49960 56053 60011 7//4/ 333 11041 21064 4/004 70016=
73023 17/// /1705 10003 21021 39939 49960 56053 60011 7//4/ 333 11041 21064 4/004 70016=
73024 16/// /1813 11066 21094 39955 49986 58050 69931 333 11056 21099 4/011 70021=
73024 16/// /1813 11066 21094 39955 49986 58050 69931 333 11056 21099 4/011 70021=
73025 17/// /1417 10044 20033 39987 49995 57058 60011 7//4/ 333 10031 21009 70010=
73025 17/// /1417 10044 20033 39987 49995 57058 60011 7//4/ 333 10031 21009 70010=
73026 17/// /1622 10002 20002 39917 49968 56062 60031 7//4/ 333 11038 21061 4/005 70034=
73026 17/// /1622 10002 20002 39917 49968 56062 60031 7//4/ 333 11038 21061 4/005 70034=
73027 17/// /2006 11010 21026 39893 49950 56056 60011 7//4/ 333 11044 21111 4/012 70018=
73027 17/// /2006 11010 21026 39893 49950 56056 60011 7//4/ 333 11044 21111 4/012 70018=
73028 16/// /3107 10051 20013 30088 40120 58029 60001 333 10071 20034 70000=
73028 16/// /3107 10051 20013 30088 40120 58029 60001 333 10071 20034 70000=
73029 16/// ///// 10014 21003 60001 333 11014 21091 70000=
73029 16/// ///// 10014 21003 60001 333 11014 21091 70000=
73030 46/// /1814 10010 21028 39929 49947 56055 6///1 333 11034 21059 7////=
73030 46/// /1814 10010 21028 39929 49947 56055 6///1 333 11034 21059 7////=
73038 17/// /3007 11025 21070 39830 49946 55019 60021 7//4/ 333 10013 21025 4/011 70032=
73038 17/// /3007 11025 21070 39830 49946 55019 60021 7//4/ 333 10013 21025 4/011 70032=
73042 16/// /3507 11205 21289 30094 40216 52029 60001 333 10011 21207 4/016 70000=
73044 17/// /0504 11248 21280 39821 40096 56013 69921 7//4/ 333 11276 21291 4/031 70002=
73044 17/// /0504 11248 21280 39821 40096 56013 69921 7//4/ 333 11276 21291 4/031 70002=
73051 46/// /1606 11055 21059 39815 40048 58048 6///1 333 11062 21102 4/005 7////=
73051 46/// /1606 11055 21059 39815 40048 58048 6///1 333 11062 21102 4/005 7////=
73070 16/// /1003 11251 21284 30053 40302 52019 60001 333 11055 21251 4/027 70008=
73070 16/// /1003 11251 21284 30053 40302 52019 60001 333 11055 21251 4/027 70008=
73071 16/// /3007 11315 21352 39850 40321 53012 60001 333 11187 21317 4/047 70000=
73071 16/// /3007 11315 21352 39850 40321 53012 60001 333 11187 21317 4/047 70000=
73072 16/// ///// 11391 21429 39981 40313 56025 60001 333 11270 21400 4/043 70000=
73072 16/// ///// 11391 21429 39981 40313 56025 60001 333 11270 21400 4/043 70000=
73073 16/// /3210 11186 21252 39806 40231 51024 60001 333 10001 21186 4/016 70002=
73073 16/// /3210 11186 21252 39806 40231 51024 60001 333 10001 21186 4/016 70002=
73074 16/// /3505 11217 21242 39763 40221 52028 69941 333 10003 21217 4/018 70010=
73074 16/// /3505 11217 21242 39763 40221 52028 69941 333 10003 21217 4/018 70010=
73075 17/// /3310 11267 21298 39269 49935 56029 69941 7//4/ 333 11249 21344 4/038 70004=
73075 17/// /3310 11267 21298 39269 49935 56029 69941 7//4/ 333 11249 21344 4/038 70004=
73080 17/// ///// 11015 21039 39994 40032 58044 69921 7//4/ 333 11048 21088 4/007 70009=
73080 17/// ///// 11015 21039 39994 40032 58044 69921 7//4/ 333 11048 21088 4/007 70009=
73081 17/// /2108 11011 21022 39656 49945 56040 69921 7//4/ 333 11026 21059 4/004 70002=
73081 17/// /2108 11011 21022 39656 49945 56040 69921 7//4/ 333 11026 21059 4/004 70002=
73085 16/// /3503 11182 21209 39628 40063 55000 60001 333 11193 21213 4/042 70000=
73085 16/// /3503 11182 21209 39628 40063 55000 60001 333 11193 21213 4/042 70000=
73087 16/// /2504 11362 21398 30086 40286 58017 60001 333 11304 21363 4/041 70000=
73087 16/// /2504 11362 21398 30086 40286 58017 60001 333 11304 21363 4/041 70000=
73090 17/// /2312 11015 21038 39198 40038 52002 69931 7//4/ 333 11117 21141 4/025 70005=
73090 17/// /2312 11015 21038 39198 40038 52002 69931 7//4/ 333 11117 21141 4/025 70005=
73097 16/// /2002 11174 21198 39278 40140 56025 60001 333 11172 21182 4/015 70000=
73097 16/// /2002 11174 21198 39278 40140 56025 60001 333 11172 21182 4/015 70000=
73104 16/// /2208 11085 21112 39361 40051 56006 60001 333 11103 21127 4/015 70023=
73104 16/// /2208 11085 21112 39361 40051 56006 60001 333 11103 21127 4/015 70023=
73105 16/// /2711 11263 21307 39546 40051 51035 60001 333 11058 21263 4/072 70024=
73105 16/// /2711 11263 21307 39546 40051 51035 60001 333 11058 21263 4/072 70024=
73115 17/// /3011 11246 21287 39478 40069 53023 69941 7//4/ 333 11049 21246 4/055 70015=
73115 17/// /3011 11246 21287 39478 40069 53023 69941 7//4/ 333 11049 21246 4/055 70015=
73116 16/// /2311 11048 21097 39823 49868 56034 60001 333 11044 21132 4/073 70002=
73116 16/// /2311 11048 21097 39823 49868 56034 60001 333 11044 21132 4/073 70002=
73120 16/// /1001 11273 21304 39934 49986 58042 60001 333 11249 21305 4/035 70002=
73120 16/// /1001 11273 21304 39934 49986 58042 60001 333 11249 21305 4/035 70002=
73135 16/// /2703 11330 21368 39687 40278 51009 60001 333 11096 21330 70015=
73135 16/// /2703 11330 21368 39687 40278 51009 60001 333 11096 21330 70015=
73230 459// 0//// 11351 21383 30052 40177 52002 6///1 333 7////=
73230 459// 0//// 11351 21383 30052 40177 52002 6///1 333 7////=
73231 459// /2908 6///1 333 7////=
73231 459// /2908 6///1 333 7////=
73232 459// ///// 6///1 333 7////=
73232 459// ///// 6///1 333 7////=
76061 32970 53303 1//// 2//// 3//// 4//// 5//// 80004 91150 333 10200 2//// 3//// 55095 56006 58/// 70000 85072=
76061 32970 53303 1//// 2//// 3//// 4//// 5//// 80004 91150 333 10200 2//// 3//// 55095 56006 58/// 70000 85072=
76117 36/// /0106 10086 20031 38940 40228 57002 8//// 91150 333 0//// 10207 20084 3/008 4//// 5//// 55096 21588 56/// 57/// 58020 79999 89/// 9////=
76122 31920 00000 11022 21037 38556 40225 5//// 70000 91145 333 10152 21022 30/// 55095 58056 70000 96122 96126 96128=
76122 31920 00000 11022 21037 38556 40225 5//// 70000 91145 333 10152 21022 30/// 55095 58056 70000 96122 96126 96128=
76161 36/// /0801 10082 20052 39927 40187 57099 8//// 91150 333 0//// 10265 20083 3/008 4//// 5//// 55100 21633 56/// 57/// 59038 79999 89/// 9////=
76161 36/// /0801 10082 20052 39927 40187 57099 8//// 91150 333 0//// 10265 20083 3/008 4//// 5//// 55100 21633 56/// 57/// 59038 79999 89/// 9////=
76219 02/// ///// 1//// 2//// 3//// 4//// 5//// 6//// 7//// 8//// 9//// 333 0//// 1//// 2//// 30/// 4//// 5//// 54/// 55/// 56/// 57/// 5//// 6//// 7//// 8//// 8//// 8//// 9/=
76219 02/// ///// 1//// 2//// 3//// 4//// 5//// 6//// 7//// 8//// 9//// 333 0//// 1//// 2//// 30/// 4//// 5//// 54/// 55/// 56/// 57/// 5//// 6//// 7//// 8//// 8//// 8//// 9/=
76220 31906 00000 11052 21063 38224 40325 5//// 70000 91145 333 10166 21052 35107 55081 58055 70000 91500 96126 96127=
76220 31906 00000 11052 21063 38224 40325 5//// 70000 91145 333 10166 21052 35107 55081 58055 70000 91500 96126 96127=
76225 31920 01801 10006 21025 38713 40306 55001 70000 91155 333 10174 21005 30103 58080 70000=
76225 31920 01801 10006 21025 38713 40306 55001 70000 91155 333 10174 21005 30103 58080 70000=
76254 06/// /2204 10150 20010 30107 40208 55008 60001 7//// 8//// 91150 333 0//// 10193 20146 30/// 50349 54/// 55077 56/// 57/// 59029 60007 70000 8//// 8//// 8//// 9//// 9/=
76254 06/// /2204 10150 20010 30107 40208 55008 60001 7//// 8//// 91150 333 0//// 10193 20146 30/// 50349 54/// 55077 56/// 57/// 59029 60007 70000 8//// 8//// 8//// 9//// 9/=
76255 06/// /3004 10134 20058 30167 40182 56010 60001 7 8 91 150 333 0 10275 20128 30/// 4 50469 54 55 2 56 57 58 59047 60007 70000 8 8 8 9 9 9 444 555 10127 30131=
76255 06/// /3004 10134 20058 30167 40182 56010 60001 7 8 91 150 333 0 10275 20128 30/// 4 50469 54 55 2 56 57 58 59047 60007 70000 8 8 8 9 9 9 444 555 10127 30131=
76256 32960 03004 10133 20057 30178 40192 5//// 91150 333 10279 20128 30/// 55102 21789 59037 70000=
76256 32960 03004 10133 20057 30178 40192 5//// 91150 333 10279 20128 30/// 55102 21789 59037 70000=
76259 06/// /2601 10062 20060 30127 40174 56008 60001 7//// 8//// 91150 333 0//// 10251 20061 30/// 4//// 50379 54/// 55095 56/// 57/// 59042 60007 70000 8//// 8//// 8//// 9/=
76259 06/// /2601 10062 20060 30127 40174 56008 60001 7//// 8//// 91150 333 0//// 10251 20061 30/// 4//// 50379 54/// 55095 56/// 57/// 59042 60007 70000 8//// 8//// 8//// 9/=
76304 06/// /3402 10153 20042 30178 40186 57011 60001 7 8 91 150 333 0 10232 20149 30/// 4 50349 54 55 2 56 57 58 59040 60007 70000 8 8 8 9 9 9 444 555 10147 30150=
76304 06/// /3402 10153 20042 30178 40186 57011 60001 7 8 91 150 333 0 10232 20149 30/// 4 50349 54 55 2 56 57 58 59040 60007 70000 8 8 8 9 9 9 444 555 10147 30150=
76305 32970 03401 10160 20047 30176 40183 5//// 91150 333 10220 20150 30014 55091 21577 58/// 70000=
76305 32970 03401 10160 20047 30176 40183 5//// 91150 333 10220 20150 30014 55091 21577 58/// 70000=
76311 32960 00000 10079 20057 39874 40155 57013 91155 333 10298 20066 30005 59027 70000=
76311 32960 00000 10079 20057 39874 40155 57013 91155 333 10298 20066 30005 59027 70000=
76323 32910 00000 10008 21010 38353 40295 5//// 91150 333 10184 21012 30122 55095 58082 70000=
76323 32910 00000 10008 21010 38353 40295 5//// 91150 333 10184 21012 30122 55095 58082 70000=
76324 36/// /0001 0.0 21007 38350 40341 57002 8//// 91150 33 3 0//// 10172 21007.0 3/002 4//// 5//// 55110 21828 56/// 57/// 58082 79999 89/// 9////=
76324 36/// /0001 0.0 21007 38350 40341 57002 8//// 91150 33 3 0//// 10172 21007.0 3/002 4//// 5//// 55110 21828 56/// 57/// 58082 79999 89/// 9////=
76342 32940 03601 10057 20036 39581 40313 52021 91150 333 10200 20050 30004 58075 70000=
76342 32940 03601 10057 20036 39581 40313 52021 91150 333 10200 20050 30004 58075 70000=
76382 32960 23601 10079 20035 39001 40271 52005 80001 91150 333 10235 20070 30005 56005 58112 70000 82070=
76382 32960 23601 10079 20035 39001 40271 52005 80001 91150 333 10235 20070 30005 56005 58112 70000 82070=
76390 31950 00901 10079 20053 38274 40215 52001 70544 91150 333 10230 20023 30009 58050 70000=
76390 31950 00901 10079 20053 38274 40215 52001 70544 91150 333 10230 20023 30009 58050 70000=
76392 06/// /1001 10067 20049 39726 45/// 52009 60001 7//// 8//// 91150 333 0//// 10191 20066 30/// 4//// 50219 54/// 55046 56/// 57/// 58105 60007 70000 8//// 8//// 8//// 9/=
76392 06/// /1001 10067 20049 39726 45/// 52009 60001 7//// 8//// 91150 333 0//// 10191 20066 30/// 4//// 50219 54/// 55046 56/// 57/// 58105 60007 70000 8//// 8//// 8//// 9/=
76393 32910 02501 10068 20060 39721 40326 5//// 91150 333 10190 20064 30005 55046 58100 70000 96122=
76393 32910 02501 10068 20060 39721 40326 5//// 91150 333 10190 20064 30005 55046 58100 70000 96122=
76402 32910 00502 10068 20068 30131 40189 57014 92150 333 10256 20066 30/// 55099 59025 70000 96122=
76402 32910 00502 10068 20068 30131 40189 57014 92150 333 10256 20066 30/// 55099 59025 70000 96122=
76404 06/// /0302 10158 20119 30153 40178 57010 60001 7//// 8//// 91150 333 0//// 10221 20153 30/// 50389 54/// 55098 56/// 57/// 59028 60007 70000 8//// 8//// 8//// 9//// 9/=
76404 06/// /0302 10158 20119 30153 40178 57010 60001 7//// 8//// 91150 333 0//// 10221 20153 30/// 50389 54/// 55098 56/// 57/// 59028 60007 70000 8//// 8//// 8//// 9//// 9/=
76405 32920 00302 10164 20128 30162 40189 5//// 91150 333 10218 20153 30014 55103 21501 59026 70000=
76405 32920 00302 10164 20128 30162 40189 5//// 91150 333 10218 20153 30014 55103 21501 59026 70000=
76423 32960 00000 10030 20231 38221 40259 52002 91155 333 10266 20028 30002 58068 70000=
76423 32960 00000 10030 20231 38221 40259 52002 91155 333 10266 20028 30002 58068 70000=
76458 32960 03401 10157 20129 30144 40148 57004 91146 333 10246 2//// 30/// 59017 70000=
76458 32960 03401 10157 20129 30144 40148 57004 91146 333 10246 2//// 30/// 59017 70000=
76490 06/// /3504 10094 20069 3//// 4//// 5//// 60001 7//// 8//// 91150 333 0//// 10135 20049 30/// 4//// 50139 54/// 55000 56/// 57/// 5//// 60007 70000 8//// 8//// 8//// 9/=
76490 06/// /3504 10094 20069 3//// 4//// 5//// 60001 7//// 8//// 91150 333 0//// 10135 20049 30/// 4//// 50139 54/// 55000 56/// 57/// 5//// 60007 70000 8//// 8//// 8//// 9/=
76491 32956 03602 10096 20061 39916 40324 52012 91150 333 10132 20050 30004 58101 70000=
76491 32956 03602 10096 20061 39916 40324 52012 91150 333 10132 20050 30004 58101 70000=
76499 32956 00602 10073 20039 30282 40308 5//// 91148 333 10145 20072 30007 55000 58092 70000=
76499 32956 00602 10073 20039 30282 40308 5//// 91148 333 10145 20072 30007 55000 58092 70000=
76518 36/// /0506 10116 20067 38379 40201 52006 8//// 91150 333 0//// 10272 20100 3/011 4//// 5//// 55216 22018 56/// 57/// 58015 79999 89/// 9////=
76518 36/// /0506 10116 20067 38379 40201 52006 8//// 91150 333 0//// 10272 20100 3/011 4//// 5//// 55216 22018 56/// 57/// 58015 79999 89/// 9////=
76525 32560 70409 10048 21018 37507 40202 52001 87600 91150 333 10188 20041 30003 56500 58038 70000 87727 91114 91507=
76525 32560 70409 10048 21018 37507 40202 52001 87600 91150 333 10188 20041 30003 56500 58038 70000 87727 91114 91507=
76527 06/// /0408 10047 21018 37508 42/// 53001 60001 7//// 8//// 91150 333 0//// 10177 20045 30/// 4//// 50509 54/// 55099 56/// 57/// 58038 60007 70000 8//// 8//// 8//// 9/=
76527 06/// /0408 10047 21018 37508 42/// 53001 60001 7//// 8//// 91150 333 0//// 10177 20045 30/// 4//// 50509 54/// 55099 56/// 57/// 58038 60007 70000 8//// 8//// 8//// 9/=
76539 31556 71103 10095 20078 38215 40240 52003 70544 87500 91150 333 10290 20090 30008 55078 56200 58047 70000 87621 91103 91511=
76539 31556 71103 10095 20078 38215 40240 52003 70544 87500 91150 333 10290 20090 30008 55078 56200 58047 70000 87621 91103 91511=
76548 32460 50502 10140 20097 30291 40301 52011 85400 91145 333 10174 20126 30012 56100 58094 79999 85613=
76548 32460 50502 10140 20097 30291 40301 52011 85400 91145 333 10174 20126 30012 56100 58094 79999 85613=
76556 32960 00000 10136 20109 39136 40169 57005 91150 333 10284 20136 30011 59003 70000=
76556 32960 00000 10136 20109 39136 40169 57005 91150 333 10284 20136 30011 59003 70000=
76571 32610 42102 10112 20032 38210 40207 52007 84400 91154 333 10276 20110 30009 58029 70000 84640=
76571 32610 42102 10112 20032 38210 40207 52007 84400 91154 333 10276 20110 30009 58029 70000 84640=
76573 32965 03603 10101 20072 38165 40198 53011 91159 333 10280 20100 30/// 50561 58020 70000=
76573 32965 03603 10101 20072 38165 40198 53011 91159 333 10280 20100 30/// 50561 58020 70000=
76574 02/// ///// 1//// 2//// 3//// 4//// 5//// 6//// 7//// 8//// 9//// 333 0//// 1//// 2//// 30/// 4//// 5//// 54/// 55/// 56/// 57/// 5//// 6//// 7//// 8//// 8//// 8//// 9/=
76574 02/// ///// 1//// 2//// 3//// 4//// 5//// 6//// 7//// 8//// 9//// 333 0//// 1//// 2//// 30/// 4//// 5//// 54/// 55/// 56/// 57/// 5//// 6//// 7//// 8//// 8//// 8//// 9/=
76578 06/// /3302 10090 20051 38076 40285 53011 60001 7//// 8//// 91150 333 0//// 10274 20090 30/// 50339 54/// 55059 56/// 57/// 58023 60007 70000 8//// 8//// 8//// 9//// 9/=
76578 06/// /3302 10090 20051 38076 40285 53011 60001 7//// 8//// 91150 333 0//// 10274 20090 30/// 50339 54/// 55059 56/// 57/// 58023 60007 70000 8//// 8//// 8//// 9//// 9/=
76581 32960 81103 10122 20102 39144 40257 5//// 88020 91150 333 10315 20114 30011 55082 56010 58074 70000 88459=
76581 32960 81103 10122 20102 39144 40257 5//// 88020 91150 333 10315 20114 30011 55082 56010 58074 70000 88459=
76585 01510 80000 10128 20124 30135 40296 53035 60071 75054 888// 91155 333 10171 20127 32012 55000 56899 58100 60027 70067 88830=
76585 01510 80000 10128 20124 30135 40296 53035 60071 75054 888// 91155 333 10171 20127 32012 55000 56899 58100 60027 70067 88830=
76592 06/// ///// 10215 20215 3//// 4//// 5//// 60001 7 8 91 150 333 0 10320 20212 30/// 4 50289 54 55 2 56 57 58 59 60 007 70000 8 8 8 9 9 9 444 555 10212 30215=
76592 06/// ///// 10215 20215 3//// 4//// 5//// 60001 7 8 91 150 333 0 10320 20212 30/// 4 50289 54 55 2 56 57 58 59 60 007 70000 8 8 8 9 9 9 444 555 10212 30215=
76593 31950 01401 10220 20211 30191 40192 53010 70000 91150 333 10320 20210 30019 58010 70000 96122=
76593 31950 01401 10220 20211 30191 40192 53010 70000 91150 333 10320 20210 30019 58010 70000 96122=
76612 32960 02601 10120 20042 38499 40184 52014 91158 333 10280 20094 30008 58014 70000=
76612 32960 02601 10120 20042 38499 40184 52014 91158 333 10280 20094 30008 58014 70000=
76621 06/// /0703 10102 20051 38187 40216 53018 60001 7 8 91 150 333 0 10272 20101 30/// 4 50459 54 55 2 56 57 58035 59 60007 70000 8 8 8 9 9 9 444 555 10102 30105=
76621 06/// /0703 10102 20051 38187 40216 53018 60001 7 8 91 150 333 0 10272 20101 30/// 4 50459 54 55 2 56 57 58035 59 60007 70000 8 8 8 9 9 9 444 555 10102 30105=
76631 06/// /0603 10076 20044 37740 40319 53010 60001 7//// 8//// 91150 333 0//// 10284 20076 30/// 50459 54/// 55096 56/// 57/// 58022 60007 70000 8//// 8//// 8//// 9//// 9/=
76631 06/// /0603 10076 20044 37740 40319 53010 60001 7//// 8//// 91150 333 0//// 10284 20076 30/// 50459 54/// 55096 56/// 57/// 58022 60007 70000 8//// 8//// 8//// 9//// 9/=
76632 31640 40502 10080 20048 37743 40199 52005 70511 84500 91140 333 10270 20078 36/// 56100 58018 70000 84635=
76632 31640 40502 10080 20048 37743 40199 52005 70511 84500 91140 333 10270 20078 36/// 56100 58018 70000 84635=
76634 31565 80303 10070 20041 37909 40228 52014 71022 88600 91150 333 10268 20061 30006 56500 58042 70000 88720=
76634 31565 80303 10070 20041 37909 40228 52014 71022 88600 91150 333 10268 20061 30006 56500 58042 70000 88720=
76640 01110 82202 10140 20134 30300 40308 52010 69941 75055 85520 91150 333 10198 20124 31012 56880 58098 69947 70004 85603 83457=
76640 01110 82202 10140 20134 30300 40308 52010 69941 75055 85520 91150 333 10198 20124 31012 56880 58098 69947 70004 85603 83457=
76644 31850 13201 10216 20210 30176 40188 53014 70200 81030 91150 333 10343 20215 30019 56000 58008 70000 81358 96122=
76644 31850 13201 10216 20210 30176 40188 53014 70200 81030 91150 333 10343 20215 30019 56000 58008 70000 81358 96122=
76646 06/// /2901 10216 20216 30177 40189 53014 60001 7 8 91 150 333 0 10350 20216 30/// 4 50479 54 55 2 56 57 58009 59 60007 70000 8 8 8 9 9 9 444 555 10210 30213=
76646 06/// /2901 10216 20216 30177 40189 53014 60001 7 8 91 150 333 0 10350 20216 30/// 4 50479 54 55 2 56 57 58009 59 60007 70000 8 8 8 9 9 9 444 555 10210 30213=
76647 31850 10000 10200 20196 30158 40188 52013 74444 81020 91150 333 10331 20196 30017 56090 58002 70000 81358=
76647 31850 10000 10200 20196 30158 40188 52013 74444 81020 91150 333 10331 20196 30017 56090 58002 70000 81358=
76648 06/// /0000 10200 2//// 30158 40190 53012 60001 7//// 8//// 91150 333 0//// 10337 20196 30/// 4//// 5///9 54/// 55083 56/// 57/// 58002 60007 70000 8//// 8//// 8//// 9/=
76648 06/// /0000 10200 2//// 30158 40190 53012 60001 7//// 8//// 91150 333 0//// 10337 20196 30/// 4//// 5///9 54/// 55083 56/// 57/// 58002 60007 70000 8//// 8//// 8//// 9/=
76653 06/// /0201 10206 20123 30126 40132 55007 60001 7//// 8//// 91150 333 0//// 10338 20203 30/// 50509 54/// 55097 56/// 57/// 59011 60007 70000 8//// 8//// 8//// 9//// 9/=
76653 06/// /0201 10206 20123 30126 40132 55007 60001 7//// 8//// 91150 333 0//// 10338 20203 30/// 50509 54/// 55097 56/// 57/// 59011 60007 70000 8//// 8//// 8//// 9//// 9/=
76654 31956 00101 10221 20159 30130 40132 57010 70544 91150 333 10338 20219 30/// 59007 70000=
76654 31956 00101 10221 20159 30130 40132 57010 70544 91150 333 10338 20219 30/// 59007 70000=
76656 32970 00000 10088 20068 38529 40177 5//// 91143 333 10280 20078 31005 55/// 2//// 58000 70000 96122=
76656 32970 00000 10088 20068 38529 40177 5//// 91143 333 10280 20078 31005 55/// 2//// 58000 70000 96122=
76658 31960 00000 10183 20098 39649 40173 52001 70540 91150 333 10342 20175 30017 58006 70000 98904=
76658 31960 00000 10183 20098 39649 40173 52001 70540 91150 333 10342 20175 30017 58006 70000 98904=
76662 32960 00502 10090 20049 38499 40194 52001 91159 333 10298 2010 0 30009 58016 70000=
76662 32960 00502 10090 20049 38499 40194 52001 91159 333 10298 2010 0 30009 58016 70000=
76663 06/// /0902 10095 20022 38488 48498 53005 60001 7 8 91 150 333 0 10296 20091 30/// 4 50399 54 55 2 56 57 58010 59 60007 70000 8 8 8 9 9 9 444 555 10195 30195=
76663 06/// /0902 10095 20022 38488 48498 53005 60001 7 8 91 150 333 0 10296 20091 30/// 4 50399 54 55 2 56 57 58010 59 60007 70000 8 8 8 9 9 9 444 555 10195 30195=
76665 32958 03601 10090 20056 38145 40173 52006 91155 333 10288 20080 30007 58009 70000=
76665 32958 03601 10090 20056 38145 40173 52006 91155 333 10288 20080 30007 58009 70000=
76674 06/// /2601 10028 20027 37402 40365 53004 60001 7//// 8//// 91150 333 0//// 10228 20022 30/// 4//// 50299 54/// 55076 56/// 57/// 58006 60007 70000 8//// 8//// 8//// 9/=
76674 06/// /2601 10028 20027 37402 40365 53004 60001 7//// 8//// 91150 333 0//// 10228 20022 30/// 4//// 50299 54/// 55076 56/// 57/// 58006 60007 70000 8//// 8//// 8//// 9/=
76675 32960 02901 10031 20003 37400 40203 52003 91155 333 10242 20022 34101 58006 70000 98460 96126=
76675 32960 02901 10031 20003 37400 40203 52003 91155 333 10242 20022 34101 58006 70000 98460 96126=
76678 06/// /3103 10094 20059 38797 41524 52049 60001 7 8 91 150 333 0 10262 20069 30/// 4 50399 54 55 2 56 57 58 59051 60007 70000 8 8 8 9 9 9 444 555 10148 30148=
76678 06/// /3103 10094 20059 38797 41524 52049 60001 7 8 91 150 333 0 10262 20069 30/// 4 50399 54 55 2 56 57 58 59051 60007 70000 8 8 8 9 9 9 444 555 10148 30148=
76683 32962 03602 10086 20050 37858 40177 52004 91148 333 10271 20084 30007 58008 70000 98562=
76683 32962 03602 10086 20050 37858 40177 52004 91148 333 10271 20084 30007 58008 70000 98562=
76684 06/// /3602 10081 20047 37862 40255 53007 60001 7 8 91 150 333 0 10278 20081 30/// 4 50429 54 55 2 56 57 58011 59 60007 70000 8 8 8 9 9 9 444 555 10079 30079=
76684 06/// /3602 10081 20047 37862 40255 53007 60001 7 8 91 150 333 0 10278 20081 30/// 4 50429 54 55 2 56 57 58011 59 60007 70000 8 8 8 9 9 9 444 555 10079 30079=
76685 32950 00000 10080 20068 37891 40168 52007 91150 333 10268 20078 30002 59009 70000=
76685 32950 00000 10080 20068 37891 40168 52007 91150 333 10268 20078 30002 59009 70000=
76686 06/// /0501 10074 20043 37899 40227 53008 60001 7 8 91 150 333 0 10266 20064 30/// 4 50399 54 55 2 56 57 58012 59 60007 70000 8 8 8 9 9 9 444 555 10064 30067=
76686 06/// /0501 10074 20043 37899 40227 53008 60001 7 8 91 150 333 0 10266 20064 30/// 4 50399 54 55 2 56 57 58012 59 60007 70000 8 8 8 9 9 9 444 555 10064 30067=
76687 31460 70401 10140 20090 38734 40231 53003 70221 876// 91150 333 10232 20136 30011 56199 59033 70000 82713 85621=
76687 31460 70401 10140 20090 38734 40231 53003 70221 876// 91150 333 10232 20136 30011 56199 59033 70000 82713 85621=
76692 31520 63610 10198 20146 30211 40224 53003 70733 85830 91150 333 10279 20182 30/// 56880 59051 70000 81820 84625 91122 91536=
76692 31520 63610 10198 20146 30211 40224 53003 70733 85830 91150 333 10279 20182 30/// 56880 59051 70000 81820 84625 91122 91536=
76695 31256 83503 10240 20223 30183 40192 52010 70322 88500 91150 333 10350 20235 30023 56100 58011 70000 88606=
76695 31256 83503 10240 20223 30183 40192 52010 70322 88500 91150 333 10350 20235 30023 56100 58011 70000 88606=
76698 32360 20000 10214 20211 30181 40194 5//// 82200 91150 333 10326 20200 30019 55090 56200 58013 70000 82808=
76698 32360 20000 10214 20211 30181 40194 5//// 82200 91150 333 10326 20200 30019 55090 56200 58013 70000 82808=
76727 06/// /2602 10155 2//// 38418 40193 53008 60001 7//// 8//// 91150 333 0//// 10291 20154 30/// 5///9 54/// 55096 56/// 57/// 58009 60007 70000 8//// 8//// 8//// 9//// 9/=
76727 06/// /2602 10155 2//// 38418 40193 53008 60001 7//// 8//// 91150 333 0//// 10291 20154 30/// 5///9 54/// 55096 56/// 57/// 58009 60007 70000 8//// 8//// 8//// 9//// 9/=
76737 01465 80301 10153 20151 38811 40198 52001 60041 70254 886// 91150 333 10234 20152 31014 56299 58018 69927 70059 88710 91103 91510=
76737 01465 80301 10153 20151 38811 40198 52001 60041 70254 886// 91150 333 10234 20152 31014 56299 58018 69927 70059 88710 91103 91510=
76741 01250 63610 10228 20216 30170 40198 53010 69961 72044=
76741 01250 63610 10228 20216 30170 40198 53010 69961 72044 86200 91150 333 10272 20216 31/// 56800 58039 69967 70006 86805 91114 91536=
76743 11240 80103 10239 20224 30182 40190 52008 60051 70222=
76743 11240 80103 10239 20224 30182 40190 52008 60051 70222 885// 91145 333 10329 20239 31023 56099 58036 70053 88606=
76744 06/// /0201 10239 20235 30177 40183 52009 60051 8//// 91150 333 0//// 10345 20233 3/024 4//// 5//// 55101 21488 56/// 57/// 58031 60051 70054 89/// 9////=
76744 06/// /0201 10239 20235 30177 40183 52009 60051 8//// 91150 333 0//// 10345 20233 3/024 4//// 5//// 55101 21488 56/// 57/// 58031 60051 70054 89/// 9////=
76750 31958 03301 10216 20214 30175 40184 53008 70000 91150 333 10308 20216 30/// 58000 79999 96122=
76750 31958 03301 10216 20214 30175 40184 53008 70000 91150 333 10308 20216 30/// 58000 79999 96122=
76762 31904 03201 10142 20120 38780 40157 53004 70000 91157 333 10322 20140 30011 58015 70000=
76762 31904 03201 10142 20120 38780 40157 53004 70000 91157 333 10322 20140 30011 58015 70000=
76763 02/// ///// 1//// 2//// 3//// 4//// 5//// 6//// 7//// 8//// 9//// 333 0//// 1//// 2//// 30/// 4//// 5//// 54/// 55/// 56/// 57/// 5//// 6//// 7//// 8//// 8//// 8//// 8/=
76763 02/// ///// 1//// 2//// 3//// 4//// 5//// 6//// 7//// 8//// 9//// 333 0//// 1//// 2//// 30/// 4//// 5//// 54/// 55/// 56/// 57/// 5//// 6//// 7//// 8//// 8//// 8//// 8/=
76772 36/// /0301 10094 20079 38443 40211 52005 8//// 91150 333 0//// 10316 20093 3/009 4//// 5//// 55170 22213 56/// 57/// 58007 79999 89/// 9////=
76772 36/// /0301 10094 20079 38443 40211 52005 8//// 91150 333 0//// 10316 20093 3/009 4//// 5//// 55170 22213 56/// 57/// 58007 79999 89/// 9////=
76773 32930 00000 10110 20093 38448 40167 52003 91150 333 10305 20104 30009 55102 58012 70000=
76773 32930 00000 10110 20093 38448 40167 52003 91150 333 10305 20104 30009 55102 58012 70000=
76775 31960 20701 10134 2//// 38557 40199 52003 70300 82030 91155 333 10300 20112 30/// 56020 58009 70000 82359=
76775 31960 20701 10134 2//// 38557 40199 52003 70300 82030 91155 333 10300 20112 30/// 56020 58009 70000 82359=
76805 31560 00101 10216 20201 30130 40134 53001 70200 91150 333 10336 20192 30018 59002 70000 96122=
76805 31560 00101 10216 20201 30130 40134 53001 70200 91150 333 10336 20192 30018 59002 70000 96122=
76806 06/// /3601 10210 20193 30130 40135 53003 60001 7//// 8//// 91150 333 0//// 10334 20208 30/// 50469 54/// 55099 56/// 57/// 58000 60007 70000 8//// 8//// 8//// 9//// 9/=
76806 06/// /3601 10210 20193 30130 40135 53003 60001 7//// 8//// 91150 333 0//// 10334 20208 30/// 50469 54/// 55099 56/// 57/// 58000 60007 70000 8//// 8//// 8//// 9//// 9/=
76833 32958 03610 10264 2//// 3//// 4//// 5//// 91145 333 10348 20252 30025 58/// 70000 92023=
76833 32958 03610 10264 2//// 3//// 4//// 5//// 91145 333 10348 20252 30025 58/// 70000 92023=
76840 32820 20104 10274 20168 30082 40140 52011 82070 91202 333 10359 20270 30/// 56060 59014 70000 82358=
76840 32820 20104 10274 20168 30082 40140 52011 82070 91202 333 10359 20270 30/// 56060 59014 70000 82358=
76842 36/// /2001 10203 20189 39514 40168 52011 8//// 91150 333 0//// 10329 20203 3/020 4//// 5//// 55128 22178 56/// 57/// 58017 79999 89/// 9////=
76842 36/// /2001 10203 20189 39514 40168 52011 8//// 91150 333 0//// 10329 20203 3/020 4//// 5//// 55128 22178 56/// 57/// 58017 79999 89/// 9////=
76843 32465 31801 10205 20174 39528 40169 51011 83600 91150 333 10326 20198 30019 56400 58028 70000 83711=
76843 32465 31801 10205 20174 39528 40169 51011 83600 91150 333 10326 20198 30019 56400 58028 70000 83711=
76845 32930 00000 10094 20067 37959 40195 53003 91150 333 10244 20084 30008 58013 70000=
76845 32930 00000 10094 20067 37959 40195 53003 91150 333 10244 20084 30008 58013 70000=
76846 36/// /1102 10095 20084 37949 40207 52006 8//// 91150 333 0//// 10238 20090 3/009 4//// 5//// 55100 22248 56/// 57/// 58008 79999 89/// 9////=
76846 36/// /1102 10095 20084 37949 40207 52006 8//// 91150 333 0//// 10238 20090 3/009 4//// 5//// 55100 22248 56/// 57/// 58008 79999 89/// 9////=
76848 32450 20701 10134 20103 38408 40180 53004 82500 91150 333 10225 20134 30011 56100 58014 70000 82613=
76848 32450 20701 10134 20103 38408 40180 53004 82500 91150 333 10225 20134 30011 56100 58014 70000 82613=
76849 36/// /0202 10130 20119 38399 40183 52006 8//// 91150 333 0//// 10222 20127 3/013 4//// 5//// 55106 22241 56/// 57/// 5801 79999 89/// 9////=
76849 36/// /0202 10130 20119 38399 40183 52006 8//// 91150 333 0//// 10222 20127 3/013 4//// 5//// 55106 22241 56/// 57/// 5801 79999 89/// 9////=
76855 32960 03503 10224 20201 30080 40130 55000 91150 333 10322 20216 30/// 58003 70000 92000=
76855 32960 03503 10224 20201 30080 40130 55000 91150 333 10322 20216 30/// 58003 70000 92000=
76856 06/// /3503 10223 20191 30081 40133 53001 60001 7//// 8//// 91150 333 0//// 10334 20220 30/// 4//// 50479 55099 56/// 57/// 58003 60007 70000 8//// 8//// 8//// 8//// 9/=
76856 06/// /3503 10223 20191 30081 40133 53001 60001 7//// 8//// 91150 333 0//// 10334 20220 30/// 4//// 50479 55099 56/// 57/// 58003 60007 70000 8//// 8//// 8//// 8//// 9/=
76903 32960 00402 10232 20196 30002 40133 52001 91150 333 10348 20228 30022 58001 70000=
76903 32960 00402 10232 20196 30002 40133 52001 91150 333 10348 20228 30022 58001 70000=
78224 31557 20301 10192 20190 30123 40200 53012 71144 82100 333 82830=
78224 31557 20301 10192 20190 30123 40200 53012 71144 82100 333 82830=
78255 11930 00602 10186 20181 30047 40194 52020 60004 74044 333 20176=
78255 11930 00602 10186 20181 30047 40194 52020 60004 74044 333 20176=
78383 12480 60408 10260 20217 40187 60002 84902 333 10316 20248 59005 70000 84916=
78383 12480 60408 10260 20217 40187 60002 84902 333 10316 20248 59005 70000 84916=
78384 11480 40604 10248 20228 40176 60002 71600 84800 333 10304 20243 59003 70000 81816 83625=
78384 11480 40604 10248 20228 40176 60002 71600 84800 333 10304 20243 59003 70000 81816 83625=
78439 164// /1107 10208 2/166 30143 40177 6///1 7//// 8//// 91159 333 1//// 3//// 7////=
78439 164// /1107 10208 2/166 30143 40177 6///1 7//// 8//// 91159 333 1//// 3//// 7////=
78458 32466 20000 10216 20213 40182 52015 82200 333 10288 20186 30/// 56200 59022 82818=
78458 32466 20000 10216 20213 40182 52015 82200 333 10288 20186 30/// 56200 59022 82818=
78460 32466 40000 10187 20185 40191 52017 84800 333 10304 20180 30/// 56200 59021 84615=
78460 32466 40000 10187 20185 40191 52017 84800 333 10304 20180 30/// 56200 59021 84615=
78467 32466 40000 10198 20195 40199 5//// 84800 333 10275 20190 30/// 56100 59015 70022 84616=
78467 32466 40000 10198 20195 40199 5//// 84800 333 10275 20190 30/// 56100 59015 70022 84616=
78479 21466 60805 10244 20206 40191 52019 70382 83230 333 10298 20225 31/// 56200 59011 69946 70022 83818 83357=
78479 21466 60805 10244 20206 40191 52019 70382 83230 333 10298 20225 31/// 56200 59011 69946 70022 83818 83357=
78482 32466 60000 10216 20204 40179 5//// 84570 333 10316 20172 30/// 56000 59011 84618 86358=
78482 32466 60000 10216 20204 40179 5//// 84570 333 10316 20172 30/// 56000 59011 84618 86358=
78485 32466 70102 10207 20200 40194 52019 83230 333 10300 20200 31/// 56000 59017 79998 83816 86357=
78485 32466 70102 10207 20200 40194 52019 83230 333 10300 20200 31/// 56000 59017 79998 83816 86357=
78486 32466 70000 10223 20204 40176 51002 86836 333 10308 20221 31/// 50253 56050 59027 70024 86616 84357=
78486 32466 70000 10223 20204 40176 51002 86836 333 10308 20221 31/// 50253 56050 59027 70024 86616 84357=
78488 21466 50000 10220 20214 40176 5//// 702// 85800 333 10305 20205 31/// 56200 59014 60018 70012 85816=
78488 21466 50000 10220 20214 40176 5//// 702// 85800 333 10305 20205 31/// 56200 59014 60018 70012 85816=
78615 031200Z 32482 80000 10202 20199 30054 40194 53012 885// 333 10320 20200 30/// 562// 58012 88612=
78627 031200Z 32982 00000 10064 20064 333 10260 20060 30///=
78637 031200Z 11482 82704 10226 20220 30147 40163 53011 60311 70362 8552/ 333 10306 20220 32/// 5619/ 58012 70414 85616 86458=
78641 031200Z 32482 10210 10140 20117 38537 40123 53001 81500 333 10250 20134 30/// 56800 59001 81616=
78650 =
78663 =
78704 31566 60000 10224 20210 30177 40182 705// 85230 333 10302 20212 30/// 56000 58004 70008 85823=
78704 31566 60000 10224 20210 30177 40182 705// 85230 33310302 20212 30/// 56000 58004 70008 85823=
78722 31658 70000 10178 20172 710// 87500 333	10315 20160 30/// 56000 70000 82720 85638=
78722 31658 70000 10178 20172 710// 87500 333 10315 20160 30/// 56000 70000 82720 85638=
78730 11456 83602 10230 20225 30131 40143 52013 60052 715// 85268 333 10292 20220 31/// 56800 58002 70051 85816 1AC100 2CI300 TCURA/NE/SE/SW=
78730 11456 83602 10230 20225 30131 40143 52013 60052 715// 85268 333 10292 20220 31/// 56800 58002 70051 85816 1AC100 2CI300 TCURA/NE/SE/SW=
78733 33465 40205 10240 20215 30054 40128 53011 81208 333 10310 20232 30/// 56300 58001 81813 83275=
78733 33465 40205 10240 20215 30054 40128 53011 81208 333 10310 20232 30/// 56300 58001 81813 83275=
78734 31350 80308 10166 20156 39008 40152 53013 710// 887// 333 10238 20160 30/// 56099 58004 70004 88706=
78734 31350 80308 10166 20156 39008 40152 53013 710// 887// 333 10238 20160 30/// 56099 58004 70004 88706=
78735 13565 80902 10228 20214 39983 40130 53003 69942 8525/ 333 10322 20225 31/// 56109 59003 70004 85820 83358=
78735 13565 80902 10228 20214 39983 40130 53003 69942 8525/ 333 10322 20225 31/// 56109 59003 70004 85820 83358=
78739 33570 13603 10250 20155 30055 40127 53001 81100 333 10336 20206 30/// 56100 59005 81825=
78739 33570 13603 10250 20155 30055 40127 53001 81100 333 10336 20206 30/// 56100 59005 81825=
78741 32562 21003 10245 20194 30067 40130 53009 81130 333 10330 20225 30/// 56100 58000 81821 1AC070=
78741 32562 21003 10245 20194 30067 40130 53009 81130 333 10330 20225 30/// 56100 58000 81821 1AC070=
78745 11458 83402 10230 20225 30119 40142 51007 60022 715// 888// 333 10298 20216 32/// 56899 59004 70175 84616 84818 RA/NE/E/SE=
78745 11458 83402 10230 20225 30119 40142 51007 60022 715// 888// 333 10298 20216 32/// 56899 59004 70175 84616 84818 RA/NE/E/SE=
78762 32970 01113 10190 20133 39122 40109 53010 333 10284 20187 30/// 56200 58000=
78762 32970 01113 10190 20133 39122 40109 53010 333 10284 20187 30/// 56200 58000=
78764 32560 11310 10174 20122 39037 40136 53007 81500 333 10259 20172 30/// 56200 58004 81625=
78764 32560 11310 10174 20122 39037 40136 53007 81500 333 10259 20172 30/// 56200 58004 81625=
78767 31560 82103 10220 20209 30138 40133 51016 715// 83470 333 10291 20211 30/// 56000 59010 83620 85360=
78767 31560 82103 10220 20209 30138 40133 51016 715// 83470 333 10291 20211 30/// 56000 59010 83620 85360=
78774 32970 01702 10220 20192 30019 40109 57001 333 10339 20198 30/// 58001=
78774 32970 01702 10220 20192 30019 40109 57001 333 10339 20198 30/// 58001=
78793 32470 20104 10224 20212 30054 40085 52005 81101 333 031// 10342 20220 30/// 59005 81815/=
78793 32470 20104 10224 20212 30054 40085 52005 81101 333 031// 10342 20220 30/// 59005 81815=
78795 32970 00000 10198 20186 39989 40089 5//// 80000 333 0//// 10348 20198 30/// 56/// 59005 8////=
78795 32970 00000 10198 20186 39989 40089 5//// 80000 333 0//// 10348 20198 30/// 56/// 59005 8////=
78846 11487 60811 10253 20209 30151 40193 60003 715// 86800 333 10276 20236 59003 70000 86819=
78846 11487 60811 10253 20209 30151 40193 60003 715// 86800 333 10276 20236 59003 70000 86819=
78858 11472 70807 10222 20205 30134 40190 69992 72581 87430 333 10286 20217 59004 85816=
78858 11472 70807 10222 20205 30134 40190 69992 72581 87430 333 10286 20217 59004 85816=
78859 11458 30815 10231 20211 30184 40188 69943 7808/ 81460 333 10271 20231 59004 70004 81812=
78859 11458 30815 10231 20211 30184 40188 69943 7808/ 81460 333 10271 20231 59004 70004 81812=
78862 11480 20909 10252 20195 30164 40188 69951 70181 82800 333 10280 20223 59004 70009 82818=
78862 11480 20909 10252 20195 30164 40188 69951 70181 82800 333 10280 20223 59004 70009 82818=
78905 11478 41211 10255 20211 30164 40187 69912 701// 84200 333 10282 20219 59005 70001 84814 90999=
78905 11478 41211 10255 20211 30164 40187 69912 701// 84200 333 10282 20219 59005 70001 84814 90999=
78906 11578 41304 10251 20182 30162 40167 69903 780// 84400 333 10304 20220 59007 70001 84820 90919=
78922 06/// /1009 10264 20214 30134 40179 53019 60001 333 10281 20242 55304 20495 59004 60007 70002 555 60005=
78925 04583 61105 10239 20214 30166 40175 53011 6///1 700// 333 4//// 60017 90710 91109 555 69905=
78947 11576 41010 10253 20211 30177 40180 60112 7158/ 84800 333 02200 10290 20230 59003 70111 84818 90999=
78947 11576 41010 10253 20211 30177 40180 60112 7158/ 84800 333 02200 10290 20230 59003 70111 84818 90999=
78948 11583 20918 10260 20207 30164 40172 60011 70181 82800 333 01200 10295 20232 59008 70011 82825 90950=
78948 11583 20918 10260 20207 30164 40172 60011 70181 82800 333 01200 10295 20232 59008 70011 82825 90950=
78958 11473 10810 10267 20219 30148 40158 60001 70600 81200 333 10295 20239 59012 70000 81818=
78958 11473 10810 10267 20219 30148 40158 60001 70600 81200 333 10295 20239 59012 70000 81818=
78982 02482 31211 10254 20201 30148 40152 52016 60001 83200 333 10298 20234 59012 60007 70008 83819=
78982 02482 31211 10254 20201 30148 40152 52016 60001 83200333 10298 20234 59012 60007 70008 83819=



SMUS70 KWBC 031200
AAXX 03124
70133 35766 80604 11200 21222 30024 40030 56003 91153 333 21233 555 90312=
70133 35766 80604 11200 21222 30024 40030 56003 91153 333 21233 555 90312=
70174 32966 23604 11294 21328 39812 40073 51012 91153 333 21328 4/061 555 90312=
70174 32966 23604 11294 21328 39812 40073 51012 91153 333 21328 4/061 555 90312=
70194 15961 80000 11239 21261 39900 40079 53013 69901 91156 333 21250 555 90312=
70194 15961 80000 11239 21261 39900 40079 53013 69901 91156 333 21250 555 90312=
70200 35166 20000 11250 21267 39995 40001 58001 91153 333 21250 555 90312=
70200 35166 20000 11250 21267 39995 40001 58001 91153 333 21250 555 90312=
70219 11248 80405 11128 21133 39915 49972 53006 60011 771// 91153 333 21139 70010 96010 555 90312=
70219 11248 80405 11128 21133 39915 49972 53006 60011 771// 91153 333 21139 70010 96010 555 90312=
70231 37340 80000 11144 21172 39878 40012 50002 704// 91153 333 21161 555 90312=
70231 37340 80000 11144 21172 39878 40012 50002 704// 91153 333 21161 555 90312=
70232 17540 80000 11156 21178 39969 49993 58000 69901 771// 91156 333 96010 555 90312=
70232 17540 80000 11156 21178 39969 49993 58000 69901 771// 91156 333 96010 555 90312=
70251 15566 80000 11050 21061 39854 49989 51010 69931 91153 333 21050 70005 555 90312=
70251 15566 80000 11050 21061 39854 49989 51010 69931 91153 333 21050 70005 555 90312=
70261 11440 80000 11144 21178 39851 40029 51010 69931 771// 91153 333 21150 70028 96010 555 90312=
70261 11440 80000 11144 21178 39851 40029 51010 69931 771// 91153 333 21150 70028 96010 555 90312=
70267 35966 01605 11233 21261 39537 40045 53007 91153 333 21233 555 90312=
70267 35966 01605 11233 21261 39537 40045 53007 91153 333 21233 555 90312=
70271 35466 80000 11106 21117 39422 40020 51008 91153 333 21106 70018 555 90312=
70271 35466 80000 11106 21117 39422 40020 51008 91153 333 21106 70018 555 90312=
70273 11158 80000 11033 21033 39929 49988 51010 69931 710// 91153 333 21033 4/063 70020 555 90312=
70273 11158 80000 11033 21033 39929 49988 51010 69931 710// 91153 333 21033 4/063 70020 555 90312=
70316 35666 41909 10017 21011 39955 49992 58015 91153 333 21011 70010 555 90312=
70316 35666 41909 10017 21011 39955 49992 58015 91153 333 21011 70010 555 90312=
70321 17240 80000 11089 21106 39968 40008 53008 69901 710// 91156 333 21100 555 90312=
70321 17240 80000 11089 21106 39968 40008 53008 69901 710// 91156 333 21100 555 90312=
70326 32166 81304 11067 21083 39981 49996 51012 91154 333 21072 70005 555 90312=
70326 32166 81304 11067 21083 39981 49996 51012 91154 333 21072 70005 555 90312=
70333 35766 82105 11006 21011 39982 40018 51006 91156 333 10022 21017 555 90312=
70333 35766 82105 11006 21011 39982 40018 51006 91156 333 10022 21017 555 90312=
70340 17359 80000 11033 21044 39935 49998 51008 69901 710// 91153 333 21056 555 90312=
70340 17359 80000 11033 21044 39935 49998 51008 69901 710// 91153 333 21056 555 90312=
70343 35466 82808 10028 20028 39963 49966 51010 91151 333 20022 555 90312=
70343 35466 82808 10028 20028 39963 49966 51010 91151 333 20022 555 90312=
70350 32666 83008 10017 21006 39949 49989 53010 91153 333 21011 555 90312=
70350 32666 83008 10017 21006 39949 49989 53010 91153 333 21011 555 90312=
70361 15466 60000 11006 21011 39985 49997 51012 69931 91153 333 21006 70005 555 90312=
70361 15466 60000 11006 21011 39985 49997 51012 69931 91153 333 21006 70005 555 90312=
70381 11259 80910 10006 21006 30007 40016 51012 60031 771// 91153 333 21011 4/023 70081 96010 555 90312=
70381 11259 80910 10006 21006 30007 40016 51012 60031 771// 91153 333 21011 4/023 70081 96010 555 90312=
70454 356// 81810 10006 21022 30002 40005 58027 91156 333 10033 20006 70008 555 90312=
70454 356// 81810 10006 21022 30002 40005 58027 91156 333 10033 20006 70008 555 90312=
71032 16/// /3101 11117 21126 39366 40218 57012 60001 333 11002 21127 4/029 70000=
71032 16/// /3101 11117 21126 39366 40218 57012 60001 333 11002 21127 4/029 70000=
71039 16/// /3501 11167 21187 39377 40054 51007 60001 333 11132 21168 4/046 70002=
71039 16/// /3501 11167 21187 39377 40054 51007 60001 333 11132 21168 4/046 70002=
71043 12983 62602 11354 21391 30053 40153 53005 60001 86070 333 11307 21403 48054 70000=
71043 12983 62602 11354 21391 30053 40153 53005 60001 86070 333 11307 21403 48054 70000=
71044 16/// /0804 11297 21325 39766 40104 53007 60001 333 11300 21329 4/028 70000=
71044 16/// /0804 11297 21325 39766 40104 53007 60001 333 11300 21329 4/028 70000=
71045 17/// /0802 11157 21175 39176 40062 51011 69941 7//4/ 333 11142 21159 4/046 70007=
71045 17/// /0802 11157 21175 39176 40062 51011 69941 7//4/ 333 11142 21159 4/046 70007=
71046 459// 80909 11388 21425 30152 40171 52002 6///1 333 7////=
71046 459// 80909 11388 21425 30152 40171 52002 6///1 333 7////=
71048 16/// /0000 11154 21170 60001 333 11142 21166 70000=
71048 16/// /0000 11154 21170 60001 333 11142 21166 70000=
71049 16/// /2914 11328 21368 30109 40127 56005 60001 333 21342 4/019 70000=
71050 16/// /1401 11125 21141 39011 40101 58009 60001 333 21128 4/030 70000=
71050 16/// /1401 11125 21141 39011 40101 58009 60001 333 21128 4/030 70000=
71051 16/// ///// 11139 21158 39047 40174 58009 60001 333 11137 21154 70000=
71051 16/// ///// 11139 21158 39047 40174 58009 60001 333 11137 21154 70000=
71052 459// 80407 6///1 333 7////=
71052 459// 80407 6///1 333 7////=
71056 17/// /1205 11170 21195 39765 40075 57037 60011 7//4/ 333 11181 21211 4/049 70010=
71056 17/// /1205 11170 21195 39765 40075 57037 60011 7//4/ 333 11181 21211 4/049 70010=
71060 16/// /2805 10023 21099 38566 40066 58003 60001 333 10046 20017 4/049 70000=
71060 16/// /2805 10023 21099 38566 40066 58003 60001 333 10046 20017 4/049 70000=
71066 17466 83404 11180 21202 39625 40060 57001 60001 771// 333 11192 21211 70000=
71066 17466 83404 11180 21202 39625 40060 57001 60001 771// 333 11192 21211 70000=
71068 12974 82210 11084 21107 39345 40047 57008 69901 8807/ 333 11106 21138 48015 70016 90962=
71068 12974 82210 11084 21107 39345 40047 57008 69901 8807/ 333 11106 21138 48015 70016 90962=
71072 15966 02810 11293 21353 30103 40372 52014 60001 333 11124 21294 70000=
71072 15966 02810 11293 21353 30103 40372 52014 60001 333 11124 21294 70000=
71073 16/// /2211 10011 21048 60001 333 21142 70000=
71074 16/// /0005 11356 21393 30028 40098 58016 60001 333 21388 70000=
71074 16/// /0005 11356 21393 30028 40098 58016 60001 333 21388 70000=
71075 16/// /1305 11246 21275 39637 40181 58053 60001 333 11255 21359 4/033 70000=
71075 16/// /1305 11246 21275 39637 40181 58053 60001 333 11255 21359 4/033 70000=
71076 17/// /1005 11224 21254 39686 40099 58044 69951 7//4/ 333 11242 21272 4/051 70005=
71076 17/// /1005 11224 21254 39686 40099 58044 69951 7//4/ 333 11242 21272 4/051 70005=
71077 17/// /1607 11196 21226 39566 40132 58047 60021 7//4/ 333 11205 21222 4/032 70031=
71077 17/// /1607 11196 21226 39566 40132 58047 60021 7//4/ 333 11205 21222 4/032 70031=
71078 15866 71406 11312 21346 39768 40246 57037 60001 333 11266 21342 70000=
71078 15866 71406 11312 21346 39768 40246 57037 60001 333 11266 21342 70000=
71079 12974 21902 11379 21417 39984 40293 57025 60001 82050 333 11275 21403 79999=
71079 12974 21902 11379 21417 39984 40293 57025 60001 82050 333 11275 21403 79999=
71083 11966 33316 11373 21413 30125 40171 55007 69901 77677 81031 333 11366 21378 43/// 79999 90973=
71083 11966 33316 11373 21413 30125 40171 55007 69901 77677 81031 333 11366 21378 43/// 79999 90973=
71084 459// ///// 11350 21381 30103 40154 57009 6///1 333 7////=
71084 459// ///// 11350 21381 30103 40154 57009 6///1 333 7////=
71085 15966 02526 10030 21090 38764 40142 57011 60001 333 10048 20022 70000=
71085 15966 02526 10030 21090 38764 40142 57011 60001 333 10048 20022 70000=
71087 46/// /3003 11227 21255 39867 40083 50000 6///1 333 11232 21249 7////=
71087 46/// /3003 11227 21255 39867 40083 50000 6///1 333 11232 21249 7////=
71090 15966 02508 11302 21350 30042 40079 57005 60001 333 11282 21324 70000=
71090 15966 02508 11302 21350 30042 40079 57005 60001 333 11282 21324 70000=
71091 459// ///// 11362 21399 39880 40103 57003 6///1 333 7////=
71091 459// ///// 11362 21399 39880 40103 57003 6///1 333 7////=
71092 456// 82907 11324 21353 39386 40088 57005 6///1 333 7////=
71092 456// 82907 11324 21353 39386 40088 57005 6///1 333 7////=
71094 459// ///// 11277 21306 6///1 333 7////=
71094 459// ///// 11277 21306 6///1 333 7////=
71095 15966 01806 11360 21397 30014 40100 52002 60001 333 11334 21376 70000=
71095 15966 01806 11360 21397 30014 40100 52002 60001 333 11334 21376 70000=
71097 459// /3202 11316 21348 6///1 333 7////=
71097 459// /3202 11316 21348 6///1 333 7////=
71098 16/// /3217 11203 21289 39668 40218 52024 60001 333 11036 21204 4/031 70008=
71098 16/// /3217 11203 21289 39668 40218 52024 60001 333 11036 21204 4/031 70008=
71101 16/// /2702 10040 20037 30005 40018 58009 60001 333 10097 20028 70119=
71101 16/// /2702 10040 20037 30005 40018 58009 60001 333 10097 20028 70119=
71102 16/// ///// 11202 21222 60001 333 11193 21211 70000=
71102 16/// ///// 11202 21222 60001 333 11193 21211 70000=
71104 12974 71114 11010 21058 39014 40128 58011 60001 87070 333 11002 21011 47023 70000=
71104 12974 71114 11010 21058 39014 40128 58011 60001 87070 333 11002 21011 47023 70000=
71105 16/// ///// 10019 21036 60001 333 11081 21133 70000=
71105 16/// ///// 10019 21036 60001 333 11081 21133 70000=
71106 46/// /1602 11337 21372 6///1 333 11259 21345 7////=
71106 46/// /1602 11337 21372 6///1 333 11259 21345 7////=
71108 12974 80209 10036 21005 30052 40124 56034 60001 8807/ 333 10048 20014 70000=
71108 12974 80209 10036 21005 30052 40124 56034 60001 8807/ 333 10048 20014 70000=
71109 11674 81122 10071 20033 30037 40063 57017 60011 76066 885// 333 10075 20061 70011 90973=
71109 11674 81122 10071 20033 30037 40063 57017 60011 76066 885// 333 10075 20061 70011 90973=
71111 15466 82504 10039 20033 30006 40014 57009 60001 333 10096 20026 70118=
71111 15466 82504 10039 20033 30006 40014 57009 60001 333 10096 20026 70118=
71113 16/// /0209 10051 21004 30117 40140 58032 60001 333 10051 21019 70000=
71113 16/// /0209 10051 21004 30117 40140 58032 60001 333 10051 21019 70000=
71114 16/// /1012 10005 21007 30110 40161 58026 60001 333 10041 21008 4/003 70000=
71114 16/// /1012 10005 21007 30110 40161 58026 60001 333 10041 21008 4/003 70000=
71115 16/// /0801 11035 21048 39629 40225 58011 60001 333 11021 21037 70000=
71115 16/// /0801 11035 21048 39629 40225 58011 60001 333 11021 21037 70000=
71116 16/// /0907 11156 21172 39052 40194 58010 60001 333 11140 21172 4/013 70000=
71116 16/// /0907 11156 21172 39052 40194 58010 60001 333 11140 21172 4/013 70000=
71120 11769 81506 11199 21230 39456 40142 57029 69901 77122 8657/ 333 11186 21206 47038 79999 90910=
71120 11769 81506 11199 21230 39456 40142 57029 69901 77122 8657/ 333 11186 21206 47038 79999 90910=
71122 16/// /2310 11008 21113 38531 40133 55002 60001 333 10025 21034 4/027 70000=
71122 16/// /2310 11008 21113 38531 40133 55002 60001 333 10025 21034 4/027 70000=
71123 11780 71605 11108 21138 39217 40105 58016 60001 71411 81571 333 11132 21160 48027 70000=
71123 11780 71605 11108 21138 39217 40105 58016 60001 71411 81571 333 11132 21160 48027 70000=
71125 11974 51003 11190 21224 39535 40148 56035 60001 7007/ 85070 333 44034 7//// 9098/=
71125 11974 51003 11190 21224 39535 40148 56035 60001 7007/ 85070 333 44034 7//// 9098/=
71127 16/// /2304 11109 21141 39166 40114 56014 60001 333 11129 21153 4/014 70000=
71127 16/// /2304 11109 21141 39166 40114 56014 60001 333 11129 21153 4/014 70000=
71129 12974 62102 11170 21193 39281 40146 56024 60001 80001 333 11175 21185 48019 70000=
71129 12974 62102 11170 21193 39281 40146 56024 60001 80001 333 11175 21185 48019 70000=
71130 15566 81207 11187 21234 39732 40218 57046 60001 333 11240 21305 70000=
71130 15566 81207 11187 21234 39732 40218 57046 60001 333 11240 21305 70000=
71131 16/// /2511 11144 21166 38878 40182 58018 60001 333 11157 21188 4/016 70000=
71131 16/// /2511 11144 21166 38878 40182 58018 60001 333 11157 21188 4/016 70000=
71132 17666 81009 11249 21277 39817 40144 57062 60001 771// 333 11290 21354 70000=
71132 17666 81009 11249 21277 39817 40144 57062 60001 771// 333 11290 21354 70000=
71133 16/// /1307 11211 21251 39407 40157 56036 60001 333 11205 21227 4/008 70005=
71133 16/// /1307 11211 21251 39407 40157 56036 60001 333 11205 21227 4/008 70005=
71134 46/// /2801 11401 21446 30033 40110 56012 6///1 333 11306 21411 4/023 7////=
71134 46/// /2801 11401 21446 30033 40110 56012 6///1 333 11306 21411 4/023 7////=
71135 16/// /2211 11181 21209 39064 40198 58026 60001 333 11185 21202 4/004 70000=
71135 16/// /2211 11181 21209 39064 40198 58026 60001 333 11185 21202 4/004 70000=
71136 16/// /1209 11223 21268 39777 40317 56034 60001 333 11203 21305 4/014 70000=
71136 16/// /1209 11223 21268 39777 40317 56034 60001 333 11203 21305 4/014 70000=
71137 16/// /2102 11198 21225 39220 40210 58015 60001 333 11161 21214 4/006 70000=
71137 16/// /2102 11198 21225 39220 40210 58015 60001 333 11161 21214 4/006 70000=
71139 16/// /2514 10005 21073 38665 40152 58011 60001 333 11104 21182 4/020 70000=
71139 16/// /2514 10005 21073 38665 40152 58011 60001 333 11104 21182 4/020 70000=
71140 12774 81209 11225 21274 39775 40318 57034 60001 8457/ 333 11205 21311 48041 70000=
71140 12774 81209 11225 21274 39775 40318 57034 60001 8457/ 333 11205 21311 48041 70000=
71142 15966 02218 11103 21141 39149 40149 57023 60001 333 11150 21172 70000=
71142 15966 02218 11103 21141 39149 40149 57023 60001 333 11150 21172 70000=
71145 15966 02206 11347 21381 30001 40324 57013 60001 333 11289 21350 70000=
71145 15966 02206 11347 21381 30001 40324 57013 60001 333 11289 21350 70000=
71147 16/// /1409 11231 21274 39985 40344 58028 60001 333 11202 21317 70005=
71147 16/// /1409 11231 21274 39985 40344 58028 60001 333 11202 21317 70005=
71148 16/// /1510 11223 21260 39709 40334 56031 60001 333 11188 21326 4/037 70000=
71148 16/// /1510 11223 21260 39709 40334 56031 60001 333 11188 21326 4/037 70000=
71150 16/// /1511 11215 21271 39557 40289 58034 60001 333 11244 21323 4/013 70002=
71150 16/// /1511 11215 21271 39557 40289 58034 60001 333 11244 21323 4/013 70002=
71151 16/// /1903 11330 21358 39814 40369 58012 60001 333 11177 21345 4/044 70000=
71151 16/// /1903 11330 21358 39814 40369 58012 60001 333 11177 21345 4/044 70000=
71153 16/// /2308 10053 21127 60001 333 10072 21007 70000=
71153 16/// /2308 10053 21127 60001 333 10072 21007 70000=
71154 16/// /2313 10045 21124 38665 40140 58010 60001 333 10055 20025 4/997 70000=
71154 16/// /2313 10045 21124 38665 40140 58010 60001 333 10055 20025 4/997 70000=
71155 16/// /1604 11106 21139 39235 40103 58015 60001 333 21159 4/015 70000=
71155 16/// /1604 11106 21139 39235 40103 58015 60001 333 21159 4/015 70000=
71157 46/// /2204 11124 21162 39275 40102 58019 6///1 333 11134 21150 7////=
71157 46/// /2204 11124 21162 39275 40102 58019 6///1 333 11134 21150 7////=
71158 16/// /1504 11317 21354 30032 40338 58023 60001 333 11278 21349 4/016 70000=
71158 16/// /1504 11317 21354 30032 40338 58023 60001 333 11278 21349 4/016 70000=
71160 46/// /1313 11256 21308 39897 40124 56034 6///1 333 21302 4/044 7////=
71160 46/// /1313 11256 21308 39897 40124 56034 6///1 333 21302 4/044 7////=
71161 16/// /3510 11239 21307 30049 40206 51034 60001 333 10003 21239 4/020 70000=
71161 16/// /3510 11239 21307 30049 40206 51034 60001 333 10003 21239 4/020 70000=
71162 16/// /0712 11224 21251 39860 40082 56016 60001 333 21276 70000=
71162 16/// /0712 11224 21251 39860 40082 56016 60001 333 21276 70000=
71163 16/// ///// 11288 21320 39742 40104 55004 60001 333 11295 21326 4/029 70000=
71163 16/// ///// 11288 21320 39742 40104 55004 60001 333 11295 21326 4/029 70000=
71164 46/// /3503 11359 21399 30091 40154 51003 6///1 333 21400 7////=
71164 46/// /3503 11359 21399 30091 40154 51003 6///1 333 21400 7////=
71165 16/// /3301 11378 21416 39826 40127 56005 60001 333 11314 21390 4/035 70000=
71165 16/// /3301 11378 21416 39826 40127 56005 60001 333 11314 21390 4/035 70000=
71166 17/// /2503 11193 21223 39426 40061 50000 60011 7//4/ 333 11193 21241 4/046 70010=
71166 17/// /2503 11193 21223 39426 40061 50000 60011 7//4/ 333 11193 21241 4/046 70010=
71167 15966 82603 11061 21075 38990 40109 57007 60001 333 11129 21164 70000=
71167 15966 82603 11061 21075 38990 40109 57007 60001 333 11129 21164 70000=
71168 16/// /1308 11193 21232 39747 40369 58015 60001 333 11081 21216 4/039 70000=
71168 16/// /1308 11193 21232 39747 40369 58015 60001 333 11081 21216 4/039 70000=
71170 16/// /1408 11225 21267 39807 40317 57032 60001 333 11220 21296 4/021 70004=
71170 16/// /1408 11225 21267 39807 40317 57032 60001 333 11220 21296 4/021 70004=
71180 17/// /1623 11004 39906 49947 56058 60011 7//4/ 333 11034 21058 4/005 70012=
71180 17/// /1623 11004 39906 49947 56058 60011 7//4/ 333 11034 21058 4/005 70012=
71183 17/// /3016 11235 21313 30133 40174 53036 69931 7//4/ 333 11006 21236 4/037 70003=
71183 17/// /3016 11235 21313 30133 40174 53036 69931 7//4/ 333 11006 21236 4/037 70003=
71186 46/// /2926 11272 21324 6///1 333 11030 21272 7////=
71186 46/// /2926 11272 21324 6///1 333 11030 21272 7////=
71187 15966 21112 10005 21007 30111 40159 57026 60001 333 10043 21009 70000=
71187 15966 21112 10005 21007 30111 40159 57026 60001 333 10043 21009 70000=
71188 11556 42211 11045 21095 39828 49871 56034 69901 77172 84500 333 11046 21124 48053 79999 90977=
71188 11556 42211 11045 21095 39828 49871 56034 69901 77172 84500 333 11046 21124 48053 79999 90977=
71189 46/// /2835 11266 21313 6///1 333 11025 21266 7////=
71189 46/// /2835 11266 21313 6///1 333 11025 21266 7////=
71193 16/// /2604 11329 21363 39869 40265 51008 60001 333 11143 21329 4/025 70002=
71193 16/// /2604 11329 21363 39869 40265 51008 60001 333 11143 21329 4/025 70002=
71196 16/// /3214 11287 21366 30028 40239 52036 60001 333 11010 21287 4/030 70005=
71196 16/// /3214 11287 21366 30028 40239 52036 60001 333 11010 21287 4/030 70005=
71200 16/// /0112 10062 20000 30028 40112 58030 60001 333 10078 20045 70000=
71201 16/// ///// 10060 20030 60001 333 10079 20060 79999=
71201 16/// ///// 10060 20030 60001 333 10079 20060 79999=
71203 15966 73302 11055 21063 39691 40226 57009 60001 333 10004 21060 70000=
71203 15966 73302 11055 21063 39691 40226 57009 60001 333 10004 21060 70000=
71207 16/// /3504 10017 20013 30084 40153 56026 60001 333 10044 20001 4/997 70000=
71207 16/// /3504 10017 20013 30084 40153 56026 60001 333 10044 20001 4/997 70000=
71208 16/// /2706 11353 21390 30009 40312 51004 60001 333 11264 21353 4/054 70000=
71208 16/// /2706 11353 21390 30009 40312 51004 60001 333 11264 21353 4/054 70000=
71211 16/// /0027 10061 20027 30119 40130 56027 60001 333 10061 20050 70002=
71211 16/// /0027 10061 20027 30119 40130 56027 60001 333 10061 20050 70002=
71215 16/// /2002 11036 21064 39870 40222 58013 60001 333 10033 21040 4/997 70000=
71215 16/// /2002 11036 21064 39870 40222 58013 60001 333 10033 21040 4/997 70000=
71216 16/// /0402 11028 21033 39610 40241 58005 60001 333 11009 21037 4/028 70002=
71216 16/// /0402 11028 21033 39610 40241 58005 60001 333 11009 21037 4/028 70002=
71218 16/// /0000 11023 21039 39781 40217 58014 60001 333 11004 21026 4/013 70000=
71218 16/// /0000 11023 21039 39781 40217 58014 60001 333 11004 21026 4/013 70000=
71222 16/// /0604 11158 21181 39079 40070 51014 60001 333 11160 21166 4/044 70015=
71222 16/// /0604 11158 21181 39079 40070 51014 60001 333 11160 21166 4/044 70015=
71230 16/// ///// 11064 21112 39161 40069 50000 60001 333 11114 21136 4/026 70002=
71230 16/// ///// 11064 21112 39161 40069 50000 60001 333 11114 21136 4/026 70002=
71231 16/// /2513 10026 21049 39164 40145 58011 60001 333 11098 21125 70000=
71231 16/// /2513 10026 21049 39164 40145 58011 60001 333 11098 21125 70000=
71232 16/// /2612 10058 21139 38599 40103 58018 60001 333 10061 20018 70000=
71232 16/// /2612 10058 21139 38599 40103 58018 60001 333 10061 20018 70000=
71234 16/// /2007 10026 21105 38951 40132 58015 60001 333 10056 21054 4/004 70000=
71234 16/// /2007 10026 21105 38951 40132 58015 60001 333 10056 21054 4/004 70000=
71235 16/// /3006 10030 21129 60001 333 10047 20001 70000=
71235 16/// /3006 10030 21129 60001 333 10047 20001 70000=
71236 16/// /3311 10019 21098 38651 40153 56010 60001 333 10027 20013 7////=
71236 16/// /3311 10019 21098 38651 40153 56010 60001 333 10027 20013 7////=
71238 16/// /1501 11141 21174 39227 40115 58018 60001 333 11154 21171 4/038 70000=
71238 16/// /1501 11141 21174 39227 40115 58018 60001 333 11154 21171 4/038 70000=
71239 16/// /1608 11214 21267 39829 40327 56032 60001 333 11196 21305 4/018 70000=
71239 16/// /1608 11214 21267 39829 40327 56032 60001 333 11196 21305 4/018 70000=
71240 16/// /3403 11172 21200 39270 40145 56022 60001 333 11173 21186 4/024 70000=
71240 16/// /3403 11172 21200 39270 40145 56022 60001 333 11173 21186 4/024 70000=
71242 16/// /1602 11102 21137 39076 40123 58013 60001 333 11137 21149 4/013 70000=
71242 16/// /1602 11102 21137 39076 40123 58013 60001 333 11137 21149 4/013 70000=
71243 46/// /2313 10040 21078 39070 40139 58001 6///1 333 10068 20027 7////=
71243 46/// /2313 10040 21078 39070 40139 58001 6///1 333 10068 20027 7////=
71244 46/// /2216 10004 21072 38922 40156 6///1 333 4/016 7////=
71244 46/// /2216 10004 21072 38922 40156 6///1 333 4/016 7////=
71246 17/// /1506 11081 21101 39369 40045 57019 69931 7//4/ 333 11125 21154 4/034 70015=
71246 17/// /1506 11081 21101 39369 40045 57019 69931 7//4/ 333 11125 21154 4/034 70015=
71247 15966 72212 11005 21063 39268 40129 57011 60001 333 11028 21063 70000=
71247 15966 72212 11005 21063 39268 40129 57011 60001 333 11028 21063 70000=
71248 46/// /2904 11013 21078 38798 40112 56008 6///1 333 11064 21095 4/010 7////=
71248 46/// /2904 11013 21078 38798 40112 56008 6///1 333 11064 21095 4/010 7////=
71249 16/// /2603 11146 21172 60001 333 11130 21157 70000=
71249 16/// /2603 11146 21172 60001 333 11130 21157 70000=
71250 16/// /2004 11051 21066 39966 40112 57021 60001 333 11073 21122 4/008 70009=
71250 16/// /2004 11051 21066 39966 40112 57021 60001 333 11073 21122 4/008 70009=
71251 46/// /2415 10043 21033 39202 40137 57012 6///1 333 10004 21107 7////=
71251 46/// /2415 10043 21033 39202 40137 57012 6///1 333 10004 21107 7////=
71252 16/// /1202 11068 21077 38534 40116 58001 60001 333 21080 4/035 70000=
71252 16/// /1202 11068 21077 38534 40116 58001 60001 333 21080 4/035 70000=
71253 46/// /0002 11185 21214 6///1 333 11210 21230 7////=
71253 46/// /0002 11185 21214 6///1 333 11210 21230 7////=
71254 16/// /2901 11134 21163 39207 40123 56014 60001 333 11155 21167 4/037 70000=
71254 16/// /2901 11134 21163 39207 40123 56014 60001 333 11155 21167 4/037 70000=
71255 17/// ///// 11151 21174 69981 7//4/ 333 11167 21193 4/033 70025=
71255 17/// ///// 11151 21174 69981 7//4/ 333 11167 21193 4/033 70025=
71260 12/24 /1303 11254 21287 30050 40304 53020 69941 333 11057 21255 44047 70039 93101=
71260 12/24 /1303 11254 21287 30050 40304 53020 69941 333 11057 21255 44047 70039 93101=
71261 16/// /3321 11121 21167 39973 40246 53026 60001 333 10004 21124 4/001 70000=
71261 16/// /3321 11121 21167 39973 40246 53026 60001 333 10004 21124 4/001 70000=
71263 11574 03110 11167 21237 39936 40237 52030 69931 70171 81800 333 10002 21168 46007 70003 90941=
71263 11574 03110 11167 21237 39936 40237 52030 69931 70171 81800 333 10002 21168 46007 70003 90941=
71265 15966 03210 11164 21221 30140 40238 52035 60001 333 10022 21165 70000=
71265 15966 03210 11164 21221 30140 40238 52035 60001 333 10022 21165 70000=
71270 17/// /2911 11174 21196 30005 40236 51028 60021 7//4/ 333 10022 21175 70027=
71270 17/// /2911 11174 21196 30005 40236 51028 60021 7//4/ 333 10022 21175 70027=
71271 16/// /2107 11141 21169 39302 40095 57029 60001 333 11149 21169 70000=
71271 16/// /2107 11141 21169 39302 40095 57029 60001 333 11149 21169 70000=
71272 15966 02002 11357 21392 39866 40251 57026 60001 333 11291 21361 70000=
71272 15966 02002 11357 21392 39866 40251 57026 60001 333 11291 21361 70000=
71273 16/// /1804 11203 21237 39452 40147 58032 60001 333 11192 21211 4/033 70000=
71273 16/// /1804 11203 21237 39452 40147 58032 60001 333 11192 21211 4/033 70000=
71281 46/// /0103 11221 21290 30103 40210 53034 6///1 333 10017 21221 7////=
71281 46/// /0103 11221 21290 30103 40210 53034 6///1 333 10017 21221 7////=
71282 46/// /3512 11236 21295 39942 40213 53028 6///1 333 11011 21236 7////=
71282 46/// /3512 11236 21295 39942 40213 53028 6///1 333 11011 21236 7////=
71283 16/// /2803 11099 21121 60001 333 11107 21155 70028=
71283 16/// /2803 11099 21121 60001 333 11107 21155 70028=
71284 16/// ///// 11143 21159 60001 333 11137 21156 70000=
71284 16/// ///// 11143 21159 60001 333 11137 21156 70000=
71290 17448 81411 10003 21006 39252 40082 57001 69951 7714/ 333 10005 21009 70100=
71290 17448 81411 10003 21006 39252 40082 57001 69951 7714/ 333 10005 21009 70100=
71319 16/// /3008 11312 21349 39129 40020 53027 60001 333 11081 21312 4/115 70092=
71319 16/// /3008 11312 21349 39129 40020 53027 60001 333 11081 21312 4/115 70092=
71323 17/// /3006 11248 21314 39796 40087 51033 69941 7//4/ 333 11038 21248 70028=
71323 17/// /3006 11248 21314 39796 40087 51033 69941 7//4/ 333 11038 21248 70028=
71368 15966 03211 11189 21249 39830 40236 52025 60001 333 11004 21189 70000=
71368 15966 03211 11189 21249 39830 40236 52025 60001 333 11004 21189 70000=
71370 46/// /3111 11271 21349 30006 40149 53033 6///1 333 11034 21271 7////=
71370 46/// /3111 11271 21349 30006 40149 53033 6///1 333 11034 21271 7////=
71371 15966 02916 11226 21306 30130 40165 52031 60001 333 11016 21226 70000=
71371 15966 02916 11226 21306 30130 40165 52031 60001 333 11016 21226 70000=
71372 16/// /3110 11223 21300 60001 333 11012 21223 4/037 70012=
71372 16/// /3110 11223 21300 60001 333 11012 21223 4/037 70012=
71373 17/// /3006 11215 21277 39851 40137 51026 69921 7//4/ 333 11015 21215 4/027 70007=
71373 17/// /3006 11215 21277 39851 40137 51026 69921 7//4/ 333 11015 21215 4/027 70007=
71374 46/// /1634 11024 21036 6///1 333 21114 7////=
71374 46/// /1634 11024 21036 6///1 333 21114 7////=
71375 46/// /2328 11051 21063 6///1 333 11050 21063 7////=
71375 46/// /2328 11051 21063 6///1 333 11050 21063 7////=
71376 16/// /2803 11281 21338 39870 40172 51033 60001 333 11026 21281 70050=
71376 16/// /2803 11281 21338 39870 40172 51033 60001 333 11026 21281 70050=
71377 17/// /3012 11234 21310 30131 40181 53039 69921 7//4/ 333 11007 21234 4/044 70005=
71377 17/// /3012 11234 21310 30131 40181 53039 69921 7//4/ 333 11007 21234 4/044 70005=
71378 16/// /3113 11300 21379 39937 40155 51027 60001 333 11048 21300 4/037 70017=
71378 16/// /3113 11300 21379 39937 40155 51027 60001 333 11048 21300 4/037 70017=
71379 17/// /3017 11311 21375 39941 40140 53021 69921 7//4/ 333 11067 21312 4/031 70006=
71379 17/// /3017 11311 21375 39941 40140 53021 69921 7//4/ 333 11067 21312 4/031 70006=
71381 17/// ///// 11294 21330 39976 40122 51032 69951 7//4/ 333 11049 21294 70008=
71381 17/// ///// 11294 21330 39976 40122 51032 69951 7//4/ 333 11049 21294 70008=
71382 16/// /0004 11339 21380 39062 40056 51023 60001 333 11088 21339 70080=
71382 16/// /0004 11339 21380 39062 40056 51023 60001 333 11088 21339 70080=
71383 46/// ///// 11336 21372 39397 40031 53018 6///1 333 11127 21336 7////=
71383 46/// ///// 11336 21372 39397 40031 53018 6///1 333 11127 21336 7////=
71384 16/// /2708 11243 21338 30093 40101 51055 60001 333 11028 21244 70088=
71384 16/// /2708 11243 21338 30093 40101 51055 60001 333 11028 21244 70088=
71385 46/// /2826 11195 21217 6///1 333 11027 21199 7////=
71385 46/// /2826 11195 21217 6///1 333 11027 21199 7////=
71387 16/// /3008 11305 21348 39686 40081 51031 69921 333 21305 70097=
71387 16/// /3008 11305 21348 39686 40081 51031 69921 333 21305 70097=
71388 46/// /2821 11297 21335 39915 40111 51038 6///1 333 21297 7////=
71388 46/// /2821 11297 21335 39915 40111 51038 6///1 333 21297 7////=
71389 16/// /2916 11268 21346 60001 333 11028 21268 70029=
71389 16/// /2916 11268 21346 60001 333 11028 21268 70029=
71390 46/// /2716 11145 21198 6///1 333 11051 21145 7////=
71390 46/// /2716 11145 21198 6///1 333 11051 21145 7////=
71392 16/// ///// 11255 21308 60001 333 11025 21255 4/068 7////=
71392 16/// ///// 11255 21308 60001 333 11025 21255 4/068 7////=
71395 11674 62110 10008 21027 39769 49947 56045 69901 71587 86570 333 11006 21058 47008 79999 90936=
71395 11674 62110 10008 21027 39769 49947 56045 69901 71587 86570 333 11006 21058 47008 79999 90936=
71397 11/24 92307 11006 21014 39909 49943 57030 60021 77132 333 11006 21038 42008 70020 90942 93102=
71397 11/24 92307 11006 21014 39909 49943 57030 60021 77132 333 11006 21038 42008 70020 90942 93102=
71398 17766 72709 11357 21397 30227 40240 52007 60001 771// 333 11213 21361 79999=
71398 17766 72709 11357 21397 30227 40240 52007 60001 771// 333 11213 21361 79999=
71400 16/// /0502 11147 21165 39907 40047 58045 60001 333 11050 21202 4/019 70000=
71400 16/// /0502 11147 21165 39907 40047 58045 60001 333 11050 21202 4/019 70000=
71402 16/// /1510 11075 21095 39943 40045 58027 60001 333 11073 21089 70005=
71402 16/// /1510 11075 21095 39943 40045 58027 60001 333 11073 21089 70005=
71403 46/// /2121 10031 20009 39931 49940 56045 6///1 333 10020 21016 7////=
71403 46/// /2121 10031 20009 39931 49940 56045 6///1 333 10020 21016 7////=
71408 46/// /1625 11003 21029 39945 40030 58051 6///1 333 11030 21053 7////=
71408 46/// /1625 11003 21029 39945 40030 58051 6///1 333 11030 21053 7////=
71410 15966 71803 11332 21364 30006 40312 57025 60001 333 11262 21345 70000=
71410 15966 71803 11332 21364 30006 40312 57025 60001 333 11262 21345 70000=
71411 16/// /2414 10016 20003 39943 49957 56041 69921 333 10032 21003 70005=
71411 16/// /2414 10016 20003 39943 49957 56041 69921 333 10032 21003 70005=
71412 17/// /1816 10004 20001 39920 49933 56055 69931 7//4/ 333 11017 21038 70003=
71412 17/// /1816 10004 20001 39920 49933 56055 69931 7//4/ 333 11017 21038 70003=
71414 16/// ///// 11194 21223 60001 333 11187 21209 70000=
71414 16/// ///// 11194 21223 60001 333 11187 21209 70000=
71415 17/// /2107 10006 21011 39929 49938 56049 60011 7//4/ 333 11022 21053 4/013 70011=
71415 17/// /2107 10006 21011 39929 49938 56049 60011 7//4/ 333 11022 21053 4/013 70011=
71417 46/// ///// 11060 6///1 333 11081 21150 7////=
71417 46/// ///// 11060 6///1 333 11081 21150 7////=
71418 46/// /1816 10003 21004 39904 49937 56058 6///1 333 11032 21057 7////=
71418 46/// /1816 10003 21004 39904 49937 56058 6///1 333 11032 21057 7////=
71419 46/// /1918 10023 20011 39955 49967 56053 6///1 333 10010 21053 7////=
71419 46/// /1918 10023 20011 39955 49967 56053 6///1 333 10010 21053 7////=
71421 17/// /1206 11142 21164 39159 49856 56054 69931 7//4/ 333 21229 70003=
71421 17/// /1206 11142 21164 39159 49856 56054 69931 7//4/ 333 21229 70003=
71423 46/// /2319 11023 21033 39879 49885 56047 6///1 333 21057 7////=
71423 46/// /2319 11023 21033 39879 49885 56047 6///1 333 21057 7////=
71424 46/// /3109 6///1 333 7////=
71424 46/// /3109 6///1 333 7////=
71425 16/// /2824 11106 21139 39844 49878 53001 60001 333 11058 21107 4/023 70000=
71425 16/// /2824 11106 21139 39844 49878 53001 60001 333 11058 21107 4/023 70000=
71426 46/// /2932 11237 21264 6///1 333 11024 21241 7////=
71426 46/// /2932 11237 21264 6///1 333 11024 21241 7////=
71427 16/// /2729 11186 21216 39940 49948 51053 60001 333 11036 21195 70000=
71427 16/// /2729 11186 21216 39940 49948 51053 60001 333 11036 21195 70000=
71428 16/// /2636 11148 21169 39941 49946 51054 60001 333 11047 21150 70000=
71428 16/// /2636 11148 21169 39941 49946 51054 60001 333 11047 21150 70000=
71429 46/// /2424 11028 21061 39854 49873 56042 6///1 333 11033 21051 7////=
71429 46/// /2424 11028 21061 39854 49873 56042 6///1 333 11033 21051 7////=
71430 16/// /3409 11185 21252 30111 40213 53028 60001 333 10021 21186 4/008 70006=
71430 16/// /3409 11185 21252 30111 40213 53028 60001 333 10021 21186 4/008 70006=
71431 16/// /3307 11196 21272 30125 40225 53037 60001 333 10016 21198 4/009 70000=
71431 16/// /3307 11196 21272 30125 40225 53037 60001 333 10016 21198 4/009 70000=
71432 16/// /3224 11103 21144 30130 40230 53033 60001 333 10020 21103 4/002 70000=
71432 16/// /3224 11103 21144 30130 40230 53033 60001 333 10020 21103 4/002 70000=
71433 46/// /3320 11151 21168 30063 40305 53008 6///1 333 21200 7////=
71435 16/// /2904 11333 21365 39709 40357 53010 60001 333 11150 21335 4/048 70000=
71435 16/// /2904 11333 21365 39709 40357 53010 60001 333 11150 21335 4/048 70000=
71436 15966 03208 11223 21285 39979 40225 52030 60001 333 10007 21223 70000=
71436 15966 03208 11223 21285 39979 40225 52030 60001 333 10007 21223 70000=
71437 46/// /2910 11145 21231 30146 40246 52032 6///1 333 10019 21147 7////=
71437 46/// /2910 11145 21231 30146 40246 52032 6///1 333 10019 21147 7////=
71440 16/// /2410 10017 21059 39024 40103 58012 60001 333 11098 21130 70000=
71440 16/// /2410 10017 21059 39024 40103 58012 60001 333 11098 21130 70000=
71441 16/// /1512 11240 21282 30018 40355 56025 60001 333 11166 21315 4/014 70002=
71441 16/// /1512 11240 21282 30018 40355 56025 60001 333 11166 21315 4/014 70002=
71442 17/// /1706 11257 21308 30005 40347 58024 69931 7//4/ 333 11238 21343 4/009 70003=
71442 17/// /1706 11257 21308 30005 40347 58024 69931 7//4/ 333 11238 21343 4/009 70003=
71443 16/// /0802 11229 21273 39829 40272 58043 60001 333 11254 21289 4/025 70000=
71443 16/// /0802 11229 21273 39829 40272 58043 60001 333 11254 21289 4/025 70000=
71444 16/// /1603 11209 21275 39478 40294 56030 60001 333 11224 21340 4/038 70000=
71444 16/// /1603 11209 21275 39478 40294 56030 60001 333 11224 21340 4/038 70000=
71445 16/// /1709 11290 21324 30013 40317 58027 60001 333 21309 4/070 70000=
71445 16/// /1709 11290 21324 30013 40317 58027 60001 333 21309 4/070 70000=
71446 16/// /2217 11104 21148 39142 40157 56021 60001 333 11148 21170 70000=
71446 16/// /2217 11104 21148 39142 40157 56021 60001 333 11148 21170 70000=
71447 16/// /1613 11195 21238 39708 40291 58039 60001 333 11203 21269 4/014 70000=
71447 16/// /1613 11195 21238 39708 40291 58039 60001 333 11203 21269 4/014 70000=
71448 46/// ///// 6///1 333 7////=
71448 46/// ///// 6///1 333 7////=
71450 16/// /1313 11179 21214 39417 40167 58034 60001 333 11184 21217 4/007 70000=
71450 16/// /1313 11179 21214 39417 40167 58034 60001 333 11184 21217 4/007 70000=
71451 16/// /1704 11226 21257 39752 40204 58052 69931 333 11215 21321 4/043 70003=
71451 16/// /1704 11226 21257 39752 40204 58052 69931 333 11215 21321 4/043 70003=
71452 16/// /1616 11193 21223 39475 40225 56033 60001 333 11203 21230 4/027 70000=
71452 16/// /1616 11193 21223 39475 40225 56033 60001 333 11203 21230 4/027 70000=
71453 16/// /2503 11012 21077 39213 40139 56017 60001 333 11029 21109 70000=
71453 16/// /2503 11012 21077 39213 40139 56017 60001 333 11029 21109 70000=
71454 16/// /1607 11205 21244 39446 40172 56042 60001 333 11210 21240 4/039 70000=
71454 16/// /1607 11205 21244 39446 40172 56042 60001 333 11210 21240 4/039 70000=
71455 16/// /1704 11150 21179 39332 40162 58028 60001 333 11167 21180 4/018 70007=
71455 16/// /1704 11150 21179 39332 40162 58028 60001 333 11167 21180 4/018 70007=
71456 16/// /1811 11175 21230 39572 40200 56038 60001 333 11220 21283 4/019 70000=
71456 16/// /1811 11175 21230 39572 40200 56038 60001 333 11220 21283 4/019 70000=
71457 16/// /2609 11008 21069 39220 40123 57017 60001 333 11086 21142 4/001 70000=
71458 16/// /1605 11160 21189 39326 40131 58013 60001 333 11159 21176 4/024 70000=
71458 16/// /1605 11160 21189 39326 40131 58013 60001 333 11159 21176 4/024 70000=
71459 16/// /2004 11151 21183 39304 40139 58021 60001 333 11142 21166 4/018 70000=
71459 16/// /2004 11151 21183 39304 40139 58021 60001 333 11142 21166 4/018 70000=
71460 46/// ///// 30038 51026 6///1 333 7////=
71460 46/// ///// 30038 51026 6///1 333 7////=
71461 16/// /2106 11040 21063 60001 333 11089 21156 70012=
71461 16/// /2106 11040 21063 60001 333 11089 21156 70012=
71465 46/// /2907 30045 53025 6///1 333 7////=
71465 46/// /2907 30045 53025 6///1 333 7////=
71472 16/// /0904 10054 20042 39984 40002 58013 60001 333 20053 70000=
71472 16/// /0904 10054 20042 39984 40002 58013 60001 333 20053 70000=
71473 16/// /0308 10063 20016 30088 40119 58027 60001 333 10066 20058 70000=
71473 16/// /0308 10063 20016 30088 40119 58027 60001 333 10066 20058 70000=
71474 16/// /1603 11054 21069 38906 40150 58014 60001 333 11044 21061 4/035 70000=
71474 16/// /1603 11054 21069 38906 40150 58014 60001 333 11044 21061 4/035 70000=
71475 17/// /2604 10026 20021 30028 40125 58024 69921 7//4/ 333 10046 20017 70022=
71475 17/// /2604 10026 20021 30028 40125 58024 69921 7//4/ 333 10046 20017 70022=
71477 46/// /0803 10055 30008 40018 58006 6///1 333 10083 20020 7////=
71477 46/// /0803 10055 30008 40018 58006 6///1 333 10083 20020 7////=
71478 16/// ///// 10091 20045 60001 333 20073 70000=
71478 16/// ///// 10091 20045 60001 333 20073 70000=
71479 17/// /1143 10086 39890 40003 58031 60021 7//4/ 333 20073 70114=
71479 17/// /1143 10086 39890 40003 58031 60021 7//4/ 333 20073 70114=
71481 16/// /2605 11112 21139 60001 333 11116 21192 70000=
71481 16/// /2605 11112 21139 60001 333 11116 21192 70000=
71482 17/// /0711 10054 20045 30012 40045 58017 60011 7//4/ 333 20044 70030=
71482 17/// /0711 10054 20045 30012 40045 58017 60011 7//4/ 333 20044 70030=
71483 16/// /2205 11136 21158 60001 333 11139 21200 70005=
71483 16/// /2205 11136 21158 60001 333 11139 21200 70005=
71484 17/// /1206 10066 20058 39996 40013 58010 60021 7//4/ 333 20064 70334=
71484 17/// /1206 10066 20058 39996 40013 58010 60021 7//4/ 333 20064 70334=
71486 16/// /1005 10014 21051 38937 40139 58002 60001 333 10022 21027 4/019 70002=
71486 16/// /1005 10014 21051 38937 40139 58002 60001 333 10022 21027 4/019 70002=
71487 16/// /1407 11176 21210 39283 40186 56029 60001 333 11166 21180 4/015 70000=
71487 16/// /1407 11176 21210 39283 40186 56029 60001 333 11166 21180 4/015 70000=
71488 16/// /2205 10030 21137 38594 40139 58005 60001 333 21010 4/018 70000=
71488 16/// /2205 10030 21137 38594 40139 58005 60001 333 21010 4/018 70000=
71490 16/// /2607 11355 21391 39859 40180 58020 60001 333 21364 70000=
71490 16/// /2607 11355 21391 39859 40180 58020 60001 333 21364 70000=
71492 46/// /0000 11343 21379 39412 40156 58005 6///1 333 21364 4/030 7////=
71492 46/// /0000 11343 21379 39412 40156 58005 6///1 333 21364 4/030 7////=
71496 16/// /1608 11185 21219 39526 40170 58034 60001 333 11195 21226 4/018 70000=
71496 16/// /1608 11185 21219 39526 40170 58034 60001 333 11195 21226 4/018 70000=
71498 16/// /2215 10008 21056 60001 333 11111 21140 70000=
71498 16/// /2215 10008 21056 60001 333 11111 21140 70000=
71499 17548 81710 11206 21234 39478 40142 57051 69981 7714/ 333 11235 21335 70006=
71499 17548 81710 11206 21234 39478 40142 57051 69981 7714/ 333 11235 21335 70006=
71502 46/// ///// 11385 21421 30110 40136 51003 6///1 333 21385 7////=
71502 46/// ///// 11385 21421 30110 40136 51003 6///1 333 21385 7////=
71503 16/// /3403 11344 21379 39845 40129 50001 60001 333 11295 21368 4/028 70000=
71503 16/// /3403 11344 21379 39845 40129 50001 60001 333 11295 21368 4/028 70000=
71505 16/// /0000 11141 21159 39301 40042 51009 60001 333 11084 21142 4/033 7////=
71505 16/// /0000 11141 21159 39301 40042 51009 60001 333 11084 21142 4/033 7////=
71507 16/// /0104 11129 21147 60001 333 11157 21217 70007=
71510 16/// /1202 11196 21223 39411 40155 58031 60001 333 11192 21212 70000=
71510 16/// /1202 11196 21223 39411 40155 58031 60001 333 11192 21212 70000=
71511 16/// /1616 11200 21230 39527 40202 56039 60001 333 11212 21256 4/015 70000=
71511 16/// /1616 11200 21230 39527 40202 56039 60001 333 11212 21256 4/015 70000=
71512 17/// /2211 11052 21060 39842 49856 56039 60021 7//4/ 333 11056 21070 70060=
71512 17/// /2211 11052 21060 39842 49856 56039 60021 7//4/ 333 11056 21070 70060=
71513 15466 82111 11031 21058 39864 49879 57049 60001 333 11063 21139 70000=
71513 15466 82111 11031 21058 39864 49879 57049 60001 333 11063 21139 70000=
71514 16/// /1317 11198 21237 39479 40218 58034 60001 333 11201 21235 4/011 70000=
71514 16/// /1317 11198 21237 39479 40218 58034 60001 333 11201 21235 4/011 70000=
71516 16/// /1708 11185 21208 39259 40209 58026 60001 333 11176 21197 4/020 70000=
71516 16/// /1708 11185 21208 39259 40209 58026 60001 333 11176 21197 4/020 70000=
71520 16/// ///// 11345 21379 39319 40018 53019 69921 333 11153 21345 70019=
71520 16/// ///// 11345 21379 39319 40018 53019 69921 333 11153 21345 70019=
71521 46/// ///// 11327 21366 6///1 333 11127 21327 7////=
71521 46/// ///// 11327 21366 6///1 333 11127 21327 7////=
71522 17/// ///// 39559 51029 69901 7//4/ 333 70023=
71522 17/// ///// 39559 51029 69901 7//4/ 333 70023=
71523 46/// ///// 11335 21381 39728 40125 53015 6///1 333 21335 7////=
71524 17/// /3212 11238 21325 30149 40176 53036 69921 7//4/ 333 11012 21238 4/029 70005=
71524 17/// /3212 11238 21325 30149 40176 53036 69921 7//4/ 333 11012 21238 4/029 70005=
71527 15966 02506 11335 21367 39814 40372 57002 60001 333 11184 21340 70000=
71527 15966 02506 11335 21367 39814 40372 57002 60001 333 11184 21340 70000=
71538 15966 03213 11130 21199 30046 40286 52026 60001 333 10006 21130 70000=
71538 15966 03213 11130 21199 30046 40286 52026 60001 333 10006 21130 70000=
71550 16/// /0402 11224 21267 39898 40304 56033 60001 333 11235 21261 4/018 70000=
71550 16/// /0402 11224 21267 39898 40304 56033 60001 333 11235 21261 4/018 70000=
71551 16/// /1512 11171 21200 39477 40163 58032 60001 333 11185 21203 4/017 70003=
71551 16/// /1512 11171 21200 39477 40163 58032 60001 333 11185 21203 4/017 70003=
71552 46/// /1304 11299 21335 30058 40358 56019 6///1 333 11235 21307 7////=
71552 46/// /1304 11299 21335 30058 40358 56019 6///1 333 11235 21307 7////=
71564 16/// /1607 11225 21272 39939 40336 56027 60001 333 11188 21274 4/014 70000=
71564 16/// /1607 11225 21272 39939 40336 56027 60001 333 11188 21274 4/014 70000=
71569 16/// /1418 11202 21225 39458 40209 58033 60001 333 11200 21227 4/022 70000=
71569 16/// /1418 11202 21225 39458 40209 58033 60001 333 11200 21227 4/022 70000=
71573 16/// /0106 11148 21185 39941 40238 53031 60001 333 10000 21148 4/005 70000=
71573 16/// /0106 11148 21185 39941 40238 53031 60001 333 10000 21148 4/005 70000=
71577 46/// /1706 11283 21320 30054 40352 58022 6///1 333 11225 21298 7////=
71577 46/// /1706 11283 21320 30054 40352 58022 6///1 333 11225 21298 7////=
71578 16/// /2810 11238 21305 60001 333 11017 21238 70032=
71578 16/// /2810 11238 21305 60001 333 11017 21238 70032=
71579 46/// /0901 11260 21304 30045 40356 58026 6///1 333 11197 21283 7////=
71579 46/// /0901 11260 21304 30045 40356 58026 6///1 333 11197 21283 7////=
71585 17/// /1206 11148 21169 39597 40067 57044 60021 7//4/ 333 11172 21192 4/019 70026=
71585 17/// /1206 11148 21169 39597 40067 57044 60021 7//4/ 333 11172 21192 4/019 70026=
71586 17/// /1711 11192 21226 39685 40175 58049 69971 7//4/ 333 11215 21255 4/030 70007=
71586 17/// /1711 11192 21226 39685 40175 58049 69971 7//4/ 333 11215 21255 4/030 70007=
71587 15966 02403 11352 21392 39940 40336 57006 60001 333 11275 21352 70000=
71587 15966 02403 11352 21392 39940 40336 57006 60001 333 11275 21352 70000=
71588 17/// /1511 11069 21090 39832 49977 56057 69971 7//4/ 333 11065 21083 4/018 70081=
71588 17/// /1511 11069 21090 39832 49977 56057 69971 7//4/ 333 11065 21083 4/018 70081=
71589 16/// /1903 11074 21080 39938 40073 56027 60031 333 11071 21117 70192=
71589 16/// /1903 11074 21080 39938 40073 56027 60031 333 11071 21117 70192=
71597 17956 03411 11332 21371 30068 40134 57002 60001 705// 333 11297 21332 79999=
71597 17956 03411 11332 21371 30068 40134 57002 60001 705// 333 11297 21332 79999=
71599 16/// /2506 11004 21012 39793 49950 56034 60001 333 11015 21044 4/003 70000=
71599 16/// /2506 11004 21012 39793 49950 56034 60001 333 11015 21044 4/003 70000=
71603 11666 82719 10029 21041 39910 49962 57029 69901 71686 8782/ 333 10026 20002 42001 70026 90931=
71603 11666 82719 10029 21041 39910 49962 57029 69901 71686 8782/ 333 10026 20002 42001 70026 90931=
71604 46/// ///// 11031 21032 6///1 333 11083 21112 4/084 7////=
71604 46/// ///// 11031 21032 6///1 333 11083 21112 4/084 7////=
71605 16/// /2501 10048 20013 39983 40143 56026 60001 333 10068 20032 70000=
71605 16/// /2501 10048 20013 39983 40143 56026 60001 333 10068 20032 70000=
71607 16/// /2916 11070 21146 39954 49989 53025 60001 333 10009 21070 4/019 70000=
71607 16/// /2916 11070 21146 39954 49989 53025 60001 333 10009 21070 4/019 70000=
71608 16/// /2101 10042 20024 30119 40124 58028 60001 333 10082 20037 70000=
71608 16/// /2101 10042 20024 30119 40124 58028 60001 333 10082 20037 70000=
71609 11874 52911 11030 21077 39816 49949 56017 60021 70272 85070 333 10012 21030 42009 70027 90922=
71609 11874 52911 11030 21077 39816 49949 56017 60021 70272 85070 333 10012 21030 42009 70027 90922=
71610 17/12 /3011 11221 21254 39809 40114 52027 69901 771// 333 11028 21221 79999=
71610 17/12 /3011 11221 21254 39809 40114 52027 69901 771// 333 11028 21221 79999=
71611 16/// /3115 11215 21260 39892 40122 51028 60001 333 11023 21215 4/035 70004=
71611 16/// /3115 11215 21260 39892 40122 51028 60001 333 11023 21215 4/035 70004=
71612 17/// /3504 11231 21318 30074 40167 53033 69921 7//4/ 333 11013 21233 4/079 70014=
71612 17/// /3504 11231 21318 30074 40167 53033 69921 7//4/ 333 11013 21233 4/079 70014=
71614 16/// /2911 11222 21293 30099 40168 53034 60001 333 10000 21222 4/032 70006=
71614 16/// /2911 11222 21293 30099 40168 53034 60001 333 10000 21222 4/032 70006=
71616 16/// /3212 11261 21332 30020 40142 53032 60001 333 11025 21261 70031=
71616 16/// /3212 11261 21332 30020 40142 53032 60001 333 11025 21261 70031=
71617 16/// /3117 11287 21319 39943 40109 51040 60001 333 11041 21289 70007=
71617 16/// /3117 11287 21319 39943 40109 51040 60001 333 11041 21289 70007=
71618 169// 02811 11337 21382 30198 40239 57016 60001 333 11319 21345 70000=
71618 169// 02811 11337 21382 30198 40239 57016 60001 333 11319 21345 70000=
71619 16/// /2820 11106 21150 39847 49906 55008 60001 333 11044 21106 4/034 70000=
71619 16/// /2820 11106 21150 39847 49906 55008 60001 333 11044 21106 4/034 70000=
71621 12974 03207 11206 21289 30110 40221 52030 60001 333 10012 21206 44019 79999=
71621 12974 03207 11206 21289 30110 40221 52030 60001 333 10012 21206 44019 79999=
71623 42/12 /0103 11146 21166 39891 40242 51025 6///1 333 10001 21146 7////=
71623 42/12 /0103 11146 21166 39891 40242 51025 6///1 333 10001 21146 7////=
71624 12074 03612 11182 21225 30013 40234 52032 60001 333 10017 21182 44014 70006=
71624 12074 03612 11182 21225 30013 40234 52032 60001 333 10017 21182 44014 70006=
71627 11574 03016 11234 21324 30130 40176 52036 60001 73600 81100 333 11008 21234 47041 70004=
71627 11574 03016 11234 21324 30130 40176 52036 60001 73600 81100 333 11008 21234 47041 70004=
71628 11574 13115 11260 21326 30062 40210 52033 69901 73600 81500 333 11010 21261 48065 70020=
71628 11574 13115 11260 21326 30062 40210 52033 69901 73600 81500 333 11010 21261 48065 70020=
71629 16/// /2614 11325 21366 30089 40102 58003 60001 333 21334 70000=
71629 16/// /2614 11325 21366 30089 40102 58003 60001 333 21334 70000=
71631 16/// /3513 11206 21238 39710 40234 52024 69921 333 11032 21206 4/017 70039=
71631 16/// /3513 11206 21238 39710 40234 52024 69921 333 11032 21206 4/017 70039=
71632 16/// /1503 11311 21350 39773 40250 58036 60001 333 11268 21370 4/040 70000=
71633 12574 13110 11213 21261 39980 40266 52031 60001 81500 333 11005 21213 44033 70012=
71633 12574 13110 11213 21261 39980 40266 52031 60001 81500 333 11005 21213 44033 70012=
71634 16/// /2910 11099 21152 39778 49924 53003 60001 333 11048 21099 4/077 70000=
71634 16/// /2910 11099 21152 39778 49924 53003 60001 333 11048 21099 4/077 70000=
71638 16/// /3301 10046 20021 30022 40130 58021 60001 333 10076 20029 4/997 70000=
71638 16/// /3301 10046 20021 30022 40130 58021 60001 333 10076 20029 4/997 70000=
71642 11074 02503 11334 21374 39688 40285 51009 69901 7017/ 333 48037 7//// 9098/=
71642 11074 02503 11334 21374 39688 40285 51009 69901 7017/ 333 48037 7//// 9098/=
71675 15966 02707 11350 21389 30005 40312 52004 60001 333 11264 21350 70000=
71675 15966 02707 11350 21389 30005 40312 52004 60001 333 11264 21350 70000=
71682 46/// ///// 11250 21282 39858 40100 51006 6///1 333 21279 4/044 7////=
71682 46/// ///// 11250 21282 39858 40100 51006 6///1 333 21279 4/044 7////=
71683 16/// ///// 11383 21421 30039 40161 51005 60001 333 21406 4/029 70002=
71683 16/// ///// 11383 21421 30039 40161 51005 60001 333 21406 4/029 70002=
71700 17548 82915 11066 21143 39938 49964 52015 60001 771// 333 11006 21066 70000=
71700 17548 82915 11066 21143 39938 49964 52015 60001 771// 333 11006 21066 70000=
71701 42/// ///// 11062 21081 39898 49960 53011 333 91011=
71702 17/// /1911 11020 21021 39906 49922 58039 69981 7//4/ 333 11027 21043 4/007 70008=
71702 17/// /1911 11020 21021 39906 49922 58039 69981 7//4/ 333 11027 21043 4/007 70008=
71705 11669 62312 11020 21039 39836 49923 57033 60041 72277 8855/ 333 11020 21044 47018 70041 90973 93104=
71705 11669 62312 11020 21039 39836 49923 57033 60041 72277 8855/ 333 11020 21044 47018 70041 90973 93104=
71706 11/12 /2609 11019 21027 39869 49932 57033 60011 77177 333 11025 21044 43001 70012 90973 93101=
71706 11/12 /2609 11019 21027 39869 49932 57033 60011 77177 333 11025 21044 43001 70012 90973 93101=
71707 11240 81912 10007 20002 39894 49971 58051 60021 77177 885// 333 11052 21095 43020 70026 90977 93102=
71707 11240 81912 10007 20002 39894 49971 58051 60021 77177 885// 333 11052 21095 43020 70026 90977 93102=
71709 11224 32114 11004 21009 39902 49915 56055 60031 771// 887// 333 47011 7//// 9098/ 93103=
71709 11224 32114 11004 21009 39902 49915 56055 60031 771// 887// 333 47011 7//// 9098/ 93103=
71710 17/// /2014 11004 21006 39903 49915 56056 60011 7//4/ 333 11025 21046 70010=
71710 17/// /2014 11004 21006 39903 49915 56056 60011 7//4/ 333 11025 21046 70010=
71712 16/// /3011 11231 21299 30123 40188 53041 60001 333 11003 21231 70002=
71712 16/// /3011 11231 21299 30123 40188 53041 60001 333 11003 21231 70002=
71713 17/// /3016 11230 21300 30035 40075 51051 69921 7//4/ 333 11024 21230 4/027 70002=
71713 17/// /3016 11230 21300 30035 40075 51051 69921 7//4/ 333 11024 21230 4/027 70002=
71714 16/// /2815 11259 21322 30029 40107 53041 60001 333 11022 21259 4/047 70035=
71714 16/// /2815 11259 21322 30029 40107 53041 60001 333 11022 21259 4/047 70035=
71715 16/// /3208 11256 21310 39872 40060 51042 60001 333 11039 21256 4/049 70008=
71715 16/// /3208 11256 21310 39872 40060 51042 60001 333 11039 21256 4/049 70008=
71717 15966 41515 11031 21078 38816 40137 57019 60001 333 11028 21045 70000=
71717 15966 41515 11031 21078 38816 40137 57019 60001 333 11028 21045 70000=
71718 11524 82925 11206 21244 39942 40009 53038 60021 77177 885// 333 11041 21209 70028 90973 93102=
71718 11524 82925 11206 21244 39942 40009 53038 60021 77177 885// 333 11041 21209 70028 90973 93102=
71719 16/// /2217 11044 21075 39883 49890 56034 60001 333 11034 21077 4/040 70011=
71719 16/// /2217 11044 21075 39883 49890 56034 60001 333 11034 21077 4/040 70011=
71720 16/// ///// 10051 20024 39982 40137 58014 60001 333 10058 20047 4/997 70004=
71720 16/// ///// 10051 20024 39982 40137 58014 60001 333 10058 20047 4/997 70004=
71721 16/// /3211 11301 21378 39955 40217 51030 60001 333 11032 21302 4/027 70009=
71721 16/// /3211 11301 21378 39955 40217 51030 60001 333 11032 21302 4/027 70009=
71723 16/// /3209 11242 21314 30146 40157 53031 60001 333 11021 21242 70008=
71723 16/// /3209 11242 21314 30146 40157 53031 60001 333 11021 21242 70008=
71724 46/// /3111 11248 21317 30150 40159 53034 6///1 333 11016 21248 7////=
71724 46/// /3111 11248 21317 30150 40159 53034 6///1 333 11016 21248 7////=
71725 16/// /3005 11348 21393 39776 40228 51014 60001 333 11066 21350 4/033 70024=
71725 16/// /3005 11348 21393 39776 40228 51014 60001 333 11066 21350 4/033 70024=
71726 16/// /2908 11347 21399 39588 40163 51019 60001 333 11071 21348 4/052 70036=
71726 16/// /2908 11347 21399 39588 40163 51019 60001 333 11071 21348 4/052 70036=
71727 11532 82925 11293 21335 39903 40113 53037 69921 78511 885// 333 11043 21298 48045 70040 90921=
71727 11532 82925 11293 21335 39903 40113 53037 69921 78511 885// 333 11043 21298 48045 70040 90921=
71728 11582 43018 11311 21392 39899 40131 51020 69901 73681 84500 333 11057 21311 42001 70024 90921=
71728 11582 43018 11311 21392 39899 40131 51020 69901 73681 84500 333 11057 21311 42001 70024 90921=
71730 12974 63005 11332 21385 39808 40268 52018 60001 80001 333 11042 48041 70010=
71730 12974 63005 11332 21385 39808 40268 52018 60001 80001 333 11042 48041 70010=
71731 15466 73407 11312 21358 39767 40252 52025 60001 333 11039 21314 70008=
71731 15466 73407 11312 21358 39767 40252 52025 60001 333 11039 21314 70008=
71733 16/// /3104 11325 21379 39809 40271 51017 60001 333 11043 21325 4/035 70000=
71733 16/// /3104 11325 21379 39809 40271 51017 60001 333 11043 21325 4/035 70000=
71734 16/// /2906 11340 21395 39818 40244 51010 60001 333 11080 21341 70039=
71734 16/// /2906 11340 21395 39818 40244 51010 60001 333 11080 21341 70039=
71736 17/// /2528 10032 21089 38766 40142 58011 60031 7//4/ 333 10047 20024 70091=
71736 17/// /2528 10032 21089 38766 40142 58011 60031 7//4/ 333 10047 20024 70091=
71738 12974 51402 11352 21382 39932 40320 52013 60001 80008 333 47049 7////=
71738 12974 51402 11352 21382 39932 40320 52013 60001 80008 333 47049 7////=
71739 11540 82704 11331 21367 39872 40268 52008 60001 77177 885// 333 11144 21331 70000 90962=
71739 11540 82704 11331 21367 39872 40268 52008 60001 77177 885// 333 11144 21331 70000 90962=
71747 16/// /2601 11351 21384 39858 40382 51007 60001 333 11144 21351 4/042 70000=
71747 16/// /2601 11351 21384 39858 40382 51007 60001 333 11144 21351 4/042 70000=
71748 16/// /1605 11283 21317 30040 40354 58021 60001 333 11230 21335 4/006 70000=
71748 16/// /1605 11283 21317 30040 40354 58021 60001 333 11230 21335 4/006 70000=
71750 16/// /3605 11284 21334 30070 40329 52010 60001 333 11119 21285 4/057 70000=
71750 16/// /3605 11284 21334 30070 40329 52010 60001 333 11119 21285 4/057 70000=
71751 46/// /3118 11279 21323 30074 40362 52011 6///1 333 11119 21279 7////=
71751 46/// /3118 11279 21323 30074 40362 52011 6///1 333 11119 21279 7////=
71768 16/// /2705 11035 21064 39677 40225 56010 60001 333 10011 21035 4/997 70000=
71768 16/// /2705 11035 21064 39677 40225 56010 60001 333 10011 21035 4/997 70000=
71769 16/// /0811 10080 30104 40122 58018 60001 333 10074 20064 70000=
71769 16/// /0811 10080 30104 40122 58018 60001 333 10074 20064 70000=
71770 16/// /1003 11034 21058 39461 40245 58014 60001 333 10007 21043 4/001 70000=
71770 16/// /1003 11034 21058 39461 40245 58014 60001 333 10007 21043 4/001 70000=
71772 16/// /1602 10070 20014 30117 40129 58023 60001 333 10068 20059 70000=
71772 16/// /1602 10070 20014 30117 40129 58023 60001 333 10068 20059 70000=
71774 16/// ///// 10052 21015 39670 40108 58028 60001 333 10053 20022 70010=
71774 16/// ///// 10052 21015 39670 40108 58028 60001 333 10053 20022 70010=
71775 16/// /0303 10063 20003 30124 40132 56030 60001 333 10068 20024 70005=
71775 16/// /0303 10063 20003 30124 40132 56030 60001 333 10068 20024 70005=
71776 46/// /1103 11011 21026 39588 40242 58011 6///1 333 10015 21034 4/001 7////=
71776 46/// /1103 11011 21026 39588 40242 58011 6///1 333 10015 21034 4/001 7////=
71777 16/// ///// 11021 21023 39916 40173 58017 60001 333 10013 21039 4/022 70000=
71777 16/// ///// 11021 21023 39916 40173 58017 60001 333 10013 21039 4/022 70000=
71778 46/// /0217 30072 58029 6///1 333 7////=
71778 46/// /0217 30072 58029 6///1 333 7////=
71780 16/// /1218 10071 20047 30071 40102 58033 60001 333 10079 20060 70000=
71780 16/// /1218 10071 20047 30071 40102 58033 60001 333 10079 20060 70000=
71781 46/// /1018 10083 20008 30094 40123 56013 6///1 333 10078 20061 7////=
71781 46/// /1018 10083 20008 30094 40123 56013 6///1 333 10078 20061 7////=
71782 16/// /1209 10013 21088 38863 40195 56006 60001 333 10020 21007 4/016 70000=
71782 16/// /1209 10013 21088 38863 40195 56006 60001 333 10020 21007 4/016 70000=
71783 16/// /3507 10063 20001 30041 40115 58032 60001 333 10072 20050 70000=
71783 16/// /3507 10063 20001 30041 40115 58032 60001 333 10072 20050 70000=
71784 16/// /3301 10054 20013 39919 40127 58025 60001 333 10086 20053 70000=
71784 16/// /3301 10054 20013 39919 40127 58025 60001 333 10086 20053 70000=
71785 16/// /0602 10053 21004 30112 40128 58029 60001 333 10070 20043 70000=
71785 16/// /0602 10053 21004 30112 40128 58029 60001 333 10070 20043 70000=
71786 16/// /2721 11083 21096 38351 40200 56005 60001 333 11043 21089 4/076 70000=
71786 16/// /2721 11083 21096 38351 40200 56005 60001 333 11043 21089 4/076 70000=
71798 25/// /0204 10067 20011 30108 40114 58030 333 60005 91004 90710 91106=
71799 12980 82807 10038 20018 30099 40123 58029 60001 8801/ 333 10067 20017 70000=
71799 12980 82807 10038 20018 30099 40123 58029 60001 8801/ 333 10067 20017 70000=
71800 16/// /1915 10004 21032 30074 40108 58022 60001 333 11016 21051 70000=
71800 16/// /1915 10004 21032 30074 40108 58022 60001 333 11016 21051 70000=
71801 11574 72114 11044 21065 39934 40111 57020 69901 70282 83879 333 11068 21101 48010 70012 90956=
71801 11574 72114 11044 21065 39934 40111 57020 69901 70282 83879 333 11068 21101 48010 70012 90956=
71803 11374 71110 11098 21106 39881 40073 51024 69901 70282 8657/ 333 11076 21124 48012 79999 90921=
71803 11374 71110 11098 21106 39881 40073 51024 69901 70282 8657/ 333 11076 21124 48012 79999 90921=
71805 04465 81725 10010 21019 30036 40045 58050 69901 700// 333 4//// 69907 90710 91135 555 69905=
71805 04465 81725 10010 21019 30036 40045 58050 69901 700// 333 4//// 69907 90710 91135 555 69905=
71807 16/// /1209 11016 21043 30073 40086 58026 60001 333 11019 21054 70008=
71807 16/// /1209 11016 21043 30073 40086 58026 60001 333 11019 21054 70008=
71808 11874 80917 11096 21117 39957 40005 57039 69901 77172 8805/ 333 11136 21183 48022 79999 90915=
71808 11874 80917 11096 21117 39957 40005 57039 69901 77172 8805/ 333 11136 21183 48022 79999 90915=
71809 11566 80206 11092 21092 39974 40002 57059 60011 77177 885// 333 11099 21190 47049 70040 90973 93101=
71809 11566 80206 11092 21092 39974 40002 57059 60011 77177 885// 333 11099 21190 47049 70040 90973 93101=
71810 16/// /2424 11078 21092 39802 49870 55025 69941 333 11051 21083 4/037 70033=
71810 16/// /2424 11078 21092 39802 49870 55025 69941 333 11051 21083 4/037 70033=
71813 17/// /2011 11029 21056 39864 49877 56050 69991 7//4/ 333 11062 21134 4/001 70014=
71813 17/// /2011 11029 21056 39864 49877 56050 69991 7//4/ 333 11062 21134 4/001 70014=
71814 17/// /1518 11037 21045 39917 49927 57064 60031 7//4/ 333 11136 21164 4/009 70032=
71814 17/// /1518 11037 21045 39917 49927 57064 60031 7//4/ 333 11136 21164 4/009 70032=
71815 11469 81214 11026 21047 39935 49966 58068 69921 76172 885// 333 11044 21060 48018 70046 90910=
71815 11469 81214 11026 21047 39935 49966 58068 69921 76172 885// 333 11044 21060 48018 70046 90910=
71816 11320 81103 11272 21326 39917 49982 58043 69921 77122 885// 333 11252 21313 48043 70002 90931=
71816 11320 81103 11272 21326 39917 49982 58043 69921 77122 885// 333 11252 21313 48043 70002 90931=
71818 15166 71202 11258 21286 30019 40036 57027 60001 333 11213 21266 79999=
71818 15166 71202 11258 21286 30019 40036 57027 60001 333 11213 21266 79999=
71819 15866 81211 11095 21110 39982 40025 57029 60001 333 11172 21228 70000=
71819 15866 81211 11095 21110 39982 40025 57029 60001 333 11172 21228 70000=
71820 16/// /3511 11214 21276 30094 40239 53030 60001 333 10011 21214 4/018 70000=
71820 16/// /3511 11214 21276 30094 40239 53030 60001 333 10011 21214 4/018 70000=
71821 16/// /2808 11365 21406 39839 40219 53005 60001 333 11160 21367 4/066 70009=
71821 16/// /2808 11365 21406 39839 40219 53005 60001 333 11160 21367 4/066 70009=
71823 16/// /2707 11354 21392 39687 40091 53009 69921 333 11228 21355 4/045 70002=
71823 16/// /2707 11354 21392 39687 40091 53009 69921 333 11228 21355 4/045 70002=
71825 17528 83210 11201 21232 39170 49860 57023 69981 7714/ 333 11185 21293 70010=
71825 17528 83210 11201 21232 39170 49860 57023 69981 7714/ 333 11185 21293 70010=
71827 11766 82706 11374 21409 39896 40163 53014 69901 77677 82501 333 11245 21376 48047 70012 90973=
71827 11766 82706 11374 21409 39896 40163 53014 69901 77677 82501 333 11245 21376 48047 70012 90973=
71829 17/// /2917 11241 21296 39801 49968 51044 60011 7//4/ 333 11050 21241 70054=
71831 11469 02809 11329 21373 39965 40272 52005 69901 77671 81500 333 11186 21334 48065 70006 90927=
71831 11469 02809 11329 21373 39965 40272 52005 69901 77671 81500 333 11186 21334 48065 70006 90927=
71832 16/// /2805 11323 21360 39931 40289 51007 60001 333 11193 21324 4/053 70000=
71832 16/// /2805 11323 21360 39931 40289 51007 60001 333 11193 21324 4/053 70000=
71834 15966 02807 11314 21350 39852 40321 52013 60001 333 11187 21317 70000=
71834 15966 02807 11314 21350 39852 40321 52013 60001 333 11187 21317 70000=
71840 16/// /1509 11224 21268 39885 40338 56031 60001 333 11206 21268 4/019 70000=
71840 16/// /1509 11224 21268 39885 40338 56031 60001 333 11206 21268 4/019 70000=
71841 16/// /3007 11324 21360 39900 40339 51012 60001 333 21326 4/020 70000=
71842 12074 02703 11331 21361 39853 40372 51003 60001 333 11177 21344 79999=
71842 12074 02703 11331 21361 39853 40372 51003 60001 333 11177 21344 79999=
71845 15966 02809 11342 21375 39817 40340 52008 60001 333 11200 21342 70000=
71845 15966 02809 11342 21375 39817 40340 52008 60001 333 11200 21342 70000=
71846 16/// /2607 11328 21362 39962 40307 51012 60001 333 11216 21330 4/047 70000=
71846 16/// /2607 11328 21362 39962 40307 51012 60001 333 11216 21330 4/047 70000=
71850 12974 11903 11330 21363 39820 40371 58012 60001 80001 333 11178 21341 48032 79999=
71850 12974 11903 11330 21363 39820 40371 58012 60001 80001 333 11178 21341 48032 79999=
71851 16/// /1306 11225 21277 39977 40340 56027 60001 333 11218 21273 4/017 70000=
71851 16/// /1306 11225 21277 39977 40340 56027 60001 333 11218 21273 4/017 70000=
71854 12074 02303 11347 21381 39837 40359 56009 60001 333 48034 7////=
71854 12074 02303 11347 21381 39837 40359 56009 60001 333 48034 7////=
71855 16/// /2301 11348 21380 39787 40372 57007 60001 333 21349 4/028 70000=
71855 16/// /2301 11348 21380 39787 40372 57007 60001 333 21349 4/028 70000=
71856 16/// /0702 11113 21125 39787 40056 58050 60001 333 11055 21147 4/044 70000=
71856 16/// /0702 11113 21125 39787 40056 58050 60001 333 11055 21147 4/044 70000=
71857 16/// ///// 11216 21241 60001 333 11208 21221 70000=
71857 16/// ///// 11216 21241 60001 333 11208 21221 70000=
71861 16/// /1515 11189 21235 39477 40248 56036 60001 333 11197 21260 4/014 70000=
71861 16/// /1515 11189 21235 39477 40248 56036 60001 333 11197 21260 4/014 70000=
71862 15966 01314 11178 21209 39503 40245 57035 60001 333 11196 21239 70000=
71862 15966 01314 11178 21209 39503 40245 57035 60001 333 11196 21239 70000=
71865 16/// /1513 11189 21235 39488 40206 57047 60001 333 11202 21254 4/007 70000=
71865 16/// /1513 11189 21235 39488 40206 57047 60001 333 11202 21254 4/007 70000=
71867 15766 81312 11239 21283 39901 40261 57049 60001 333 11243 21293 70000=
71867 15766 81312 11239 21283 39901 40261 57049 60001 333 11243 21293 70000=
71868 16/// /0605 11226 21268 39771 40235 57051 60001 333 11239 21295 4/041 70000=
71868 16/// /0605 11226 21268 39771 40235 57051 60001 333 11239 21295 4/041 70000=
71869 11574 81813 11178 21228 39644 40198 56038 60001 72272 8857/ 333 11219 21259 48038 79999 90931=
71869 11574 81813 11178 21228 39644 40198 56038 60001 72272 8857/ 333 11219 21259 48038 79999 90931=
71871 15966 71404 11205 21230 39303 40147 57022 60001 333 11196 21220 70000=
71871 15966 71404 11205 21230 39303 40147 57022 60001 333 11196 21220 70000=
71872 16/// /1102 11371 21411 39993 40094 51003 60001 333 11346 21376 4/015 70000=
71872 16/// /1102 11371 21411 39993 40094 51003 60001 333 11346 21376 4/015 70000=
71874 16/// /0000 11358 21399 30151 40161 56016 69931 333 21368 4/008 70028=
71874 16/// /0000 11358 21399 30151 40161 56016 69931 333 21368 4/008 70028=
71876 15966 01112 11213 21240 39467 40167 57034 60001 333 11217 21230 70000=
71876 15966 01112 11213 21240 39467 40167 57034 60001 333 11217 21230 70000=
71877 12974 42909 10050 21116 38828 40123 56011 60001 82075 333 10043 21069 48008 79999=
71877 12974 42909 10050 21116 38828 40123 56011 60001 82075 333 10043 21069 48008 79999=
71878 15966 22009 11090 21136 39030 40131 57010 60001 333 11132 21149 70000=
71878 15966 22009 11090 21136 39030 40131 57010 60001 333 11132 21149 70000=
71880 12982 43302 11099 21115 39106 40244 58007 60001 84070 333 11031 21120 48032 70000=
71880 12982 43302 11099 21115 39106 40244 58007 60001 84070 333 11031 21120 48032 70000=
71882 16/// /2604 11026 21041 39692 40241 58010 60001 333 11008 21028 4/078 70024=
71882 16/// /2604 11026 21041 39692 40241 58010 60001 333 11008 21028 4/078 70024=
71883 16/// /1601 11055 21061 39364 40193 58018 60001 333 11014 21056 4/072 70019=
71883 16/// /1601 11055 21061 39364 40193 58018 60001 333 11014 21056 4/072 70019=
71884 16/// /2616 10031 21040 39915 49961 56028 60001 333 10028 20003 70021=
71884 16/// /2616 10031 21040 39915 49961 56028 60001 333 10028 20003 70021=
71886 16/// /1615 11206 21249 39607 40255 56040 60001 333 11227 21279 4/031 70000=
71886 16/// /1615 11206 21249 39607 40255 56040 60001 333 11227 21279 4/031 70000=
71887 12986 71016 11010 21040 39762 40189 57016 60001 83071 333 10009 21012 47004 70000=
71887 12986 71016 11010 21040 39762 40189 57016 60001 83071 333 10009 21012 47004 70000=
71888 16/// ///// 11167 21187 60001 333 11170 21186 70000=
71888 16/// ///// 11167 21187 60001 333 11170 21186 70000=
71889 12974 63602 11044 21070 39797 40224 57011 60001 83071 333 10020 21045 70000=
71889 12974 63602 11044 21070 39797 40224 57011 60001 83071 333 10020 21045 70000=
71890 17/// /2819 11243 21311 39967 49995 51049 69921 7//4/ 333 11041 21244 4/033 70004=
71890 17/// /2819 11243 21311 39967 49995 51049 69921 7//4/ 333 11041 21244 4/033 70004=
71892 12974 83601 10040 20033 30123 40128 57026 60001 8807/ 333 10080 20035 70000=
71892 12974 83601 10040 20033 30123 40128 57026 60001 8807/ 333 10080 20035 70000=
71893 11774 81606 10074 20024 30097 40129 57014 69901 78082 885// 333 10072 20064 79999 90940=
71893 11774 81606 10074 20024 30097 40129 57014 69901 78082 885// 333 10072 20064 79999 90940=
71896 15766 81910 10018 21023 39265 40092 57003 60001 333 10018 20007 70000=
71896 15766 81910 10018 21023 39265 40092 57003 60001 333 10018 20007 70000=
71900 46/// ///// 11301 21331 30013 40027 56023 6///1 333 11263 21313 7////=
71900 46/// ///// 11301 21331 30013 40027 56023 6///1 333 11263 21313 7////=
71902 12974 83009 11286 21328 30037 40046 56010 60001 8801/ 333 44019 7////=
71902 12974 83009 11286 21328 30037 40046 56010 60001 8801/ 333 44019 7////=
71904 16/// ///// 11095 21143 60001 333 11129 21146 70000=
71904 16/// ///// 11095 21143 60001 333 11129 21146 70000=
71905 16/// /1603 11102 21115 39290 40261 58003 60001 333 11026 21128 4/031 70002=
71905 16/// /1603 11102 21115 39290 40261 58003 60001 333 11026 21128 4/031 70002=
71906 11908 23601 11415 21456 30014 40069 53007 69901 74277 82001 333 11296 21428 47031 79999 90973=
71906 11908 23601 11415 21456 30014 40069 53007 69901 74277 82001 333 11296 21428 47031 79999 90973=
71907 16/// /3508 11375 21410 30115 40150 53022 60001 333 11305 21387 4/033 70002=
71907 16/// /3508 11375 21410 30115 40150 53022 60001 333 11305 21387 4/033 70002=
71911 465// 70104 11361 21416 30055 40115 52003 6///1 333 7////=
71911 465// 70104 11361 21416 30055 40115 52003 6///1 333 7////=
71915 11574 10000 11396 21433 30023 40110 57012 69901 77677 81500 333 21416 48040 79999 90973=
71915 11574 10000 11396 21433 30023 40110 57012 69901 77677 81500 333 21416 48040 79999 90973=
71917 11974 40605 11411 21457 39992 40112 51001 69901 77677 84030 333 44013 79999 90983=
71917 11974 40605 11411 21457 39992 40112 51001 69901 77677 84030 333 44013 79999 90983=
71920 17/// /2524 10043 21007 39961 49967 56036 69931 7//4/ 333 10045 20023 70005=
71920 17/// /2524 10043 21007 39961 49967 56036 69931 7//4/ 333 10045 20023 70005=
71922 11/48 /1612 11193 21227 39690 40182 57049 60011 77171 333 11217 21255 47034 70010 90931=
71922 11/48 /1612 11193 21227 39690 40182 57049 60011 77171 333 11217 21255 47034 70010 90931=
71923 16/// /1603 11345 21380 39737 40215 58031 60001 333 21355 4/003 70000=
71923 16/// /1603 11345 21380 39737 40215 58031 60001 333 21355 4/003 70000=
71924 11080 02906 11386 21424 30001 40097 50005 69901 77677 333 11345 21386 79999 90973=
71924 11080 02906 11386 21424 30001 40097 50005 69901 77677 333 11345 21386 79999 90973=
71925 12474 12711 11365 21403 30109 40153 57015 60001 8163/ 333 11342 21371 70000=
71925 12474 12711 11365 21403 30109 40153 57015 60001 8163/ 333 11342 21371 70000=
71928 16/// /2001 11110 21136 38933 40105 58007 60001 333 11117 21147 4/024 70000=
71928 16/// /2001 11110 21136 38933 40105 58007 60001 333 11117 21147 4/024 70000=
71931 46/// /1814 11035 21049 30054 40076 58029 6///1 333 11076 21102 7////=
71931 46/// /1814 11035 21049 30054 40076 58029 6///1 333 11076 21102 7////=
71932 16/// /3308 11220 21261 39812 40221 53026 60001 333 11002 21220 4/015 70004=
71932 16/// /3308 11220 21261 39812 40221 53026 60001 333 11002 21220 4/015 70004=
71933 16/// /0601 10014 21027 39251 40062 58003 60001 333 10016 20006 4/029 70003=
71933 16/// /0601 10014 21027 39251 40062 58003 60001 333 10016 20006 4/029 70003=
71934 11540 80903 11202 21233 39804 40073 56026 69931 77177 885// 333 11209 21253 47051 70003 90973 93101=
71934 11540 80903 11202 21233 39804 40073 56026 69931 77177 885// 333 11209 21253 47051 70003 90973 93101=
71935 11632 81903 11200 21235 39858 40075 57007 69901 77172 8553/ 333 11204 21231 47028 79999 90962=
71935 11632 81903 11200 21235 39858 40075 57007 69901 77172 8553/ 333 11204 21231 47028 79999 90962=
71936 11562 80507 11249 21281 39823 40098 57014 69901 77111 8553/ 333 11276 21292 47054 79999 90952=
71936 11562 80507 11249 21281 39823 40098 57014 69901 77111 8553/ 333 11276 21292 47054 79999 90952=
71938 12074 02209 11397 21435 30133 40165 57009 60001 333 11329 21398 44034 70000=
71938 12074 02209 11397 21435 30133 40165 57009 60001 333 11329 21398 44034 70000=
71940 12982 62305 11095 21123 39252 40075 58002 60001 82031 333 11112 21134 47030 79999=
71940 12982 62305 11095 21123 39252 40075 58002 60001 82031 333 11112 21134 47030 79999=
71943 11974 72110 11071 21082 39201 40051 53003 69901 72272 85071 333 11118 21140 47022 79999 90911=
71943 11974 72110 11071 21082 39201 40051 53003 69901 72272 85071 333 11118 21140 47022 79999 90911=
71944 17/// /1307 10001 21005 39244 40079 50000 60021 7//4/ 333 10003 21012 4/081 70167=
71944 17/// /1307 10001 21005 39244 40079 50000 60021 7//4/ 333 10003 21012 4/081 70167=
71945 11874 71503 11214 21244 39589 40080 51003 69901 70272 87070 333 11219 21227 47055 79999 90952=
71945 11874 71503 11214 21244 39589 40080 51003 69901 70272 87070 333 11219 21227 47055 79999 90952=
71946 11974 33002 11292 21325 39876 40103 50006 69901 70171 333 21295 47055 7//// 90930=
71946 11974 33002 11292 21325 39876 40103 50006 69901 70171 333 21295 47055 7//// 90930=
71948 469// 00701 11302 21330 30043 40163 57004 6///1 333 7////=
71948 469// 00701 11302 21330 30043 40163 57004 6///1 333 7////=
71949 46/// /1003 11162 21184 39169 40062 51008 6///1 333 11152 21165 7////=
71949 46/// /1003 11162 21184 39169 40062 51008 6///1 333 11152 21165 7////=
71950 17520 81803 11001 21001 39419 40046 52002 69951 7614/ 333 10013 21003 70023=
71950 17520 81803 11001 21001 39419 40046 52002 69951 7614/ 333 10013 21003 70023=
71951 11148 81304 10004 21001 39787 40053 55003 60021 76166 885// 333 10020 20004 43002 70283 90973=
71951 11148 81304 10004 21001 39787 40053 55003 60021 76166 885// 333 10020 20004 43002 70283 90973=
71952 16/// /0802 11007 21021 39209 40058 58001 60001 333 10004 21024 4/052 79999=
71952 16/// /0802 11007 21021 39209 40058 58001 60001 333 10004 21024 4/052 79999=
71954 16/// /1607 11233 21280 39851 40256 58045 60001 333 11238 21328 4/044 70000=
71954 16/// /1607 11233 21280 39851 40256 58045 60001 333 11238 21328 4/044 70000=
71956 16/// /3508 11265 21330 30036 40294 51023 60001 333 11024 21265 70000=
71956 16/// /3508 11265 21330 30036 40294 51023 60001 333 11024 21265 70000=
71963 16/// /1805 11327 21360 39739 40169 58035 60001 333 21368 4/005 70000=
71963 16/// /1805 11327 21360 39739 40169 58035 60001 333 21368 4/005 70000=
71964 42348 81504 11147 21173 39171 40044 51008 6///1 333 11113 21152 7////=
71964 42348 81504 11147 21173 39171 40044 51008 6///1 333 11113 21152 7////=
71965 12674 83601 11257 21288 39438 40086 52006 60001 333 11182 21277 79999=
71965 12674 83601 11257 21288 39438 40086 52006 60001 333 11182 21277 79999=
71966 16/// /0000 11164 21192 39595 40074 51008 60001 333 11155 21192 4/057 70002=
71966 16/// /0000 11164 21192 39595 40074 51008 60001 333 11155 21192 4/057 70002=
71967 16/// /3111 11240 21301 30045 40145 53032 60001 333 11022 21241 4/030 70005=
71967 16/// /3111 11240 21301 30045 40145 53032 60001 333 11022 21241 4/030 70005=
71968 454// 83006 11370 21422 30089 40159 52006 6///1 333 7////=
71968 454// 83006 11370 21422 30089 40159 52006 6///1 333 7////=
71978 16/// /0000 11395 21436 39815 40155 52007 60001 333 21407 4/036 70000=
71978 16/// /0000 11395 21436 39815 40155 52007 60001 333 21407 4/036 70000=
71979 16/// /2801 11038 21063 38416 40067 51003 60001 333 10024 21039 4/048 70000=
71979 16/// /2801 11038 21063 38416 40067 51003 60001 333 10024 21039 4/048 70000=
71980 46/// ///// 11301 21332 6///1 333 21307 4/037 7////=
71980 46/// ///// 11301 21332 6///1 333 21307 4/037 7////=
71981 16/// ///// 10051 21134 60001 333 10047 21005 70000=
71981 16/// ///// 10051 21134 60001 333 10047 21005 70000=
71982 16/// /2607 11065 21123 60001 333 10055 21091 70000=
71982 16/// /2607 11065 21123 60001 333 10055 21091 70000=
71984 16/// /0000 11352 21389 30162 40173 58001 60001 333 11279 21366 70000=
71984 16/// /0000 11352 21389 30162 40173 58001 60001 333 11279 21366 70000=
71985 16/// /0601 11400 21436 30163 40168 51004 60001 333 11355 21400 4/018 70000=
71985 16/// /0601 11400 21436 30163 40168 51004 60001 333 11355 21400 4/018 70000=
71986 16/// /1706 11080 21105 60001 333 11111 21128 70000=
71986 16/// /1706 11080 21105 60001 333 11111 21128 70000=
71988 16/// /2730 10019 21043 39933 49951 56023 60001 333 10028 20007 4/002 70000=
71988 16/// /2730 10019 21043 39933 49951 56023 60001 333 10028 20007 4/002 70000=
72201 32766 81503 10239 20211 30190 40194 53006 91153 333 10272 20222 555 90312=
72201 32766 81503 10239 20211 30190 40194 53006 91153 333 10272 20222 555 90312=
72202 32566 22403 10217 20200 30183 40194 53010 91153 333 10289 20206 555 90312=
72202 32566 22403 10217 20200 30183 40194 53010 91153 333 10289 20206 555 90312=
72203 31659 20000 10189 20183 30189 40195 53013 710// 91153 333 10289 20183 555 90312=
72203 31659 20000 10189 20183 30189 40195 53013 710// 91153 333 10289 20183 555 90312=
72205 32462 22105 10189 20183 30144 40177 53002 91153 333 10294 20189 555 90312=
72205 32462 22105 10189 20183 30144 40177 53002 91153 333 10294 20189 555 90312=
72206 11266 83409 10133 20128 30167 40177 53027 60011 761// 91156 333 10283 20133 70013 555 90312=
72206 11266 83409 10133 20128 30167 40177 53027 60011 761// 91156 333 10283 20133 70013 555 90312=
72207 12366 83306 10100 20089 30169 40185 51017 60011 91153 333 10228 20100 70015 555 90312=
72207 12366 83306 10100 20089 30169 40185 51017 60011 91153 333 10228 20100 70015 555 90312=
72208 11258 83308 10094 20078 30167 40182 53017 60021 761// 91156 333 10133 20089 70152 96010 555 90312=
72208 11258 83308 10094 20078 30167 40182 53017 60021 761// 91156 333 10133 20089 70152 96010 555 90312=
72211 31259 82007 10217 20211 30169 40182 53003 710// 91153 333 10267 20200 555 90312=
72211 31259 82007 10217 20211 30169 40182 53003 710// 91153 333 10267 20200 555 90312=
72214 12464 83511 10117 20100 30183 40203 53036 60061 91153 333 10233 20117 70086 555 90312=
72214 12464 83511 10117 20100 30183 40203 53036 60061 91153 333 10233 20117 70086 555 90312=
72217 17866 83104 10072 20061 30075 40205 51015 60051 761// 91153 333 10144 20072 70137 555 90312=
72217 17866 83104 10072 20061 30075 40205 51015 60051 761// 91153 333 10144 20072 70137 555 90312=
72218 11466 83007 10089 20078 30140 40192 53012 60051 761// 91153 333 10139 20089 70165 555 90312=
72218 11466 83007 10089 20078 30140 40192 53012 60051 761// 91153 333 10139 20089 70165 555 90312=
72219 12866 63211 10044 21011 39838 40217 53015 60021 91152 333 10106 20044 70206 555 90312=
72219 12866 63211 10044 21011 39838 40217 53015 60021 91152 333 10106 20044 70206 555 90312=
72220 15366 60218 10128 20122 30186 40191 51018 60041 91153 333 70038 555 90312=
72220 15366 60218 10128 20122 30186 40191 51018 60041 91153 333 70038 555 90312=
72223 11458 83511 10089 20061 30162 40244 53017 69931 705// 91156 333 10139 20089 70018 555 90312=
72223 11458 83511 10089 20061 30162 40244 53017 69931 705// 91156 333 10139 20089 70018 555 90312=
72226 12966 03408 10072 20039 30171 40247 60041 91153 333 10122 20072 70264 555 90312=
72226 12966 03408 10072 20039 30171 40247 60041 91153 333 10122 20072 70264 555 90312=
72231 12466 83610 10100 20078 30254 40262 51023 69951 91153 333 10172 20094 70030 555 90312=
72231 12466 83610 10100 20078 30254 40262 51023 69951 91153 333 10172 20094 70030 555 90312=
72234 12966 03609 10022 21006 30170 40279 51035 69951 91158 333 10078 20022 70320 555 90312=
72234 12966 03609 10022 21006 30170 40279 51035 69951 91158 333 10078 20022 70320 555 90312=
72235 17932 03408 10011 21006 30180 40290 53020 69901 710// 91154 333 10067 20011 70366 555 90312=
72235 17932 03408 10011 21006 30180 40290 53020 69901 710// 91154 333 10067 20011 70366 555 90312=
72240 35766 40112 10039 20011 30290 40301 53019 91153 333 10061 20039 70066 555 90312=
72240 35766 40112 10039 20011 30290 40301 53019 91153 333 10061 20039 70066 555 90312=
72241 32966 03515 10044 20011 30288 40295 53018 91153 333 10067 20044 70041 91021 555 90312=
72241 32966 03515 10044 20011 30288 40295 53018 91153 333 10067 20044 70041 91021 555 90312=
72243 32261 83610 10039 20033 30267 40311 53017 91153 333 10050 20039 70066 555 90312=
72243 32261 83610 10039 20033 30267 40311 53017 91153 333 10050 20039 70066 555 90312=
72248 32766 83005 10040 20030 30217 91156 555 90312=
72248 32766 83005 10040 20030 30217 91156 555 90312=
72250 32366 83113 10056 20044 30312 40316 53015 91153 333 10106 20050 555 90312=
72250 32366 83113 10056 20044 30312 40316 53015 91153 333 10106 20050 555 90312=
72251 32466 80114 10067 20039 30298 40319 53013 91151 333 10089 20050 70003 555 90312=
72251 32466 80114 10067 20039 30298 40319 53013 91151 333 10089 20050 70003 555 90312=
72253 32966 03404 10006 21006 30032 40320 53012 91151 333 10072 20006 555 90312=
72253 32966 03404 10006 21006 30032 40320 53012 91151 333 10072 20006 555 90312=
72255 35366 83210 10044 20033 30280 40317 53009 91151 333 10056 20044 70003 555 90312=
72255 35366 83210 10044 20033 30280 40317 53009 91151 333 10056 20044 70003 555 90312=
72256 32562 83206 10006 20006 30148 40333 53013 91151 333 10017 21028 70051 555 90312=
72256 32562 83206 10006 20006 30148 40333 53013 91151 333 10017 21028 70051 555 90312=
72259 32962 03509 10000 21022 30114 40328 53017 91153 333 10017 21011 70064 555 90312=
72259 32962 03509 10000 21022 30114 40328 53017 91153 333 10017 21011 70064 555 90312=
72261 37956 03207 10033 20011 39955 40337 53007 710// 91153 333 10133 20017 555 90312=
72261 37956 03207 10033 20011 39955 40337 53007 710// 91153 333 10133 20017 555 90312=
72263 37959 0//// 11006 21022 39642 40343 53008 710// 91151 333 10061 21022 70003 555 90312=
72263 37959 0//// 11006 21022 39642 40343 53008 710// 91151 333 10061 21022 70003 555 90312=
72265 32962 03106 11039 21044 39308 40327 53002 91153 333 10128 21039 555 90312=
72265 32962 03106 11039 21044 39308 40327 53002 91153 333 10128 21039 555 90312=
72266 31956 00000 11022 21033 39683 40342 53007 710// 91152 333 10050 21039 70008 555 90312=
72266 31956 00000 11022 21033 39683 40342 53007 710// 91152 333 10050 21039 70008 555 90312=
72267 32966 00205 11050 21083 39168 40325 58004 91153 333 10144 21056 555 90312=
72267 32966 00205 11050 21083 39168 40325 58004 91153 333 10144 21056 555 90312=
72268 35966 03404 11022 21061 39036 40308 55002 91151 333 10150 21028 555 90312=
72268 35966 03404 11022 21061 39036 40308 55002 91151 333 10150 21028 555 90312=
72270 32966 20107 10022 21094 38934 40287 55002 91151 333 10172 20000 555 90312=
72270 32966 20107 10022 21094 38934 40287 55002 91151 333 10172 20000 555 90312=
72271 35966 03204 11028 21089 38643 40297 55001 91153 333 10133 21028 555 90312=
72271 35966 03204 11028 21089 38643 40297 55001 91153 333 10133 21028 555 90312=
72274 32966 01008 10111 21072 39332 40228 55005 91153 333 10194 20039 555 90312=
72274 32966 01008 10111 21072 39332 40228 55005 91153 333 10194 20039 555 90312=
72278 32966 60000 10078 21011 39839 40234 55006 91151 333 10200 20067 555 90312=
72278 32966 60000 10078 21011 39839 40234 55006 91151 333 10200 20067 555 90312=
72290 32966 60000 10094 20028 30222 40235 58003 91151 333 10200 20094 555 90312=
72290 32966 60000 10094 20028 30222 40235 58003 91151 333 10200 20094 555 90312=
72295 32966 63104 10117 20067 30178 40230 58003 91153 333 10194 20100 555 90312=
72295 32966 63104 10117 20067 30178 40230 58003 91153 333 10194 20100 555 90312=
72297 35966 02903 10117 20022 30218 40229 58003 91153 333 10211 20111 555 90312=
72297 35966 02903 10117 20022 30218 40229 58003 91153 333 10211 20111 555 90312=
72306 12966 83103 10056 20011 30010 40167 51016 69901 91151 333 10061 20056 70071 555 90312=
72306 12966 83103 10056 20011 30010 40167 51016 69901 91151 333 10061 20056 70071 555 90312=
72308 32966 0//03 10061 20017 30122 40136 51012 91151 333 10044 20033 70008 555 90312=
72308 32966 0//03 10061 20017 30122 40136 51012 91151 333 10044 20033 70008 555 90312=
72310 11461 83105 10089 20083 30091 40179 50005 60071 761// 91156 333 10100 20083 70180 96010 555 90312=
72310 11461 83105 10089 20083 30091 40179 50005 60071 761// 91156 333 10100 20083 70180 96010 555 90312=
72311 15966 83007 10061 20017 39901 40197 53008 69981 91151 333 10111 20061 70234 555 90312=
72311 15966 83007 10061 20017 39901 40197 53008 69981 91151 333 10111 20061 70234 555 90312=
72312 32966 0//06 10056 21067 39842 40183 51009 91153 333 10083 20050 70178 91019 555 90312=
72312 32966 0//06 10056 21067 39842 40183 51009 91153 333 10083 20050 70178 91019 555 90312=
72314 12966 83105 10056 20011 39917 40180 53010 69901 91152 333 10078 20056 70163 555 90312=
72314 12966 83105 10056 20011 39917 40180 53010 69901 91152 333 10078 20056 70163 555 90312=
72315 32966 03414 10000 21067 39400 40189 51009 91154 333 10067 20000 70064 91020 555 90312=
72315 32966 03414 10000 21067 39400 40189 51009 91154 333 10067 20000 70064 91020 555 90312=
72317 32966 83211 10039 21050 39839 40167 53010 91154 333 10061 20039 70064 555 90312=
72317 32966 83211 10039 21050 39839 40167 53010 91154 333 10061 20039 70064 555 90312=
72320 35966 00206 10028 21033 30012 40242 53028 91153 333 10078 20028 70254 91016 555 90312=
72320 35966 00206 10028 21033 30012 40242 53028 91153 333 10078 20028 70254 91016 555 90312=
72323 32966 03405 11006 21028 30041 40274 53021 91153 333 10044 21006 70221 555 90312=
72323 32966 03405 11006 21028 30041 40274 53021 91153 333 10044 21006 70221 555 90312=
72324 32966 03413 10017 21039 39998 40253 53015 91153 333 10072 20017 70145 555 90312=
72324 32966 03413 10017 21039 39998 40253 53015 91153 333 10072 20017 70145 555 90312=
72326 32966 23605 10000 21044 39879 40245 53015 91153 333 10056 20000 70028 555 90312=
72326 32966 23605 10000 21044 39879 40245 53015 91153 333 10056 20000 70028 555 90312=
72327 32466 23510 11017 21056 30035 40293 53025 91153 333 10022 21017 91017 555 90312=
72327 32466 23510 11017 21056 30035 40293 53025 91153 333 10022 21017 91017 555 90312=
72332 35966 03606 10000 21039 30164 40292 53023 91153 333 10033 20000 70295 555 90312=
72332 35966 03606 10000 21039 30164 40292 53023 91153 333 10033 20000 70295 555 90312=
72334 32966 00108 11011 21050 30203 40310 53027 91154 333 10006 21022 70005 555 90312=
72334 32966 00108 11011 21050 30203 40310 53027 91154 333 10006 21022 70005 555 90312=
72344 31948 00000 11022 21033 30158 40332 53006 710// 91153 333 10033 21028 70010 555 90312=
72344 31948 00000 11022 21033 30158 40332 53006 710// 91153 333 10033 21028 70010 555 90312=
72351 32966 03409 11022 21044 39968 40346 53013 91152 333 10056 21022 70003 555 90312=
72351 32966 03409 11022 21044 39968 40346 53013 91152 333 10056 21022 70003 555 90312=
72353 32966 03509 11033 21061 39871 40347 53006 91152 333 10078 21033 555 90312=
72353 32966 03509 11033 21061 39871 40347 53006 91152 333 10078 21033 555 90312=
72356 32966 43609 11050 21100 30101 40359 53013 91153 333 10078 21050 555 90312=
72356 32966 43609 11050 21100 30101 40359 53013 91153 333 10078 21050 555 90312=
72360 35966 02511 11028 21106 38578 40299 56010 91155 333 10106 21072 555 90312=
72360 35966 02511 11028 21106 38578 40299 56010 91155 333 10106 21072 555 90312=
72363 32966 02208 11044 21089 39044 40317 58012 91153 333 10122 21061 555 90312=
72363 32966 02208 11044 21089 39044 40317 58012 91153 333 10122 21061 555 90312=
72365 32966 03103 11033 21106 38495 40322 55001 91152 333 10106 21033 555 90312=
72365 32966 03103 11033 21106 38495 40322 55001 91152 333 10106 21033 555 90312=
72370 35966 00000 10033 21067 39072 40234 58012 91151 333 10167 21006 555 90312=
72370 35966 00000 10033 21067 39072 40234 58012 91151 333 10167 21006 555 90312=
72371 35964 00000 11022 21072 38824 40326 58002 91153 333 10078 21022 555 90312=
72371 35964 00000 11022 21072 38824 40326 58002 91153 333 10078 21022 555 90312=
72374 35966 01603 11072 21111 38627 40333 58002 91156 333 10094 21083 555 90312=
72374 35966 01603 11072 21111 38627 40333 58002 91156 333 10094 21083 555 90312=
72376 35966 00706 11072 21106 38427 40353 53001 91153 333 10056 21083 555 90312=
72376 35966 00706 11072 21106 38427 40353 53001 91153 333 10056 21083 555 90312=
72383 35966 00512 10056 21106 38687 40234 58005 91153 333 10100 20056 555 90312=
72383 35966 00512 10056 21106 38687 40234 58005 91153 333 10100 20056 555 90312=
72384 35966 00803 10078 20028 30058 40237 50004 91154 333 10178 20061 555 90312=
72384 35966 00803 10078 20028 30058 40237 50004 91154 333 10178 20061 555 90312=
72386 32966 80000 10067 21044 39518 40263 56013 91156 333 10150 20061 555 90312=
72386 32966 80000 10067 21044 39518 40263 56013 91156 333 10150 20061 555 90312=
72387 35966 00408 10033 21056 39097 40249 55010 91153 333 10139 20022 555 90312=
72387 35966 00408 10033 21056 39097 40249 55010 91153 333 10139 20022 555 90312=
72389 32966 81403 10078 20028 30121 40245 58000 91153 333 10178 20078 555 90312=
72389 32966 81403 10078 20028 30121 40245 58000 91153 333 10178 20078 555 90312=
72394 35966 00000 10078 20011 30147 40241 58008 91151 333 10194 20061 555 90312=
72394 35966 00000 10078 20011 30147 40241 58008 91151 333 10194 20061 555 90312=
72401 32966 82807 10050 21033 30085 40151 51020 91154 333 10050 20033 70003 555 90312=
72401 32966 82807 10050 21033 30085 40151 51020 91154 333 10050 20033 70003 555 90312=
72402 35966 03207 10028 21028 30118 40133 53015 91154 333 10044 20000 555 90312=
72402 35966 03207 10028 21028 30118 40133 53015 91154 333 10044 20000 555 90312=
72403 32766 83414 10017 21056 30034 40149 53021 91152 333 10050 20006 91026 555 90312=
72403 32766 83414 10017 21056 30034 40149 53021 91152 333 10050 20006 91026 555 90312=
72405 32766 83111 10039 21072 30127 40147 53019 91152 333 10089 20028 91026 555 90312=
72405 32766 83111 10039 21072 30127 40147 53019 91152 333 10089 20028 91026 555 90312=
72406 11764 63314 10028 21056 30071 40142 53024 69901 771// 91154 333 10056 20022 91024 555 90312=
72406 11764 63314 10028 21056 30071 40142 53024 69901 771// 91154 333 10056 20022 91024 555 90312=
72407 32766 62807 10011 21050 30073 40114 53010 91154 333 10044 20006 555 90312=
72407 32766 62807 10011 21050 30073 40114 53010 91154 333 10044 20006 555 90312=
72408 12566 63314 11006 21061 30117 40137 53033 69901 91154 333 10050 21006 555 90312=
72408 12566 63314 11006 21061 30117 40137 53033 69901 91154 333 10050 21006 555 90312=
72411 32666 63018 10022 21072 39744 40177 53010 91154 333 10078 20022 70005 91035 555 90312=
72411 32666 63018 10022 21072 39744 40177 53010 91154 333 10078 20022 70005 91035 555 90312=
72412 35566 83209 11039 21078 39294 40218 53014 91151 333 10006 21039 555 90312=
72412 35566 83209 11039 21078 39294 40218 53014 91151 333 10006 21039 555 90312=
72414 12566 63212 11028 21078 39861 40240 53032 69901 91154 333 10017 21028 91018 555 90312=
72414 12566 63212 11028 21078 39861 40240 53032 69901 91154 333 10017 21028 91018 555 90312=
72417 17561 82915 11044 21089 39470 40201 53021 69901 771// 91151 333 10039 21044 91020 555 90312=
72417 17561 82915 11044 21089 39470 40201 53021 69901 771// 91151 333 10039 21044 91020 555 90312=
72421 32966 03212 11072 21128 39948 40282 53028 91152 333 10017 21072 555 90312=
72421 32966 03212 11072 21128 39948 40282 53028 91152 333 10017 21072 555 90312=
72422 32966 03410 11050 21100 39911 40280 53030 91154 333 10028 21050 555 90312=
72422 32966 03410 11050 21100 39911 40280 53030 91154 333 10028 21050 555 90312=
72423 32966 43512 11050 21139 30118 40300 53030 91156 333 10033 21050 555 90312=
72423 32966 43512 11050 21139 30118 40300 53030 91156 333 10033 21050 555 90312=
72425 32666 23512 11044 21122 39949 40261 53041 91151 333 10022 21044 555 90312=
72425 32666 23512 11044 21122 39949 40261 53041 91151 333 10022 21044 555 90312=
72428 12666 83609 11067 21133 39961 40267 53029 69901 91151 333 10028 21067 555 90312=
72428 12666 83609 11067 21133 39961 40267 53029 69901 91151 333 10028 21067 555 90312=
72429 11564 83315 11067 21133 39902 40281 53027 69901 771// 91156 333 10039 21067 555 90312=
72429 11564 83315 11067 21133 39902 40281 53027 69901 771// 91156 333 10039 21067 555 90312=
72432 32966 03409 11072 21133 30183 40331 53027 91154 333 10028 21072 91015 555 90312=
72432 32966 03409 11072 21133 30183 40331 53027 91154 333 10028 21072 91015 555 90312=
72434 32966 03509 11100 21172 30144 40363 53017 91151 333 10106 21100 555 90312=
72434 32966 03509 11100 21172 30144 40363 53017 91151 333 10106 21100 555 90312=
72435 32966 03608 11050 21100 30175 40324 53024 91153 333 10022 21050 555 90312=
72435 32966 03608 11050 21100 30175 40324 53024 91153 333 10022 21050 555 90312=
72438 32566 23212 11106 21172 30010 40313 53023 91154 333 10044 21106 555 90312=
72438 32566 23212 11106 21172 30010 40313 53023 91154 333 10044 21106 555 90312=
72440 32966 03608 11083 21128 39865 40344 51009 91152 333 10078 21083 555 90312=
72440 32966 03608 11083 21128 39865 40344 51009 91152 333 10078 21083 555 90312=
72445 35966 03308 11111 21183 30028 40366 53010 91154 333 10106 21111 555 90312=
72445 35966 03308 11111 21183 30028 40366 53010 91154 333 10106 21111 555 90312=
72446 32966 00206 11122 21200 39976 40376 56003 91153 333 10111 21128 555 90312=
72446 32966 00206 11122 21200 39976 40376 56003 91153 333 10111 21128 555 90312=
72450 32966 00406 11094 21150 39859 40363 53002 91153 333 10122 21094 555 90312=
72450 32966 00406 11094 21150 39859 40363 53002 91153 333 10122 21094 555 90312=
72451 35961 01708 11094 21111 39382 40336 56014 91152 333 10061 21106 555 90312=
72451 35961 01708 11094 21111 39382 40336 56014 91152 333 10061 21106 555 90312=
72456 35966 00305 11128 21194 30042 40378 57009 91153 333 10117 21128 555 90312=
72456 35966 00305 11128 21194 30042 40378 57009 91153 333 10117 21128 555 90312=
72458 35966 01205 11128 21167 39801 40360 56020 91155 333 10028 21133 555 90312=
72458 35966 01205 11128 21167 39801 40360 56020 91155 333 10028 21133 555 90312=
72462 35966 00703 11172 21189 37810 40364 53001 91152 333 10072 21178 555 90312=
72462 35966 00703 11172 21189 37810 40364 53001 91152 333 10072 21178 555 90312=
72464 35966 02903 11117 21144 38662 40306 55008 91153 333 10100 21133 555 90312=
72464 35966 02903 11117 21144 38662 40306 55008 91153 333 10100 21133 555 90312=
72465 35966 02212 11039 21094 38973 40288 56014 91153 333 10011 21100 555 90312=
72465 35966 02212 11039 21094 38973 40288 56014 91153 333 10011 21100 555 90312=
72476 35966 01308 11056 21089 38684 40355 53003 91153 333 10061 21056 555 90312=
72476 35966 01308 11056 21089 38684 40355 53003 91153 333 10061 21056 555 90312=
72480 35966 00000 11028 21072 38816 40242 58009 91156 333 10128 21039 555 90312=
72480 35966 00000 11028 21072 38816 40242 58009 91156 333 10128 21039 555 90312=
72486 359// 02017 11006 21083 38152 40262 58016 91153 333 10039 21094 555 90312=
72486 359// 02017 11006 21083 38152 40262 58016 91153 333 10039 21094 555 90312=
72488 32966 60000 11022 21056 38704 40230 58006 91155 333 10083 21028 555 90312=
72488 32966 60000 11022 21056 38704 40230 58006 91155 333 10083 21028 555 90312=
72492 329// 01306 10083 20039 30211 40222 58007 91155 333 10150 20061 555 90312=
72492 329// 01306 10083 20039 30211 40222 58007 91155 333 10150 20061 555 90312=
72494 11666 82004 10122 20050 30185 40216 55004 69951 761// 91156 333 10167 20122 70005 555 90312=
72494 11666 82004 10122 20050 30185 40216 55004 69951 761// 91156 333 10167 20122 70005 555 90312=
72502 32666 23120 11028 21144 30120 40126 52044 91151 333 10056 21028 91032 555 90312=
72502 32666 23120 11028 21144 30120 40126 52044 91151 333 10056 21028 91032 555 90312=
72503 32766 43121 11022 21122 30108 40121 53042 91151 333 10044 21022 91031 555 90312=
72503 32766 43121 11022 21122 30108 40121 53042 91151 333 10044 21022 91031 555 90312=
72504 32966 03118 11022 21156 30093 40099 53029 91152 333 10039 21022 91022 555 90312=
72504 32966 03118 11022 21156 30093 40099 53029 91152 333 10039 21022 91022 555 90312=
72507 32666 23116 11022 21117 30055 40075 53030 91151 333 10028 21028 91025 555 90312=
72507 32666 23116 11022 21117 30055 40075 53030 91151 333 10028 21028 91025 555 90312=
72508 32666 23316 11067 21178 30040 40114 53047 91151 333 10039 21067 91026 555 90312=
72508 32666 23316 11067 21178 30040 40114 53047 91151 333 10039 21067 91026 555 90312=
72509 12666 43117 11039 21150 30067 40073 53040 69901 91154 333 10033 21039 91030 555 90312=
72509 12666 43117 11039 21150 30067 40073 53040 69901 91154 333 10033 21039 91030 555 90312=
72513 12666 83011 11083 21167 39794 40149 51032 69901 91154 333 10022 21083 555 90312=
72513 12666 83011 11083 21167 39794 40149 51032 69901 91154 333 10022 21083 555 90312=
72514 12766 83209 11078 21128 39969 40172 53038 69901 91154 333 10044 21078 555 90312=
72514 12766 83209 11078 21128 39969 40172 53038 69901 91154 333 10044 21078 555 90312=
72515 11556 83312 11139 21172 39545 40148 51023 69901 771// 91153 333 11006 21139 91021 555 90312=
72515 11556 83312 11139 21172 39545 40148 51023 69901 771// 91153 333 11006 21139 91021 555 90312=
72517 12666 83514 11056 21128 30005 40146 51044 69901 91151 333 10033 21056 91021 555 90312=
72517 12666 83514 11056 21128 30005 40146 51044 69901 91151 333 10033 21056 91021 555 90312=
72518 12666 42917 11117 21200 30035 40148 51042 69901 91151 333 10022 21117 4/005 91024 555 90312=
72518 12666 42917 11117 21200 30035 40148 51042 69901 91151 333 10022 21117 4/005 91024 555 90312=
72519 11664 83118 11133 21206 30027 40183 51028 69901 771// 91154 333 10028 21133 4/005 70003 91022 555 90312=
72519 11664 83118 11133 21206 30027 40183 51028 69901 771// 91154 333 10028 21133 4/005 70003 91022 555 90312=
72520 12666 63316 11100 21172 39789 40239 51036 69901 91151 333 10022 21100 91021 555 90312=
72520 12666 63316 11100 21172 39789 40239 51036 69901 91151 333 10022 21100 91021 555 90312=
72521 11664 83213 11094 21172 39785 40250 53027 69901 771// 91151 333 10028 21094 4/003 70005 555 90312=
72521 11664 83213 11094 21172 39785 40250 53027 69901 771// 91151 333 10028 21094 4/003 70005 555 90312=
72524 11664 83016 11094 21183 39967 40277 53027 69901 771// 91151 333 10039 21094 91023 555 90312=
72524 11664 83016 11094 21183 39967 40277 53027 69901 771// 91151 333 10039 21094 91023 555 90312=
72525 11662 83011 11106 21172 39795 40241 53025 69901 771// 91151 333 10022 21106 70003 91022 555 90312=
72525 11662 83011 11106 21172 39795 40241 53025 69901 771// 91151 333 10022 21106 70003 91022 555 90312=
72526 12564 83016 11094 21161 39954 40231 53023 69901 91151 333 10033 21094 91021 555 90312=
72526 12564 83016 11094 21161 39954 40231 53023 69901 91151 333 10033 21094 91021 555 90312=
72528 11562 83011 11122 21178 39934 40215 53031 69901 771// 91154 333 10017 21122 4/005 91020 555 90312=
72528 11562 83011 11122 21178 39934 40215 53031 69901 771// 91154 333 10017 21122 4/005 91020 555 90312=
72529 11461 63413 11139 21172 39983 40209 51031 69931 771// 91154 333 10022 21139 4/005 70013 555 90312=
72529 11461 63413 11139 21172 39983 40209 51031 69931 771// 91154 333 10022 21139 4/005 70013 555 90312=
72530 32566 23411 11172 21250 30086 40343 53018 91151 333 10006 21172 4/005 555 90312=
72530 32566 23411 11172 21250 30086 40343 53018 91151 333 10006 21172 4/005 555 90312=
72532 32966 03406 11161 21217 30107 40367 51018 91154 333 10050 21161 555 90312=
72532 32966 03406 11161 21217 30107 40367 51018 91154 333 10050 21161 555 90312=
72533 12466 63308 11089 21133 39986 40295 53025 69901 91154 333 10028 21089 4/003 555 90312=
72533 12466 63308 11089 21133 39986 40295 53025 69901 91154 333 10028 21089 4/003 555 90312=
72535 11556 83308 11094 21133 30009 40308 53016 69901 771// 91154 333 10022 21094 555 90312=
72535 11556 83308 11094 21133 30009 40308 53016 69901 771// 91154 333 10022 21094 555 90312=
72536 32566 63309 11106 21161 30025 40288 51027 91152 333 10028 21106 555 90312=
72536 32566 63309 11106 21161 30025 40288 51027 91152 333 10028 21106 555 90312=
72537 32666 83113 11133 21206 30042 40288 53027 91153 333 10011 21133 91019 555 90312=
72537 32666 83113 11133 21206 30042 40288 53027 91153 333 10011 21133 91019 555 90312=
72539 32666 83309 11133 21206 39964 40297 53018 91153 333 10011 21133 555 90312=
72539 32666 83309 11133 21206 39964 40297 53018 91153 333 10011 21133 555 90312=
72543 32966 03406 11194 21261 30078 40363 53015 91154 333 11017 21194 4/015 555 90312=
72543 32966 03406 11194 21261 30078 40363 53015 91154 333 11017 21194 4/015 555 90312=
72544 32966 03208 11178 21233 30135 40373 51013 91152 333 10033 21178 555 90312=
72544 32966 03208 11178 21233 30135 40373 51013 91152 333 10033 21178 555 90312=
72546 32766 80204 11189 21250 30016 40395 50002 91154 333 11022 21189 555 90312=
72546 32766 80204 11189 21250 30016 40395 50002 91154 333 11022 21189 555 90312=
72547 32966 03308 11217 21261 39950 40371 53017 91153 333 11033 21222 555 90312=
72547 32966 03308 11217 21261 39950 40371 53017 91153 333 11033 21222 555 90312=
72548 32966 03108 11222 21272 30053 40396 53012 91154 333 11056 21233 555 90312=
72548 32966 03108 11222 21272 30053 40396 53012 91154 333 11056 21233 555 90312=
72550 32966 20000 11167 21206 39983 40383 58015 91152 333 11028 21167 555 90312=
72550 32966 20000 11167 21206 39983 40383 58015 91152 333 11028 21167 555 90312=
72551 32966 00905 11156 21200 39915 40380 56017 91154 333 10017 21161 555 90312=
72551 32966 00905 11156 21200 39915 40380 56017 91154 333 10017 21161 555 90312=
72552 35966 01606 11150 21189 39649 40360 56017 91153 333 11011 21156 555 90312=
72552 35966 01606 11150 21189 39649 40360 56017 91153 333 11011 21156 555 90312=
72556 35566 41305 11183 21228 39764 40367 56012 91156 333 11056 21194 555 90312=
72556 35566 41305 11183 21228 39764 40367 56012 91156 333 11056 21194 555 90312=
72557 32666 81107 11172 21217 39945 40383 58012 91152 333 11072 21194 555 90312=
72557 32666 81107 11172 21217 39945 40383 58012 91152 333 11072 21194 555 90312=
72562 35262 81804 11100 21122 39277 40314 56013 91153 333 11017 21156 555 90312=
72562 35262 81804 11100 21122 39277 40314 56013 91153 333 11017 21156 555 90312=
72564 35966 02827 10011 21128 38171 40253 56002 91153 333 10044 21028 91038 555 90312=
72564 35966 02827 10011 21128 38171 40253 56002 91153 333 10044 21028 91038 555 90312=
72565 32966 02210 11028 21122 38415 40274 55005 91153 333 10017 21028 555 90312=
72565 32966 02210 11028 21122 38415 40274 55005 91153 333 10017 21028 555 90312=
72566 35966 02909 11028 21100 38855 40268 58011 91153 333 10011 21122 555 90312=
72566 35966 02909 11028 21100 38855 40268 58011 91153 333 10011 21122 555 90312=
72567 37959 00503 11156 21167 39311 40291 56021 710// 91152 333 11039 21178 555 90312=
72567 37959 00503 11156 21167 39311 40291 56021 710// 91152 333 11039 21178 555 90312=
72569 17964 02223 11033 21106 38420 40270 56010 69901 771// 91153 333 11006 21039 555 90312=
72569 17964 02223 11033 21106 38420 40270 56010 69901 771// 91153 333 11006 21039 555 90312=
72570 37012 80000 11233 21272 38227 40460 51001 704// 91153 333 11100 21278 555 90312=
72570 37012 80000 11233 21272 38227 40460 51001 704// 91153 333 11100 21278 555 90312=
72572 31956 63103 11056 21083 38826 40323 58013 705// 91154 333 10028 21061 555 90312=
72572 31956 63103 11056 21083 38826 40323 58013 705// 91154 333 10028 21061 555 90312=
72578 35966 00304 11139 21167 38736 40343 56011 91153 333 11028 21150 555 90312=
72578 35966 00304 11139 21167 38736 40343 56011 91153 333 11028 21150 555 90312=
72591 15966 83005 10044 20011 30094 40220 55005 69901 91154 333 10128 20017 555 90312=
72591 15966 83005 10044 20011 30094 40220 55005 69901 91154 333 10128 20017 555 90312=
72592 37958 60000 10039 20000 30024 40212 55008 704// 91153 333 10133 20017 555 90312=
72592 37958 60000 10039 20000 30024 40212 55008 704// 91153 333 10133 20017 555 90312=
72594 17566 8//// 10078 20056 30161 40188 50033 60061 761// 91153 333 10189 20078 70056 555 90312=
72594 17566 8//// 10078 20056 30161 40188 50033 60061 761// 91153 333 10189 20078 70056 555 90312=
72597 35966 0//06 10106 21067 39671 40140 55004 91153 333 91020 555 90312=
72597 35966 0//06 10106 21067 39671 40140 55004 91153 333 91020 555 90312=
72605 15666 23324 11106 21206 39958 40089 51051 69901 91151 333 10006 21106 91033 555 90312=
72605 15666 23324 11106 21206 39958 40089 51051 69901 91151 333 10006 21106 91033 555 90312=
72606 12666 23019 11106 21233 30046 40066 53054 69901 91151 333 10000 21106 91025 555 90312=
72606 12666 23019 11106 21233 30046 40066 53054 69901 91151 333 10000 21106 91025 555 90312=
72613 11/00 92974 11317 21317 37787 57017 60051 74974 333 11150 21317 4/061 70053 90941 93104=
72617 12566 83222 11172 21250 30023 40155 51034 69901 91154 333 10000 21172 4/023 91028 555 90312=
72617 12566 83222 11172 21250 30023 40155 51034 69901 91154 333 10000 21172 4/023 91028 555 90312=
72635 11666 83210 11128 21183 30000 40303 53017 69901 771// 91153 333 10006 21128 4/013 555 90312=
72635 11666 83210 11128 21183 30000 40303 53017 69901 771// 91153 333 10006 21128 4/013 555 90312=
72636 11656 83411 11117 21167 30071 40312 53013 69901 771// 91155 333 10017 21117 4/018 555 90312=
72636 11656 83411 11117 21167 30071 40312 53013 69901 771// 91155 333 10017 21117 4/018 555 90312=
72637 32966 02809 11167 21222 39991 40287 52020 91153 333 10011 21167 555 90312=
72637 32966 02809 11167 21222 39991 40287 52020 91153 333 10011 21167 555 90312=
72638 17558 83008 11156 21189 39828 40275 51020 69931 704// 91153 333 11017 21156 70003 555 90312=
72638 17558 83008 11156 21189 39828 40275 51020 69931 704// 91153 333 11017 21156 70003 555 90312=
72639 17448 83104 11194 21217 30011 40284 51015 69931 710// 91154 333 11006 21194 70003 555 90312=
72639 17448 83104 11194 21217 30011 40284 51015 69931 710// 91154 333 11006 21194 70003 555 90312=
72640 32966 23310 11178 21261 30079 40346 53021 91152 333 10000 21178 4/015 91024 555 90312=
72640 32966 23310 11178 21261 30079 40346 53021 91152 333 10000 21178 4/015 91024 555 90312=
72641 32966 03406 11211 21278 30023 40361 53013 91153 333 11028 21211 4/013 555 90312=
72641 32966 03406 11211 21278 30023 40361 53013 91153 333 11028 21211 4/013 555 90312=
72644 32966 83307 11250 21283 39862 40386 53009 91154 333 11089 21267 555 90312=
72644 32966 83307 11250 21283 39862 40386 53009 91154 333 11089 21267 555 90312=
72645 32966 03010 11217 21267 30087 40354 53018 91153 333 11050 21217 555 90312=
72645 32966 03010 11217 21267 30087 40354 53018 91153 333 11050 21217 555 90312=
72651 32666 81408 11178 21233 39809 40368 58015 91156 333 11067 21211 4/043 555 90312=
72651 32666 81408 11178 21233 39809 40368 58015 91156 333 11067 21211 4/043 555 90312=
72654 35966 01611 11178 21222 39845 40348 56026 91155 333 11072 21206 555 90312=
72654 35966 01611 11178 21222 39845 40348 56026 91155 333 11072 21206 555 90312=
72658 32966 43105 11239 21294 30055 40403 51009 91153 333 11094 21250 4/025 555 90312=
72658 32966 43105 11239 21294 30055 40403 51009 91153 333 11094 21250 4/025 555 90312=
72659 35666 81511 11172 21211 39830 40344 56029 91153 333 11072 21239 555 90312=
72659 35666 81511 11172 21211 39830 40344 56029 91153 333 11072 21239 555 90312=
72662 37004 90000 11122 21139 39077 40250 58016 731// 91152 333 10006 21122 555 90312=
72662 37004 90000 11122 21139 39077 40250 58016 731// 91152 333 10006 21122 555 90312=
72666 35966 02617 10078 21072 38805 40203 56015 91153 333 10072 21100 555 90312=
72666 35966 02617 10078 21072 38805 40203 56015 91153 333 10072 21100 555 90312=
72672 35966 01904 11156 21183 38387 40339 58006 91153 333 11083 21194 555 90312=
72672 35966 01904 11156 21183 38387 40339 58006 91153 333 11083 21194 555 90312=
72677 32966 62421 10022 21078 38928 40198 56002 91153 333 10033 20011 4/003 91028 555 90312=
72677 32966 62421 10022 21078 38928 40198 56002 91153 333 10033 20011 4/003 91028 555 90312=
72681 32966 00000 11044 21078 39236 40272 56014 91153 333 10044 21044 555 90312=
72681 32966 00000 11044 21078 39236 40272 56014 91153 333 10044 21044 555 90312=
72683 35966 82705 11078 21111 38775 40250 56012 91153 333 11006 21111 555 90312=
72683 35966 82705 11078 21111 38775 40250 56012 91153 333 11006 21111 555 90312=
72688 35966 02904 11028 21056 39636 40183 56015 91153 333 10044 21050 555 90312=
72688 35966 02904 11028 21056 39636 40183 56015 91153 333 10044 21050 555 90312=
72693 37958 61804 11006 21017 39995 40136 55008 710// 91154 333 10083 21017 555 90312=
72693 37958 61804 11006 21017 39995 40136 55008 710// 91154 333 10083 21017 555 90312=
72694 35961 01506 10011 21006 30051 40123 56012 91156 333 10072 20000 555 90312=
72694 35961 01506 10011 21006 30051 40123 56012 91156 333 10072 20000 555 90312=
72698 32966 60000 10033 20000 30113 40121 56019 91153 333 10100 20022 555 90312=
72698 32966 60000 10033 20000 30113 40121 56019 91153 333 10100 20022 555 90312=
72712 17958 03014 11178 21250 39761 40004 53030 69951 728// 91154 333 11050 21178 70005 91026 555 90312=
72712 17958 03014 11178 21250 39761 40004 53030 69951 728// 91154 333 11050 21178 70005 91026 555 90312=
72745 32966 03105 11294 21333 39808 40384 51005 91155 333 11122 21300 555 90312=
72745 32966 03105 11294 21333 39808 40384 51005 91155 333 11122 21300 555 90312=
72747 35966 00000 11372 39900 40388 58001 91154 333 11144 21378 555 90312=
72747 35966 00000 11372 39900 40388 58001 91154 333 11144 21378 555 90312=
72753 32866 81406 11233 21272 30008 40375 56022 91153 333 11128 21289 555 90312=
72753 32866 81406 11233 21272 30008 40375 56022 91153 333 11128 21289 555 90312=
72764 32/// 39658 56029 91152 333 11083 555 90312=
72764 32/// 39658 56029 91152 333 11083 555 90312=
72768 35966 01305 11161 21194 39349 40212 56014 91153 333 11144 21167 555 90312=
72768 35966 01305 11161 21194 39349 40212 56014 91153 333 11144 21167 555 90312=
72772 35966 00000 11067 21100 38854 40267 58002 91153 333 10039 21072 555 90312=
72772 35966 00000 11067 21100 38854 40267 58002 91153 333 10039 21072 555 90312=
72773 35966 00000 11100 21117 39094 40263 58008 91153 333 10000 21117 555 90312=
72773 35966 00000 11100 21117 39094 40263 58008 91153 333 10000 21117 555 90312=
72776 32966 02215 10017 21061 38891 40199 55002 91153 333 10044 20011 555 90312=
72776 32966 02215 10017 21061 38891 40199 55002 91153 333 10044 20011 555 90312=
72777 35966 01103 11144 21167 39228 40193 58013 91153 333 11117 21161 555 90312=
72777 35966 01103 11144 21167 39228 40193 58013 91153 333 11117 21161 555 90312=
72781 35961 00000 11050 21072 39811 40208 58013 91153 333 10050 21050 555 90312=
72781 35961 00000 11050 21072 39811 40208 58013 91153 333 10050 21050 555 90312=
72783 35966 01213 10044 21083 39685 40210 56016 91156 333 10089 20039 555 90312=
72783 35966 01213 10044 21083 39685 40210 56016 91156 333 10089 20039 555 90312=
72785 32966 60504 11039 21056 39336 40216 56012 91153 333 10028 21039 4/005 555 90312=
72785 32966 60504 11039 21056 39336 40216 56012 91153 333 10028 21039 4/005 555 90312=
72791 35966 81405 10067 21006 30104 40109 58006 91155 333 10133 20039 555 90312=
72791 35966 81405 10067 21006 30104 40109 58006 91155 333 10133 20039 555 90312=
72792 35966 00000 10000 21011 30045 40117 56026 91154 333 10089 21006 555 90312=
72792 35966 00000 10000 21011 30045 40117 56026 91154 333 10089 21006 555 90312=
72793 32966 80000 10039 21028 39946 40116 58029 91153 333 10106 20033 555 90312=
72793 32966 80000 10039 21028 39946 40116 58029 91153 333 10106 20033 555 90312=
72797 35966 60904 10072 20006 30033 40099 56022 91153 333 10106 20067 555 90312=
72797 35966 60904 10072 20006 30033 40099 56022 91153 333 10106 20067 555 90312=
74486 32666 23225 11028 21144 30111 40120 53035 91151 333 10039 21028 91032 555 90312=
74486 32666 23225 11028 21144 30111 40120 53035 91151 333 10039 21028 91032 555 90312=
74740 37958 03103 11033 21039 39709 40327 53010 710// 91151 333 10056 21033 70010 555 90312=
74740 37958 03103 11033 21039 39709 40327 53010 710// 91151 333 10056 21033 70010 555 90312=
78016 11465 42321 10210 20193 30142 40146 54001 69901 70281 83801 333 10220 20193 79999 90950=
78016 11465 42321 10210 20193 30142 40146 54001 69901 70281 83801 333 10220 20193 79999 90950=
78062 11465 62203 10230 20213 40193 60002 70311 85231 333 10287 20215 59029 85818=
78062 11465 62203 10230 20213 40193 60002 70311 85231 333 10287 20215 59029 85818=
78073 12965 09901 10188 20174 40197 60001 80000 333 10288 20171 59030=
78073 12965 09901 10188 20174 40197 60001 80000 333 10288 20171 59030=
78388 11575 51506 10235 20196 30165 40174 60001 70511 85840 333 10310 20219 58002 81822 84635=
78388 11575 51506 10235 20196 30165 40174 60001 70511 85840 333 10310 20219 58002 81822 84635=
78397 11574 69902 10245 20189 30152 40168 60001 70511 86800 333 10324 20220 59002 81822 86636=
78397 11574 69902 10245 20189 30152 40168 60001 70511 86800 333 10324 20220 59002 81822 86636=
78526 12566 41203 10239 20211 30170 40191 53019 69951 91156 333 10289 20228 70018 555 90312=
78526 12566 41203 10239 20211 30170 40191 53019 69951 91156 333 10289 20228 70018 555 90312=
78543 32966 00807 10244 20206 30109 40188 53017 91153 333 10289 20222 555 90312=
78543 32966 00807 10244 20206 30109 40188 53017 91153 333 10289 20222 555 90312=
78583 12475 60000 10224 20218 40182 60001 86200 333 02100 10291 20225 58009 86819=
78583 12475 60000 10224 20218 40182 60001 86200 333 02100 10291 20225 58009 86819=
78703 31560 30305 10238 20220 30176 40178 705// 81130 333 10295 20235 30/// 56100 58008 70000 81825 83357=
78703 31560 30305 10238 20220 30176 40178 705// 81130 333 10295 20235 30/// 56100 58008 70000 81825 83357=
78705 31570 19902 10182 20174 30154 40172 5//// 705// 81500 333 10287 20182 30/// 56000 58009 70000 81625=
78705 31570 19902 10182 20174 30154 40172 5//// 705// 81500 333 10287 20182 30/// 56000 58009 70000 81625=
78706 31559 30000 10224 20220 30126 40131 710// 83230 333 10306 20211 30/// 56210 58004 70000 83824 83357=
78706 31559 30000 10224 20220 30126 40131 710// 83230 333 10306 20211 30/// 56210 58004 70000 83824 83357=
78707 31560 30000 10140 20138 39421 40187 710// 83500 333 10296 20140 320/// 56000 58006 70000 83620=
78707 31560 30000 10140 20138 39421 40187 710// 83500 333 10296 20140 320/// 56000 58006 70000 83620=
78708 31458 60000 10206 20198 30140 40171 71044 86500 333 10305 20206 30/// 56100 58009 70000 86614=
78708 31458 60000 10206 20198 30140 40171 71044 86500 333 10305 20206 30/// 56100 58009 70000 86614=
78711 31570 70510 10245 20224 30134 40149 705// 83270 333 10304 20220 30/// 56100 59012 70000 83822 87358=
78711 31570 70510 10245 20224 30134 40149 705// 83270 333 10304 20220 30/// 56100 59012 70000 83822 87358=
78714 31560 30000 10164 20161 39/// 40/// 5//// 705// 83500 333 10294 20164 30/// 56000 705// 5//// 70000 83625=
78714 31560 30000 10164 20161 39/// 40/// 5//// 705// 83500333 10294 20164 30/// 56000 705// 5//// 70000 83625=
78717 31560 70000 10178 20170 38980 40160 705// 87500 333 10288 20178 30/// 56800 58005 70000 87620=
78717 31560 70000 10178 20170 38980 40160 705// 87500 333 10288 20178 30/// 56800 58005 70000 87620=
78718 31660 23606 10194 20154 705// 81431 333 10295 20178 30/// 56880 70000 81840=
78718 31660 23606 10194 20154 705// 81431 333 10295 20178 30/// 56880 70000 81840=
78719 32560 40204 10130 20114 38364 40134 84430 333	10220 20116 30/// 56100 58000 70000 84620=
78719 32560 40204 10130 20114 38364 40134 84430 333 10220 20116 30/// 56100 58000 70000 84620=
78720 31960 02703 10141 20115 39064 40214 53011 70544 333 10256 20136 30/// 58002 70000=
78720 31960 02703 10141 20115 39064 40214 53011 70544 333 10256 20136 30/// 58002 70000=
78866 11484 20709 10257 20200 30198 40203 52018 69951 70281 82800 333 10287 20228 59002 70005 82816=
78866 11484 20709 10257 20200 30198 40203 52018 69951 70281 82800 333 10287 20228 59002 70005 82816 0000370700=
78873 05/// /0707 10256 20198 30145 40189 53019 60001 333 55/// 21898 553// 20461 60005 91011 90760 91111=
78897 14984 /0908 10247 20200 40183 53019 60001 700// 333 10287 20205 59006 70004=
78897 14984 /0908 10247 20200 40183 53019 60001 700// 333 10287 20205 59006 70004=
78954 12586 30908 10252 20196 30081 40159 60001 83200 333 10284 20241 59009 70000 83822=
78962 12580 10604 10252 20202 30142 40162 60001 81100 333 00200 10293 20216 59009 70000 81822=
78962 12580 10604 10252 20202 30142 40162 60001 81100 333 00200 10293 20216 59009 70000 81822=
78970 11480 10908 10260 20197 30132 40157 60001 81842 333 00299 10306 20216 59012 81815=
78970 11480 10908 10260 20197 30132 40157 60001 81842 333 00299 10306 20216 59012 81815=
78988 02481 21211 10256 20205 30145 40156 51019 60001 82200 333 10288 20238 59011 60007 82819/=
78988 02481 21211 10256 20205 30145 40156 51019 60001 82200 333 10288 20238 59011 60007 82819=
78990 07581 10806 10260 20205 30150 40154 53018 60001 81/// 333 55/// 22281 553// 20306 60005 91010 90760 91110=